Time,TemperatureF,DewpointF,PressureIn,WindDirection,WindDirectionDegrees,WindSpeedMPH,WindSpeedGustMPH,Humidity,HourlyPrecipIn,Conditions,Clouds,dailyrainin,SoftwareType,DateUTC
2013-06-11 00:01:00,60.6,59.2,28.91,SSW,202,0.0,1.1,95,0.00,,,0.00,VWS V14.01,2013-06-11 05:01:00,
2013-06-11 00:02:00,60.6,59.2,28.91,South,180,1.1,1.1,95,0.00,,FEW,0.00,VWS V14.01,2013-06-11 05:02:00,
2013-06-11 00:03:00,60.6,59.2,28.91,South,180,0.0,1.1,95,0.00,,FEW,0.00,VWS V14.01,2013-06-11 05:03:00,
2013-06-11 00:04:00,60.4,59.0,28.91,SSW,202,0.0,0.0,95,0.00,,FEW,0.00,VWS V14.01,2013-06-11 05:04:00,
2013-06-11 00:05:00,60.4,59.0,28.91,SSW,202,0.0,0.0,95,0.00,,FEW,0.00,VWS V14.01,2013-06-11 05:05:00,
2013-06-11 00:06:00,60.4,59.0,28.91,SSW,202,0.0,0.0,95,0.00,,,0.00,VWS V14.01,2013-06-11 05:06:00,
2013-06-11 00:07:00,60.4,59.0,28.91,SSW,202,0.9,1.1,95,0.00,,FEW,0.00,VWS V14.01,2013-06-11 05:07:00,
2013-06-11 00:08:00,60.4,59.0,28.91,SSW,202,0.9,0.9,95,0.00,,FEW,0.00,VWS V14.01,2013-06-11 05:08:00,
2013-06-11 00:09:00,60.3,58.8,28.91,South,180,1.1,1.3,95,0.00,,FEW,0.00,VWS V14.01,2013-06-11 05:09:00,
2013-06-11 00:10:00,60.3,58.8,28.91,South,180,0.0,1.1,95,0.00,,FEW,0.00,VWS V14.01,2013-06-11 05:10:00,
2013-06-11 00:11:00,60.3,58.8,28.91,South,180,0.9,0.9,95,0.00,,,0.00,VWS V14.01,2013-06-11 05:11:00,
2013-06-11 00:12:00,60.3,58.8,28.91,SSE,158,0.0,0.9,95,0.00,,FEW,0.00,VWS V14.01,2013-06-11 05:12:00,
2013-06-11 00:13:00,60.3,58.8,28.91,SSW,202,1.3,1.3,95,0.00,,FEW,0.00,VWS V14.01,2013-06-11 05:13:00,
2013-06-11 00:14:00,60.1,58.7,28.91,SSW,202,0.9,1.3,95,0.00,,FEW,0.00,VWS V14.01,2013-06-11 05:14:00,
2013-06-11 00:15:00,60.1,58.7,28.91,SSW,202,0.0,1.3,95,0.00,,FEW,0.00,VWS V14.01,2013-06-11 05:15:00,
2013-06-11 00:16:00,60.1,58.7,28.91,South,180,0.0,0.0,95,0.00,,,0.00,VWS V14.01,2013-06-11 05:16:00,
2013-06-11 00:17:00,60.1,58.7,28.91,South,180,0.0,0.0,95,0.00,,FEW,0.00,VWS V14.01,2013-06-11 05:17:00,
2013-06-11 00:18:00,60.1,58.7,28.91,SSE,158,0.0,0.0,95,0.00,,FEW,0.00,VWS V14.01,2013-06-11 05:18:00,
2013-06-11 00:19:00,60.1,58.7,28.91,SSE,158,0.9,0.9,95,0.00,,FEW,0.00,VWS V14.01,2013-06-11 05:19:00,
2013-06-11 00:20:00,60.1,58.7,28.91,SSW,202,1.1,1.1,95,0.00,,FEW,0.00,VWS V14.01,2013-06-11 05:20:00,
2013-06-11 00:21:00,60.1,58.7,28.91,South,180,1.6,1.6,95,0.00,,,0.00,VWS V14.01,2013-06-11 05:21:00,
2013-06-11 00:22:00,60.1,58.7,28.91,SSE,158,0.0,1.6,95,0.00,,FEW,0.00,VWS V14.01,2013-06-11 05:22:00,
2013-06-11 00:23:00,60.1,58.7,28.91,SSE,158,1.1,1.1,95,0.00,,FEW,0.00,VWS V14.01,2013-06-11 05:23:00,
2013-06-11 00:24:00,60.1,58.7,28.91,SSW,202,0.0,1.1,95,0.00,,FEW,0.00,VWS V14.01,2013-06-11 05:24:00,
2013-06-11 00:25:00,60.1,58.9,28.91,SSE,158,2.2,2.2,96,0.00,,FEW,0.00,VWS V14.01,2013-06-11 05:25:00,
2013-06-11 00:26:00,60.1,58.9,28.91,SSE,158,1.6,1.6,96,0.00,,,0.00,VWS V14.01,2013-06-11 05:26:00,
2013-06-11 00:27:00,60.1,58.9,28.91,SSE,158,1.6,1.6,96,0.00,,FEW,0.00,VWS V14.01,2013-06-11 05:27:00,
2013-06-11 00:28:00,60.1,58.9,28.91,SSE,158,0.0,2.2,96,0.00,,FEW,0.00,VWS V14.01,2013-06-11 05:28:00,
2013-06-11 00:30:00,60.1,58.9,28.91,SSE,158,2.0,2.7,96,0.00,,FEW,0.00,VWS V14.01,2013-06-11 05:30:00,
2013-06-11 00:31:00,60.1,58.9,28.91,SSE,158,2.0,2.7,96,0.00,,,0.00,VWS V14.01,2013-06-11 05:31:00,
2013-06-11 00:32:00,60.1,59.2,28.91,SSE,158,1.6,2.7,97,0.00,,FEW,0.00,VWS V14.01,2013-06-11 05:32:00,
2013-06-11 00:33:00,60.1,59.2,28.91,SSE,158,2.2,2.2,97,0.00,,FEW,0.00,VWS V14.01,2013-06-11 05:33:00,
2013-06-11 00:34:00,60.1,59.2,28.91,SSE,158,1.3,2.2,97,0.00,,FEW,0.00,VWS V14.01,2013-06-11 05:34:00,
2013-06-11 00:35:00,60.1,59.2,28.91,SSE,158,2.0,2.0,97,0.00,,FEW,0.00,VWS V14.01,2013-06-11 05:35:00,
2013-06-11 00:36:00,60.1,59.2,28.91,SSW,202,2.5,2.5,97,0.00,,,0.00,VWS V14.01,2013-06-11 05:36:00,
2013-06-11 00:37:00,60.1,59.2,28.91,SSE,158,2.2,2.5,97,0.00,,FEW,0.00,VWS V14.01,2013-06-11 05:37:00,
2013-06-11 00:38:00,60.1,59.2,28.91,South,180,2.2,2.9,97,0.00,,FEW,0.00,VWS V14.01,2013-06-11 05:38:00,
2013-06-11 00:39:00,60.1,59.2,28.91,SSE,158,2.7,3.4,97,0.00,,FEW,0.00,VWS V14.01,2013-06-11 05:39:00,
2013-06-11 00:40:00,60.1,59.2,28.91,SSE,158,2.5,3.4,97,0.00,,FEW,0.00,VWS V14.01,2013-06-11 05:40:00,
2013-06-11 00:41:00,60.1,59.2,28.91,SSW,202,2.9,3.1,97,0.00,,,0.00,VWS V14.01,2013-06-11 05:41:00,
2013-06-11 00:42:00,60.1,59.2,28.91,South,180,3.1,3.1,97,0.00,,FEW,0.00,VWS V14.01,2013-06-11 05:42:00,
2013-06-11 00:43:00,60.1,59.2,28.91,SSE,158,2.2,3.1,97,0.00,,FEW,0.00,VWS V14.01,2013-06-11 05:43:00,
2013-06-11 00:44:00,60.1,59.2,28.91,SSE,158,0.0,2.2,97,0.00,,FEW,0.00,VWS V14.01,2013-06-11 05:44:00,
2013-06-11 00:45:00,60.1,59.2,28.91,SSE,158,1.6,2.2,97,0.00,,FEW,0.00,VWS V14.01,2013-06-11 05:45:00,
2013-06-11 00:46:00,59.9,59.0,28.91,SSE,158,2.0,2.0,97,0.00,,,0.00,VWS V14.01,2013-06-11 05:46:00,
2013-06-11 00:47:00,59.9,59.0,28.91,SSE,158,0.9,2.0,97,0.00,,FEW,0.00,VWS V14.01,2013-06-11 05:47:00,
2013-06-11 00:48:00,59.7,58.9,28.91,South,180,2.2,2.2,97,0.00,,FEW,0.00,VWS V14.01,2013-06-11 05:48:00,
2013-06-11 00:49:00,59.7,58.9,28.91,SSE,158,1.6,2.2,97,0.00,,FEW,0.00,VWS V14.01,2013-06-11 05:49:00,
2013-06-11 00:50:00,59.7,58.9,28.91,SSE,158,1.3,1.6,97,0.00,,FEW,0.00,VWS V14.01,2013-06-11 05:50:00,
2013-06-11 00:51:00,59.7,58.9,28.91,SSE,158,0.0,0.0,97,0.00,,,0.00,VWS V14.01,2013-06-11 05:51:00,
2013-06-11 00:52:00,59.7,58.9,28.91,SSE,158,0.0,0.0,97,0.00,,FEW,0.00,VWS V14.01,2013-06-11 05:52:00,
2013-06-11 00:53:00,59.5,58.7,28.91,SSE,158,0.9,0.9,97,0.00,,FEW,0.00,VWS V14.01,2013-06-11 05:53:00,
2013-06-11 00:54:00,59.4,58.5,28.88,SSE,158,0.0,1.3,97,0.00,,FEW,0.00,VWS V14.01,2013-06-11 05:54:00,
2013-06-11 00:55:00,59.4,58.5,28.88,SSE,158,1.1,1.1,97,0.00,,FEW,0.00,VWS V14.01,2013-06-11 05:55:00,
2013-06-11 00:56:00,59.4,58.5,28.88,SSE,158,1.6,1.6,97,0.00,,,0.00,VWS V14.01,2013-06-11 05:56:00,
2013-06-11 00:57:00,59.4,58.5,28.88,SSE,158,1.1,1.6,97,0.00,,FEW,0.00,VWS V14.01,2013-06-11 05:57:00,
2013-06-11 00:58:00,59.4,58.5,28.88,SSE,158,0.9,1.1,97,0.00,,FEW,0.00,VWS V14.01,2013-06-11 05:58:00,
2013-06-11 00:59:00,59.4,58.5,28.88,SSE,158,0.9,1.1,97,0.00,,FEW,0.00,VWS V14.01,2013-06-11 05:59:00,
2013-06-11 01:00:00,59.2,58.3,28.88,SSE,158,0.0,1.3,97,0.00,,FEW,0.00,VWS V14.01,2013-06-11 06:00:00,
2013-06-11 01:01:00,59.2,58.3,28.88,SSE,158,1.6,2.0,97,0.00,,,0.00,VWS V14.01,2013-06-11 06:01:00,
2013-06-11 01:02:00,59.2,58.3,28.88,SSE,158,1.1,2.0,97,0.00,,FEW,0.00,VWS V14.01,2013-06-11 06:02:00,
2013-06-11 01:03:00,59.2,58.3,28.88,SSE,158,1.3,1.6,97,0.00,,FEW,0.00,VWS V14.01,2013-06-11 06:03:00,
2013-06-11 01:04:00,59.2,58.3,28.88,SSE,158,2.2,2.2,97,0.00,,FEW,0.00,VWS V14.01,2013-06-11 06:04:00,
2013-06-11 01:05:00,59.0,58.2,28.88,SSE,158,1.6,2.2,97,0.00,,FEW,0.00,VWS V14.01,2013-06-11 06:05:00,
2013-06-11 01:06:00,59.0,58.2,28.91,SSE,158,1.1,1.1,97,0.00,,,0.00,VWS V14.01,2013-06-11 06:06:00,
2013-06-11 01:07:00,59.0,58.2,28.91,SSE,158,0.9,1.6,97,0.00,,FEW,0.00,VWS V14.01,2013-06-11 06:07:00,
2013-06-11 01:08:00,59.0,58.2,28.91,SSE,158,2.7,2.7,97,0.00,,FEW,0.00,VWS V14.01,2013-06-11 06:08:00,
2013-06-11 01:09:00,59.0,58.2,28.91,SSE,158,1.1,2.7,97,0.00,,FEW,0.00,VWS V14.01,2013-06-11 06:09:00,
2013-06-11 01:10:00,59.2,58.3,28.91,South,180,1.3,2.5,97,0.00,,FEW,0.00,VWS V14.01,2013-06-11 06:10:00,
2013-06-11 01:11:00,59.2,58.3,28.91,SSE,158,2.9,2.9,97,0.00,,,0.00,VWS V14.01,2013-06-11 06:11:00,
2013-06-11 01:12:00,59.2,58.3,28.91,SSE,158,3.1,3.1,97,0.00,,FEW,0.00,VWS V14.01,2013-06-11 06:12:00,
2013-06-11 01:13:00,59.2,58.6,28.91,SSE,158,3.1,4.3,98,0.00,,FEW,0.00,VWS V14.01,2013-06-11 06:13:00,
2013-06-11 01:14:00,59.4,58.8,28.91,SSE,158,2.2,3.4,98,0.00,,FEW,0.00,VWS V14.01,2013-06-11 06:14:00,
2013-06-11 01:15:00,59.4,58.8,28.91,SSE,158,3.4,3.4,98,0.00,,FEW,0.00,VWS V14.01,2013-06-11 06:15:00,
2013-06-11 01:16:00,59.4,58.8,28.91,SE,135,2.0,2.0,98,0.00,,,0.00,VWS V14.01,2013-06-11 06:16:00,
2013-06-11 01:17:00,59.4,58.8,28.91,SSE,158,3.1,3.1,98,0.00,,FEW,0.00,VWS V14.01,2013-06-11 06:17:00,
2013-06-11 01:18:00,59.4,58.8,28.91,SSE,158,1.3,3.1,98,0.00,,FEW,0.00,VWS V14.01,2013-06-11 06:18:00,
2013-06-11 01:19:00,59.4,58.8,28.91,SSE,158,0.0,2.5,98,0.00,,FEW,0.00,VWS V14.01,2013-06-11 06:19:00,
2013-06-11 01:20:00,59.4,58.8,28.91,SSE,158,1.3,2.2,98,0.00,,FEW,0.00,VWS V14.01,2013-06-11 06:20:00,
2013-06-11 01:21:00,59.4,58.8,28.88,SSE,158,1.6,2.7,98,0.00,,,0.00,VWS V14.01,2013-06-11 06:21:00,
2013-06-11 01:22:00,59.4,58.8,28.88,SSE,158,1.1,2.7,98,0.00,,FEW,0.00,VWS V14.01,2013-06-11 06:22:00,
2013-06-11 01:23:00,59.4,58.8,28.88,SE,135,0.0,1.1,98,0.00,,FEW,0.00,VWS V14.01,2013-06-11 06:23:00,
2013-06-11 01:25:00,59.4,58.8,28.88,South,180,0.0,0.0,98,0.00,,FEW,0.00,VWS V14.01,2013-06-11 06:25:00,
2013-06-11 01:26:00,59.2,58.6,28.88,SSE,158,0.0,0.9,98,0.00,,,0.00,VWS V14.01,2013-06-11 06:26:00,
2013-06-11 01:27:00,59.2,58.6,28.88,SSE,158,1.1,1.1,98,0.00,,FEW,0.00,VWS V14.01,2013-06-11 06:27:00,
2013-06-11 01:28:00,59.2,58.6,28.88,SSE,158,0.0,1.1,98,0.00,,FEW,0.00,VWS V14.01,2013-06-11 06:28:00,
2013-06-11 01:29:00,59.2,58.6,28.88,SSE,158,0.0,0.0,98,0.00,,FEW,0.00,VWS V14.01,2013-06-11 06:29:00,
2013-06-11 01:30:00,59.2,58.6,28.88,SSE,158,0.0,0.0,98,0.00,,FEW,0.00,VWS V14.01,2013-06-11 06:30:00,
2013-06-11 01:31:00,59.2,58.6,28.88,SSW,202,0.0,0.0,98,0.00,,,0.00,VWS V14.01,2013-06-11 06:31:00,
2013-06-11 01:32:00,59.2,58.6,28.88,South,180,1.1,1.1,98,0.00,,FEW,0.00,VWS V14.01,2013-06-11 06:32:00,
2013-06-11 01:33:00,59.2,58.6,28.88,SSE,158,0.0,1.1,98,0.00,,FEW,0.00,VWS V14.01,2013-06-11 06:33:00,
2013-06-11 01:34:00,59.2,58.6,28.88,SSE,158,0.0,1.1,98,0.00,,FEW,0.00,VWS V14.01,2013-06-11 06:34:00,
2013-06-11 01:35:00,59.2,58.6,28.88,SSE,158,2.0,2.0,98,0.00,,FEW,0.00,VWS V14.01,2013-06-11 06:35:00,
2013-06-11 01:36:00,59.2,58.6,28.91,SSW,202,1.1,1.1,98,0.00,,,0.00,VWS V14.01,2013-06-11 06:36:00,
2013-06-11 01:37:00,59.2,58.6,28.91,SSW,202,1.3,1.3,98,0.00,,FEW,0.00,VWS V14.01,2013-06-11 06:37:00,
2013-06-11 01:38:00,59.2,58.6,28.91,SSE,158,1.3,1.3,98,0.00,,FEW,0.00,VWS V14.01,2013-06-11 06:38:00,
2013-06-11 01:39:00,59.2,58.6,28.91,SSW,202,0.0,1.3,98,0.00,,FEW,0.00,VWS V14.01,2013-06-11 06:39:00,
2013-06-11 01:40:00,59.2,58.6,28.91,SSE,158,0.9,1.3,98,0.00,,FEW,0.00,VWS V14.01,2013-06-11 06:40:00,
2013-06-11 01:41:00,59.2,58.6,28.91,SE,135,0.9,0.9,98,0.00,,,0.00,VWS V14.01,2013-06-11 06:41:00,
2013-06-11 01:42:00,59.2,58.6,28.91,SSE,158,1.3,1.3,98,0.00,,FEW,0.00,VWS V14.01,2013-06-11 06:42:00,
2013-06-11 01:43:00,59.2,58.6,28.91,ESE,112,1.3,1.6,98,0.00,,FEW,0.00,VWS V14.01,2013-06-11 06:43:00,
2013-06-11 01:44:00,59.2,58.6,28.91,SSE,158,1.1,1.6,98,0.00,,FEW,0.00,VWS V14.01,2013-06-11 06:44:00,
2013-06-11 01:45:00,59.2,58.6,28.91,SSE,158,1.1,1.6,98,0.00,,FEW,0.00,VWS V14.01,2013-06-11 06:45:00,
2013-06-11 01:46:00,59.4,58.8,28.91,SSE,158,0.0,0.0,98,0.00,,,0.00,VWS V14.01,2013-06-11 06:46:00,
2013-06-11 01:47:00,59.4,58.8,28.91,SSE,158,0.9,0.9,98,0.00,,FEW,0.00,VWS V14.01,2013-06-11 06:47:00,
2013-06-11 01:48:00,59.4,58.8,28.91,SSE,158,0.0,0.9,98,0.00,,FEW,0.00,VWS V14.01,2013-06-11 06:48:00,
2013-06-11 01:49:00,59.2,58.6,28.91,SSE,158,0.0,1.3,98,0.00,,FEW,0.00,VWS V14.01,2013-06-11 06:49:00,
2013-06-11 01:50:00,59.2,58.6,28.91,SE,135,0.0,0.0,98,0.00,,FEW,0.00,VWS V14.01,2013-06-11 06:50:00,
2013-06-11 01:51:00,59.2,58.6,28.91,SE,135,0.0,0.0,98,0.00,,,0.00,VWS V14.01,2013-06-11 06:51:00,
2013-06-11 01:52:00,59.2,58.6,28.91,SE,135,0.0,0.0,98,0.00,,FEW,0.00,VWS V14.01,2013-06-11 06:52:00,
2013-06-11 01:53:00,59.2,58.6,28.91,SE,135,0.0,0.0,98,0.00,,FEW,0.00,VWS V14.01,2013-06-11 06:53:00,
2013-06-11 01:54:00,59.2,58.6,28.91,SE,135,0.0,0.0,98,0.00,,FEW,0.00,VWS V14.01,2013-06-11 06:54:00,
2013-06-11 01:55:00,59.2,58.6,28.91,SE,135,0.0,0.0,98,0.00,,FEW,0.00,VWS V14.01,2013-06-11 06:55:00,
2013-06-11 01:56:00,59.2,58.6,28.91,SE,135,0.0,0.0,98,0.00,,,0.00,VWS V14.01,2013-06-11 06:56:00,
2013-06-11 01:57:00,59.2,58.6,28.91,SE,135,0.0,0.0,98,0.00,,FEW,0.00,VWS V14.01,2013-06-11 06:57:00,
2013-06-11 01:58:00,59.0,58.4,28.91,SE,135,0.0,0.0,98,0.00,,FEW,0.00,VWS V14.01,2013-06-11 06:58:00,
2013-06-11 01:59:00,59.0,58.4,28.91,SE,135,0.0,0.0,98,0.00,,FEW,0.00,VWS V14.01,2013-06-11 06:59:00,
2013-06-11 02:00:00,58.8,58.3,28.91,SE,135,0.0,0.0,98,0.00,,FEW,0.00,VWS V14.01,2013-06-11 07:00:00,
2013-06-11 02:01:00,58.8,58.3,28.91,SE,135,0.0,0.0,98,0.00,,,0.00,VWS V14.01,2013-06-11 07:01:00,
2013-06-11 02:02:00,58.8,58.3,28.91,SE,135,0.0,0.0,98,0.00,,FEW,0.00,VWS V14.01,2013-06-11 07:02:00,
2013-06-11 02:03:00,58.8,58.3,28.91,SE,135,0.0,0.0,98,0.00,,FEW,0.00,VWS V14.01,2013-06-11 07:03:00,
2013-06-11 02:04:00,58.8,58.3,28.91,SSE,158,2.0,2.0,98,0.00,,FEW,0.00,VWS V14.01,2013-06-11 07:04:00,
2013-06-11 02:05:00,58.8,58.3,28.91,SSE,158,2.0,2.0,98,0.00,,FEW,0.00,VWS V14.01,2013-06-11 07:05:00,
2013-06-11 02:06:00,59.0,58.4,28.88,SSE,158,1.1,1.1,98,0.00,,,0.00,VWS V14.01,2013-06-11 07:06:00,
2013-06-11 02:07:00,59.0,58.4,28.88,SSE,158,1.1,1.3,98,0.00,,FEW,0.00,VWS V14.01,2013-06-11 07:07:00,
2013-06-11 02:08:00,59.0,58.4,28.88,SSE,158,0.0,1.1,98,0.00,,FEW,0.00,VWS V14.01,2013-06-11 07:08:00,
2013-06-11 02:09:00,59.0,58.4,28.88,SSE,158,0.0,0.0,98,0.00,,FEW,0.00,VWS V14.01,2013-06-11 07:09:00,
2013-06-11 02:10:00,59.0,58.4,28.88,SSE,158,0.0,0.0,98,0.00,,FEW,0.00,VWS V14.01,2013-06-11 07:10:00,
2013-06-11 02:11:00,59.0,58.4,28.88,SSE,158,0.9,0.9,98,0.00,,,0.00,VWS V14.01,2013-06-11 07:11:00,
2013-06-11 02:12:00,59.0,58.4,28.88,SE,135,1.1,1.6,98,0.00,,FEW,0.00,VWS V14.01,2013-06-11 07:12:00,
2013-06-11 02:13:00,59.2,58.6,28.88,SSE,158,1.1,1.1,98,0.00,,FEW,0.00,VWS V14.01,2013-06-11 07:13:00,
2013-06-11 02:14:00,59.2,58.6,28.88,ESE,112,1.3,1.3,98,0.00,,FEW,0.00,VWS V14.01,2013-06-11 07:14:00,
2013-06-11 02:15:00,59.2,58.6,28.88,ESE,112,0.0,1.6,98,0.00,,FEW,0.00,VWS V14.01,2013-06-11 07:15:00,
2013-06-11 02:16:00,59.2,58.6,28.88,ESE,112,1.1,1.6,98,0.00,,,0.00,VWS V14.01,2013-06-11 07:16:00,
2013-06-11 02:17:00,59.2,58.6,28.88,ESE,112,0.0,1.6,98,0.00,,FEW,0.00,VWS V14.01,2013-06-11 07:17:00,
2013-06-11 02:18:00,59.0,58.4,28.88,ESE,112,0.0,0.0,98,0.00,,FEW,0.00,VWS V14.01,2013-06-11 07:18:00,
2013-06-11 02:20:00,59.0,58.4,28.88,ESE,112,0.0,0.0,98,0.00,,FEW,0.00,VWS V14.01,2013-06-11 07:20:00,
2013-06-11 02:21:00,58.8,58.3,28.91,ESE,112,0.0,0.0,98,0.00,,,0.00,VWS V14.01,2013-06-11 07:21:00,
2013-06-11 02:22:00,58.8,58.3,28.91,ESE,112,0.0,0.0,98,0.00,,FEW,0.00,VWS V14.01,2013-06-11 07:22:00,
2013-06-11 02:23:00,58.8,58.3,28.91,East,90,0.0,0.0,98,0.00,,FEW,0.00,VWS V14.01,2013-06-11 07:23:00,
2013-06-11 02:24:00,58.8,58.3,28.91,East,90,0.0,0.0,98,0.00,,FEW,0.00,VWS V14.01,2013-06-11 07:24:00,
2013-06-11 02:25:00,58.6,58.1,28.91,East,90,0.0,0.0,98,0.00,,FEW,0.00,VWS V14.01,2013-06-11 07:25:00,
2013-06-11 02:26:00,58.6,58.1,28.91,East,90,0.0,0.0,98,0.00,,,0.00,VWS V14.01,2013-06-11 07:26:00,
2013-06-11 02:27:00,58.5,57.9,28.91,East,90,0.0,0.0,98,0.00,,FEW,0.00,VWS V14.01,2013-06-11 07:27:00,
2013-06-11 02:28:00,58.5,57.9,28.91,East,90,0.0,0.0,98,0.00,,FEW,0.00,VWS V14.01,2013-06-11 07:28:00,
2013-06-11 02:29:00,58.5,57.9,28.91,East,90,0.0,0.0,98,0.00,,FEW,0.00,VWS V14.01,2013-06-11 07:29:00,
2013-06-11 02:30:00,58.3,57.7,28.91,East,90,0.0,0.0,98,0.00,,FEW,0.00,VWS V14.01,2013-06-11 07:30:00,
2013-06-11 02:31:00,58.1,57.5,28.91,East,90,0.0,0.0,98,0.00,,,0.00,VWS V14.01,2013-06-11 07:31:00,
2013-06-11 02:32:00,58.1,57.5,28.91,East,90,0.9,0.9,98,0.00,,FEW,0.00,VWS V14.01,2013-06-11 07:32:00,
2013-06-11 02:33:00,58.1,57.5,28.91,ENE,68,0.9,1.1,98,0.00,,FEW,0.00,VWS V14.01,2013-06-11 07:33:00,
2013-06-11 02:34:00,58.1,57.5,28.91,ENE,68,0.0,0.9,98,0.00,,FEW,0.00,VWS V14.01,2013-06-11 07:34:00,
2013-06-11 02:35:00,58.1,57.5,28.91,ENE,68,0.0,0.0,98,0.00,,FEW,0.00,VWS V14.01,2013-06-11 07:35:00,
2013-06-11 02:36:00,57.9,57.4,28.91,ENE,68,0.0,0.0,98,0.00,,,0.00,VWS V14.01,2013-06-11 07:36:00,
2013-06-11 02:37:00,57.9,57.4,28.91,ENE,68,0.0,0.0,98,0.00,,FEW,0.00,VWS V14.01,2013-06-11 07:37:00,
2013-06-11 02:38:00,57.7,57.2,28.91,ENE,68,0.0,0.0,98,0.00,,FEW,0.00,VWS V14.01,2013-06-11 07:38:00,
2013-06-11 02:39:00,57.7,57.2,28.91,ENE,68,0.0,0.0,98,0.00,,FEW,0.00,VWS V14.01,2013-06-11 07:39:00,
2013-06-11 02:40:00,57.6,57.0,28.91,ENE,68,0.0,0.0,98,0.00,,FEW,0.00,VWS V14.01,2013-06-11 07:40:00,
2013-06-11 02:41:00,57.6,57.0,28.91,ENE,68,0.0,0.0,98,0.00,,,0.00,VWS V14.01,2013-06-11 07:41:00,
2013-06-11 02:42:00,57.6,57.0,28.91,ENE,68,0.0,0.0,98,0.00,,FEW,0.00,VWS V14.01,2013-06-11 07:42:00,
2013-06-11 02:43:00,57.6,57.0,28.91,ENE,68,0.0,0.0,98,0.00,,FEW,0.00,VWS V14.01,2013-06-11 07:43:00,
2013-06-11 02:44:00,57.4,56.8,28.91,ENE,68,0.0,0.0,98,0.00,,FEW,0.00,VWS V14.01,2013-06-11 07:44:00,
2013-06-11 02:45:00,57.4,56.8,28.91,ENE,68,0.0,0.0,98,0.00,,FEW,0.00,VWS V14.01,2013-06-11 07:45:00,
2013-06-11 02:46:00,57.4,56.8,28.91,ENE,68,0.0,0.0,98,0.00,,,0.00,VWS V14.01,2013-06-11 07:46:00,
2013-06-11 02:47:00,57.4,56.8,28.91,ENE,68,0.0,0.0,98,0.00,,FEW,0.00,VWS V14.01,2013-06-11 07:47:00,
2013-06-11 02:48:00,57.4,56.8,28.91,ENE,68,0.0,0.0,98,0.00,,FEW,0.00,VWS V14.01,2013-06-11 07:48:00,
2013-06-11 02:49:00,57.4,56.8,28.91,ENE,68,0.0,0.0,98,0.00,,FEW,0.00,VWS V14.01,2013-06-11 07:49:00,
2013-06-11 02:50:00,57.4,56.8,28.91,ENE,68,0.0,0.0,98,0.00,,FEW,0.00,VWS V14.01,2013-06-11 07:50:00,
2013-06-11 02:51:00,57.4,56.8,28.91,ENE,68,0.0,0.0,98,0.00,,,0.00,VWS V14.01,2013-06-11 07:51:00,
2013-06-11 02:53:00,57.4,56.8,28.91,ENE,68,0.0,0.0,98,0.00,,FEW,0.00,VWS V14.01,2013-06-11 07:53:00,
2013-06-11 02:54:00,57.6,57.0,28.91,ENE,68,0.0,0.0,98,0.00,,FEW,0.00,VWS V14.01,2013-06-11 07:54:00,
2013-06-11 02:55:00,57.6,57.0,28.91,ENE,68,0.0,0.0,98,0.00,,FEW,0.00,VWS V14.01,2013-06-11 07:55:00,
2013-06-11 02:56:00,57.6,57.0,28.91,ENE,68,0.0,0.0,98,0.00,,,0.00,VWS V14.01,2013-06-11 07:56:00,
2013-06-11 02:57:00,57.6,57.0,28.91,ENE,68,0.0,0.0,98,0.00,,FEW,0.00,VWS V14.01,2013-06-11 07:57:00,
2013-06-11 02:58:00,57.4,56.8,28.91,ENE,68,0.0,0.0,98,0.00,,FEW,0.00,VWS V14.01,2013-06-11 07:58:00,
2013-06-11 02:59:00,57.4,56.8,28.91,ENE,68,0.0,0.0,98,0.00,,FEW,0.00,VWS V14.01,2013-06-11 07:59:00,
2013-06-11 03:00:00,57.4,56.8,28.91,ENE,68,0.0,0.0,98,0.00,,FEW,0.00,VWS V14.01,2013-06-11 08:00:00,
2013-06-11 03:01:00,57.4,56.8,28.91,ENE,68,0.0,0.0,98,0.00,,,0.00,VWS V14.01,2013-06-11 08:01:00,
2013-06-11 03:02:00,57.4,56.8,28.91,ENE,68,0.0,0.0,98,0.00,,FEW,0.00,VWS V14.01,2013-06-11 08:02:00,
2013-06-11 03:03:00,57.4,56.8,28.91,ENE,68,0.0,0.0,98,0.00,,FEW,0.00,VWS V14.01,2013-06-11 08:03:00,
2013-06-11 03:04:00,57.4,56.8,28.91,ENE,68,0.0,0.0,98,0.00,,FEW,0.00,VWS V14.01,2013-06-11 08:04:00,
2013-06-11 03:05:00,57.4,56.8,28.91,ENE,68,0.0,0.0,98,0.00,,FEW,0.00,VWS V14.01,2013-06-11 08:05:00,
2013-06-11 03:06:00,57.4,56.8,28.91,ENE,68,0.0,0.0,98,0.00,,,0.00,VWS V14.01,2013-06-11 08:06:00,
2013-06-11 03:07:00,57.4,56.8,28.91,ENE,68,0.0,0.0,98,0.00,,FEW,0.00,VWS V14.01,2013-06-11 08:07:00,
2013-06-11 03:08:00,57.4,56.8,28.91,ENE,68,0.0,0.0,98,0.00,,FEW,0.00,VWS V14.01,2013-06-11 08:08:00,
2013-06-11 03:09:00,57.2,56.6,28.91,ENE,68,0.0,0.0,98,0.00,,FEW,0.00,VWS V14.01,2013-06-11 08:09:00,
2013-06-11 03:10:00,57.2,56.6,28.91,ENE,68,0.0,0.0,98,0.00,,FEW,0.00,VWS V14.01,2013-06-11 08:10:00,
2013-06-11 03:11:00,57.2,56.6,28.91,ENE,68,0.0,0.0,98,0.00,,,0.00,VWS V14.01,2013-06-11 08:11:00,
2013-06-11 03:12:00,57.2,56.6,28.91,ENE,68,0.0,0.0,98,0.00,,FEW,0.00,VWS V14.01,2013-06-11 08:12:00,
2013-06-11 03:13:00,57.2,56.6,28.91,ENE,68,0.0,0.0,98,0.00,,FEW,0.00,VWS V14.01,2013-06-11 08:13:00,
2013-06-11 03:14:00,57.2,56.6,28.91,ENE,68,0.0,0.0,98,0.00,,FEW,0.00,VWS V14.01,2013-06-11 08:14:00,
2013-06-11 03:15:00,57.2,56.6,28.91,ENE,68,0.0,0.0,98,0.00,,FEW,0.00,VWS V14.01,2013-06-11 08:15:00,
2013-06-11 03:16:00,57.2,56.6,28.91,ENE,68,0.0,0.0,98,0.00,,,0.00,VWS V14.01,2013-06-11 08:16:00,
2013-06-11 03:17:00,57.2,56.6,28.91,ENE,68,0.0,0.0,98,0.00,,FEW,0.00,VWS V14.01,2013-06-11 08:17:00,
2013-06-11 03:18:00,57.2,56.6,28.91,ENE,68,0.0,0.0,98,0.00,,FEW,0.00,VWS V14.01,2013-06-11 08:18:00,
2013-06-11 03:19:00,57.2,56.6,28.91,ESE,112,0.0,0.0,98,0.00,,FEW,0.00,VWS V14.01,2013-06-11 08:19:00,
2013-06-11 03:20:00,57.4,56.8,28.91,ESE,112,0.0,0.0,98,0.00,,FEW,0.00,VWS V14.01,2013-06-11 08:20:00,
2013-06-11 03:21:00,57.4,56.8,28.91,ESE,112,0.0,0.0,98,0.00,,,0.00,VWS V14.01,2013-06-11 08:21:00,
2013-06-11 03:22:00,57.6,57.0,28.91,ESE,112,0.0,0.0,98,0.00,,FEW,0.00,VWS V14.01,2013-06-11 08:22:00,
2013-06-11 03:23:00,57.6,57.0,28.88,ESE,112,0.0,0.0,98,0.00,,FEW,0.00,VWS V14.01,2013-06-11 08:23:00,
2013-06-11 03:24:00,57.6,57.0,28.88,ESE,112,0.0,0.0,98,0.00,,FEW,0.00,VWS V14.01,2013-06-11 08:24:00,
2013-06-11 03:25:00,57.6,57.0,28.88,SE,135,0.0,0.0,98,0.00,,FEW,0.00,VWS V14.01,2013-06-11 08:25:00,
2013-06-11 03:26:00,57.7,57.2,28.88,SE,135,0.0,0.0,98,0.00,,,0.00,VWS V14.01,2013-06-11 08:26:00,
2013-06-11 03:27:00,57.7,57.2,28.88,SE,135,0.0,0.0,98,0.00,,FEW,0.00,VWS V14.01,2013-06-11 08:27:00,
2013-06-11 03:28:00,57.7,57.2,28.88,SE,135,0.0,0.0,98,0.00,,FEW,0.00,VWS V14.01,2013-06-11 08:28:00,
2013-06-11 03:29:00,57.7,57.2,28.88,SE,135,0.0,0.0,98,0.00,,FEW,0.00,VWS V14.01,2013-06-11 08:29:00,
2013-06-11 03:30:00,57.9,57.4,28.88,SE,135,1.1,1.1,98,0.00,,FEW,0.00,VWS V14.01,2013-06-11 08:30:00,
2013-06-11 03:31:00,57.9,57.4,28.88,SSE,158,0.9,0.9,98,0.00,,,0.00,VWS V14.01,2013-06-11 08:31:00,
2013-06-11 03:32:00,57.9,57.4,28.88,SSE,158,0.9,0.9,98,0.00,,FEW,0.00,VWS V14.01,2013-06-11 08:32:00,
2013-06-11 03:33:00,57.9,57.4,28.88,SSE,158,0.0,0.9,98,0.00,,FEW,0.00,VWS V14.01,2013-06-11 08:33:00,
2013-06-11 03:34:00,57.9,57.4,28.88,SSE,158,0.0,0.0,98,0.00,,FEW,0.00,VWS V14.01,2013-06-11 08:34:00,
2013-06-11 03:35:00,57.9,57.4,28.88,SSE,158,0.0,0.0,98,0.00,,FEW,0.00,VWS V14.01,2013-06-11 08:35:00,
2013-06-11 03:36:00,57.9,57.4,28.91,SSE,158,0.0,0.0,98,0.00,,,0.00,VWS V14.01,2013-06-11 08:36:00,
2013-06-11 03:37:00,57.9,57.4,28.91,SSE,158,0.0,0.0,98,0.00,,FEW,0.00,VWS V14.01,2013-06-11 08:37:00,
2013-06-11 03:38:00,57.9,57.4,28.91,SSE,158,0.0,0.0,98,0.00,,FEW,0.00,VWS V14.01,2013-06-11 08:38:00,
2013-06-11 03:39:00,57.6,57.0,28.91,SSE,158,0.0,0.0,98,0.00,,FEW,0.00,VWS V14.01,2013-06-11 08:39:00,
2013-06-11 03:40:00,57.6,57.0,28.91,SSE,158,0.0,0.0,98,0.00,,FEW,0.00,VWS V14.01,2013-06-11 08:40:00,
2013-06-11 03:41:00,57.6,57.0,28.91,SSE,158,0.0,0.0,98,0.00,,,0.00,VWS V14.01,2013-06-11 08:41:00,
2013-06-11 03:42:00,57.6,57.0,28.91,SSE,158,0.0,0.0,98,0.00,,FEW,0.00,VWS V14.01,2013-06-11 08:42:00,
2013-06-11 03:43:00,57.6,57.0,28.91,SSE,158,0.0,0.0,98,0.00,,FEW,0.00,VWS V14.01,2013-06-11 08:43:00,
2013-06-11 03:44:00,57.6,57.0,28.91,SSE,158,0.0,0.0,98,0.00,,FEW,0.00,VWS V14.01,2013-06-11 08:44:00,
2013-06-11 03:45:00,57.4,56.8,28.91,SSE,158,0.0,0.0,98,0.00,,FEW,0.00,VWS V14.01,2013-06-11 08:45:00,
2013-06-11 03:46:00,57.4,56.8,28.91,SSE,158,0.0,0.0,98,0.00,,,0.00,VWS V14.01,2013-06-11 08:46:00,
2013-06-11 03:47:00,57.4,56.8,28.91,SSE,158,0.0,0.0,98,0.00,,FEW,0.00,VWS V14.01,2013-06-11 08:47:00,
2013-06-11 03:48:00,57.2,56.6,28.91,SSE,158,0.0,0.0,98,0.00,,FEW,0.00,VWS V14.01,2013-06-11 08:48:00,
2013-06-11 03:49:00,57.2,56.6,28.91,SSE,158,0.0,0.0,98,0.00,,FEW,0.00,VWS V14.01,2013-06-11 08:49:00,
2013-06-11 03:50:00,57.2,56.6,28.91,SSE,158,0.0,0.0,98,0.00,,FEW,0.00,VWS V14.01,2013-06-11 08:50:00,
2013-06-11 03:51:00,57.2,56.6,28.91,SSE,158,0.0,0.0,98,0.00,,,0.00,VWS V14.01,2013-06-11 08:51:00,
2013-06-11 03:52:00,57.2,56.6,28.88,SSE,158,0.0,0.0,98,0.00,,FEW,0.00,VWS V14.01,2013-06-11 08:52:00,
2013-06-11 03:53:00,57.2,56.6,28.88,SSE,158,0.0,0.0,98,0.00,,FEW,0.00,VWS V14.01,2013-06-11 08:53:00,
2013-06-11 03:54:00,57.2,56.6,28.88,SSE,158,0.0,0.0,98,0.00,,FEW,0.00,VWS V14.01,2013-06-11 08:54:00,
2013-06-11 03:55:00,57.2,56.6,28.88,SSE,158,0.0,0.0,98,0.00,,FEW,0.00,VWS V14.01,2013-06-11 08:55:00,
2013-06-11 03:56:00,57.2,56.6,28.88,SSE,158,0.0,0.0,98,0.00,,,0.00,VWS V14.01,2013-06-11 08:56:00,
2013-06-11 03:57:00,57.2,56.6,28.88,SSE,158,0.0,0.0,98,0.00,,FEW,0.00,VWS V14.01,2013-06-11 08:57:00,
2013-06-11 03:59:00,57.2,56.6,28.88,SSE,158,0.0,0.0,98,0.00,,FEW,0.00,VWS V14.01,2013-06-11 08:59:00,
2013-06-11 04:00:00,57.0,56.5,28.88,SSE,158,0.0,0.0,98,0.00,,FEW,0.00,VWS V14.01,2013-06-11 09:00:00,
2013-06-11 04:01:00,57.0,56.5,28.88,SSE,158,0.0,0.0,98,0.00,,,0.00,VWS V14.01,2013-06-11 09:01:00,
2013-06-11 04:02:00,57.0,56.5,28.88,SSE,158,0.0,0.0,98,0.00,,FEW,0.00,VWS V14.01,2013-06-11 09:02:00,
2013-06-11 04:03:00,56.8,56.3,28.88,SSE,158,0.0,0.0,98,0.00,,FEW,0.00,VWS V14.01,2013-06-11 09:03:00,
2013-06-11 04:04:00,56.8,56.3,28.88,SSE,158,0.0,0.0,98,0.00,,FEW,0.00,VWS V14.01,2013-06-11 09:04:00,
2013-06-11 04:05:00,56.8,56.3,28.88,SSE,158,0.0,0.0,98,0.00,,FEW,0.00,VWS V14.01,2013-06-11 09:05:00,
2013-06-11 04:06:00,56.8,56.3,28.88,SSE,158,0.0,0.0,98,0.00,,,0.00,VWS V14.01,2013-06-11 09:06:00,
2013-06-11 04:07:00,56.8,56.3,28.91,SSE,158,0.0,0.0,98,0.00,,FEW,0.00,VWS V14.01,2013-06-11 09:07:00,
2013-06-11 04:08:00,56.8,56.3,28.91,SSE,158,0.0,0.0,98,0.00,,FEW,0.00,VWS V14.01,2013-06-11 09:08:00,
2013-06-11 04:09:00,56.8,56.3,28.91,SSE,158,0.0,0.0,98,0.00,,FEW,0.00,VWS V14.01,2013-06-11 09:09:00,
2013-06-11 04:10:00,56.8,56.3,28.91,SSE,158,0.0,0.0,98,0.00,,FEW,0.00,VWS V14.01,2013-06-11 09:10:00,
2013-06-11 04:11:00,56.8,56.3,28.91,SSE,158,0.0,0.0,98,0.00,,,0.00,VWS V14.01,2013-06-11 09:11:00,
2013-06-11 04:12:00,56.8,56.3,28.91,SSE,158,0.0,0.0,98,0.00,,FEW,0.00,VWS V14.01,2013-06-11 09:12:00,
2013-06-11 04:13:00,56.8,56.3,28.91,SSE,158,0.0,0.0,98,0.00,,FEW,0.00,VWS V14.01,2013-06-11 09:13:00,
2013-06-11 04:14:00,56.8,56.3,28.91,SSE,158,0.0,0.0,98,0.00,,FEW,0.00,VWS V14.01,2013-06-11 09:14:00,
2013-06-11 04:15:00,56.8,56.3,28.91,SSE,158,0.0,0.0,98,0.00,,,0.00,VWS V14.01,2013-06-11 09:15:00,
2013-06-11 04:16:00,56.8,56.3,28.91,SSE,158,0.0,0.0,98,0.00,,FEW,0.00,VWS V14.01,2013-06-11 09:16:00,
2013-06-11 04:17:00,56.8,56.3,28.91,SSE,158,0.0,0.0,98,0.00,,FEW,0.00,VWS V14.01,2013-06-11 09:17:00,
2013-06-11 04:18:00,56.8,56.3,28.91,SSE,158,0.0,0.0,98,0.00,,FEW,0.00,VWS V14.01,2013-06-11 09:18:00,
2013-06-11 04:19:00,56.8,56.3,28.91,SSE,158,0.0,0.0,98,0.00,,FEW,0.00,VWS V14.01,2013-06-11 09:19:00,
2013-06-11 04:20:00,56.8,56.3,28.91,SSE,158,0.0,0.0,98,0.00,,FEW,0.00,VWS V14.01,2013-06-11 09:20:00,
2013-06-11 04:21:00,56.8,56.3,28.91,SSE,158,0.0,0.0,98,0.00,,,0.00,VWS V14.01,2013-06-11 09:21:00,
2013-06-11 04:22:00,56.8,56.3,28.91,SSE,158,0.0,0.0,98,0.00,,FEW,0.00,VWS V14.01,2013-06-11 09:22:00,
2013-06-11 04:23:00,56.8,56.3,28.91,SSE,158,1.1,1.1,98,0.00,,FEW,0.00,VWS V14.01,2013-06-11 09:23:00,
2013-06-11 04:24:00,57.0,56.5,28.91,SSE,158,1.1,1.1,98,0.00,,FEW,0.00,VWS V14.01,2013-06-11 09:24:00,
2013-06-11 04:25:00,57.0,56.5,28.91,SSE,158,0.0,1.1,98,0.00,,,0.00,VWS V14.01,2013-06-11 09:25:00,
2013-06-11 04:26:00,57.0,56.5,28.91,SSE,158,0.0,1.1,98,0.00,,FEW,0.00,VWS V14.01,2013-06-11 09:26:00,
2013-06-11 04:27:00,57.2,56.6,28.91,SSE,158,0.0,0.0,98,0.00,,FEW,0.00,VWS V14.01,2013-06-11 09:27:00,
2013-06-11 04:28:00,57.2,56.6,28.91,SSE,158,0.0,0.0,98,0.00,,FEW,0.00,VWS V14.01,2013-06-11 09:28:00,
2013-06-11 04:29:00,57.2,56.6,28.91,SSE,158,0.0,0.0,98,0.00,,FEW,0.00,VWS V14.01,2013-06-11 09:29:00,
2013-06-11 04:30:00,57.2,56.6,28.91,SSE,158,0.0,0.0,98,0.00,,,0.00,VWS V14.01,2013-06-11 09:30:00,
2013-06-11 04:31:00,57.2,56.6,28.91,SSE,158,0.0,0.0,98,0.00,,FEW,0.00,VWS V14.01,2013-06-11 09:31:00,
2013-06-11 04:32:00,57.2,56.6,28.91,SSE,158,0.0,0.0,98,0.00,,FEW,0.00,VWS V14.01,2013-06-11 09:32:00,
2013-06-11 04:33:00,57.2,56.6,28.91,SSE,158,0.0,0.0,98,0.00,,FEW,0.00,VWS V14.01,2013-06-11 09:33:00,
2013-06-11 04:34:00,57.2,56.6,28.91,SSE,158,0.0,0.0,98,0.00,,FEW,0.00,VWS V14.01,2013-06-11 09:34:00,
2013-06-11 04:35:00,57.4,56.8,28.91,South,180,1.1,1.1,98,0.00,,,0.00,VWS V14.01,2013-06-11 09:35:00,
2013-06-11 04:36:00,57.4,56.8,28.91,South,180,1.1,1.1,98,0.00,,FEW,0.00,VWS V14.01,2013-06-11 09:36:00,
2013-06-11 04:37:00,57.4,56.8,28.94,SSW,202,1.1,1.3,98,0.00,,FEW,0.00,VWS V14.01,2013-06-11 09:37:00,
2013-06-11 04:38:00,57.4,56.8,28.94,SSW,202,1.1,1.1,98,0.00,,FEW,0.00,VWS V14.01,2013-06-11 09:38:00,
2013-06-11 04:39:00,57.6,57.0,28.94,SSW,202,0.9,1.1,98,0.00,,FEW,0.00,VWS V14.01,2013-06-11 09:39:00,
2013-06-11 04:40:00,57.6,57.0,28.94,South,180,0.0,1.1,98,0.00,,,0.00,VWS V14.01,2013-06-11 09:40:00,
2013-06-11 04:41:00,57.6,57.0,28.94,South,180,0.0,1.1,98,0.00,,FEW,0.00,VWS V14.01,2013-06-11 09:41:00,
2013-06-11 04:42:00,57.6,57.0,28.94,South,180,0.0,1.1,98,0.00,,FEW,0.00,VWS V14.01,2013-06-11 09:42:00,
2013-06-11 04:43:00,57.6,57.0,28.94,South,180,0.0,0.0,98,0.00,,FEW,0.00,VWS V14.01,2013-06-11 09:43:00,
2013-06-11 04:44:00,57.6,57.0,28.94,South,180,0.0,0.0,98,0.00,,FEW,0.00,VWS V14.01,2013-06-11 09:44:00,
2013-06-11 04:45:00,57.7,57.2,28.94,SSE,158,2.2,2.2,98,0.00,,,0.00,VWS V14.01,2013-06-11 09:45:00,
2013-06-11 04:46:00,57.6,57.0,28.94,SSE,158,2.2,2.7,98,0.00,,FEW,0.00,VWS V14.01,2013-06-11 09:46:00,
2013-06-11 04:47:00,57.7,57.2,28.94,SSE,158,1.3,2.2,98,0.00,,FEW,0.00,VWS V14.01,2013-06-11 09:47:00,
2013-06-11 04:48:00,57.9,57.4,28.94,SSE,158,1.1,1.6,98,0.00,,FEW,0.00,VWS V14.01,2013-06-11 09:48:00,
2013-06-11 04:49:00,57.9,57.4,28.94,SSE,158,1.3,2.0,98,0.00,,FEW,0.00,VWS V14.01,2013-06-11 09:49:00,
2013-06-11 04:50:00,57.9,57.4,28.94,SSE,158,0.0,0.9,98,0.00,,,0.00,VWS V14.01,2013-06-11 09:50:00,
2013-06-11 04:51:00,57.9,57.4,28.94,SSE,158,0.0,0.9,98,0.00,,FEW,0.00,VWS V14.01,2013-06-11 09:51:00,
2013-06-11 04:52:00,57.9,57.4,28.94,SSE,158,0.0,0.0,98,0.00,,FEW,0.00,VWS V14.01,2013-06-11 09:52:00,
2013-06-11 04:53:00,57.9,57.4,28.94,SSE,158,0.0,0.0,98,0.00,,FEW,0.00,VWS V14.01,2013-06-11 09:53:00,
2013-06-11 04:54:00,57.9,57.4,28.94,SSE,158,0.0,0.0,98,0.00,,FEW,0.00,VWS V14.01,2013-06-11 09:54:00,
2013-06-11 04:55:00,57.7,57.2,28.94,SSE,158,0.0,0.0,98,0.00,,,0.00,VWS V14.01,2013-06-11 09:55:00,
2013-06-11 04:56:00,57.7,57.2,28.94,SSE,158,0.0,0.0,98,0.00,,FEW,0.00,VWS V14.01,2013-06-11 09:56:00,
2013-06-11 04:57:00,57.6,57.0,28.94,SSE,158,0.0,0.0,98,0.00,,FEW,0.00,VWS V14.01,2013-06-11 09:57:00,
2013-06-11 04:58:00,57.6,57.0,28.94,SSE,158,0.0,0.0,98,0.00,,FEW,0.00,VWS V14.01,2013-06-11 09:58:00,
2013-06-11 04:59:00,57.6,57.0,28.94,SSE,158,0.0,0.0,98,0.00,,FEW,0.00,VWS V14.01,2013-06-11 09:59:00,
2013-06-11 05:00:00,57.4,56.8,28.94,SE,135,0.0,0.0,98,0.00,,,0.00,VWS V14.01,2013-06-11 10:00:00,
2013-06-11 05:01:00,57.4,56.8,28.94,SE,135,0.0,0.0,98,0.00,,FEW,0.00,VWS V14.01,2013-06-11 10:01:00,
2013-06-11 05:02:00,57.4,56.8,28.94,SE,135,0.0,0.0,98,0.00,,FEW,0.00,VWS V14.01,2013-06-11 10:02:00,
2013-06-11 05:03:00,57.4,56.8,28.94,SE,135,0.0,0.0,98,0.00,,FEW,0.00,VWS V14.01,2013-06-11 10:03:00,
2013-06-11 05:04:00,57.2,56.6,28.94,SE,135,0.0,0.0,98,0.00,,FEW,0.00,VWS V14.01,2013-06-11 10:04:00,
2013-06-11 05:05:00,57.2,56.6,28.94,SE,135,0.0,0.0,98,0.00,,,0.00,VWS V14.01,2013-06-11 10:05:00,
2013-06-11 05:06:00,57.2,56.6,28.94,SE,135,0.0,0.0,98,0.00,,FEW,0.00,VWS V14.01,2013-06-11 10:06:00,
2013-06-11 05:07:00,57.2,56.6,28.94,SE,135,0.0,0.0,98,0.00,,FEW,0.00,VWS V14.01,2013-06-11 10:07:00,
2013-06-11 05:08:00,57.2,56.6,28.94,SE,135,0.0,0.0,98,0.00,,FEW,0.00,VWS V14.01,2013-06-11 10:08:00,
2013-06-11 05:09:00,57.2,56.6,28.94,SE,135,0.0,0.0,98,0.00,,FEW,0.00,VWS V14.01,2013-06-11 10:09:00,
2013-06-11 05:10:00,57.0,56.5,28.94,SE,135,0.0,0.0,98,0.00,,,0.00,VWS V14.01,2013-06-11 10:10:00,
2013-06-11 05:11:00,57.0,56.5,28.94,SE,135,0.0,0.0,98,0.00,,FEW,0.00,VWS V14.01,2013-06-11 10:11:00,
2013-06-11 05:12:00,56.8,56.3,28.94,SE,135,0.0,0.0,98,0.00,,FEW,0.00,VWS V14.01,2013-06-11 10:12:00,
2013-06-11 05:13:00,56.8,56.3,28.94,SE,135,0.0,0.0,98,0.00,,FEW,0.00,VWS V14.01,2013-06-11 10:13:00,
2013-06-11 05:14:00,56.8,56.3,28.94,SE,135,0.0,0.0,98,0.00,,FEW,0.00,VWS V14.01,2013-06-11 10:14:00,
2013-06-11 05:15:00,56.7,56.1,28.94,SE,135,0.0,0.0,98,0.00,,,0.00,VWS V14.01,2013-06-11 10:15:00,
2013-06-11 05:17:00,56.7,56.1,28.94,SE,135,0.0,0.0,98,0.00,,FEW,0.00,VWS V14.01,2013-06-11 10:17:00,
2013-06-11 05:18:00,56.7,56.1,28.94,SE,135,0.0,0.0,98,0.00,,FEW,0.00,VWS V14.01,2013-06-11 10:18:00,
2013-06-11 05:19:00,56.7,56.1,28.94,SE,135,0.0,0.0,98,0.00,,FEW,0.00,VWS V14.01,2013-06-11 10:19:00,
2013-06-11 05:20:00,56.7,56.1,28.94,SE,135,0.0,0.0,98,0.00,,,0.00,VWS V14.01,2013-06-11 10:20:00,
2013-06-11 05:21:00,56.7,56.1,28.94,SE,135,0.0,0.0,98,0.00,,FEW,0.00,VWS V14.01,2013-06-11 10:21:00,
2013-06-11 05:22:00,56.7,56.1,28.94,SE,135,0.0,0.0,98,0.00,,FEW,0.00,VWS V14.01,2013-06-11 10:22:00,
2013-06-11 05:23:00,56.7,56.1,28.94,SE,135,0.0,0.0,98,0.00,,FEW,0.00,VWS V14.01,2013-06-11 10:23:00,
2013-06-11 05:24:00,56.7,56.1,28.94,South,180,0.0,0.0,98,0.00,,FEW,0.00,VWS V14.01,2013-06-11 10:24:00,
2013-06-11 05:25:00,57.0,56.5,28.94,SSW,202,0.9,1.6,98,0.00,,,0.00,VWS V14.01,2013-06-11 10:25:00,
2013-06-11 05:26:00,57.0,56.5,28.94,SSW,202,0.9,1.6,98,0.00,,FEW,0.00,VWS V14.01,2013-06-11 10:26:00,
2013-06-11 05:27:00,57.2,56.6,28.94,SSW,202,0.0,0.9,98,0.00,,FEW,0.00,VWS V14.01,2013-06-11 10:27:00,
2013-06-11 05:28:00,57.2,56.6,28.94,SSW,202,0.0,0.9,98,0.00,,FEW,0.00,VWS V14.01,2013-06-11 10:28:00,
2013-06-11 05:29:00,57.2,56.6,28.94,SSW,202,0.0,0.0,98,0.00,,FEW,0.00,VWS V14.01,2013-06-11 10:29:00,
2013-06-11 05:30:00,57.2,56.6,28.94,SSW,202,0.0,0.0,98,0.00,,,0.00,VWS V14.01,2013-06-11 10:30:00,
2013-06-11 05:31:00,57.2,56.6,28.94,SSW,202,0.0,0.0,98,0.00,,FEW,0.00,VWS V14.01,2013-06-11 10:31:00,
2013-06-11 05:32:00,57.2,56.6,28.94,SSW,202,0.0,0.0,98,0.00,,FEW,0.00,VWS V14.01,2013-06-11 10:32:00,
2013-06-11 05:33:00,57.2,56.6,28.94,SSW,202,0.0,0.0,98,0.00,,FEW,0.00,VWS V14.01,2013-06-11 10:33:00,
2013-06-11 05:34:00,57.0,56.5,28.94,SSW,202,0.0,0.0,98,0.00,,FEW,0.00,VWS V14.01,2013-06-11 10:34:00,
2013-06-11 05:35:00,57.0,56.5,28.94,SSW,202,0.0,0.0,98,0.00,,,0.00,VWS V14.01,2013-06-11 10:35:00,
2013-06-11 05:36:00,57.0,56.5,28.94,SSW,202,0.0,0.0,98,0.00,,FEW,0.00,VWS V14.01,2013-06-11 10:36:00,
2013-06-11 05:37:00,57.0,56.5,28.97,SSW,202,1.3,1.3,98,0.00,,FEW,0.00,VWS V14.01,2013-06-11 10:37:00,
2013-06-11 05:38:00,57.0,56.5,28.97,SSW,202,1.1,1.3,98,0.00,,FEW,0.00,VWS V14.01,2013-06-11 10:38:00,
2013-06-11 05:39:00,57.2,56.6,28.97,SSW,202,1.3,1.3,98,0.00,,FEW,0.00,VWS V14.01,2013-06-11 10:39:00,
2013-06-11 05:40:00,57.4,56.8,28.97,SSW,202,1.3,2.0,98,0.00,,,0.00,VWS V14.01,2013-06-11 10:40:00,
2013-06-11 05:41:00,57.4,56.8,28.97,SSW,202,1.6,2.0,98,0.00,,FEW,0.00,VWS V14.01,2013-06-11 10:41:00,
2013-06-11 05:42:00,57.6,57.0,28.97,SSW,202,1.6,1.6,98,0.00,,FEW,0.00,VWS V14.01,2013-06-11 10:42:00,
2013-06-11 05:43:00,57.6,57.0,28.97,SSW,202,1.6,1.6,98,0.00,,FEW,0.00,VWS V14.01,2013-06-11 10:43:00,
2013-06-11 05:44:00,57.6,57.0,28.97,South,180,1.3,2.0,98,0.00,,FEW,0.00,VWS V14.01,2013-06-11 10:44:00,
2013-06-11 05:45:00,57.7,57.2,28.97,South,180,0.0,0.0,98,0.00,,,0.00,VWS V14.01,2013-06-11 10:45:00,
2013-06-11 05:46:00,57.7,57.2,28.97,South,180,0.0,2.0,98,0.00,,FEW,0.00,VWS V14.01,2013-06-11 10:46:00,
2013-06-11 05:47:00,57.7,57.2,28.97,South,180,0.0,0.9,98,0.00,,FEW,0.00,VWS V14.01,2013-06-11 10:47:00,
2013-06-11 05:48:00,57.7,57.2,28.97,South,180,1.1,2.0,98,0.00,,FEW,0.00,VWS V14.01,2013-06-11 10:48:00,
2013-06-11 05:49:00,57.9,57.4,28.97,South,180,0.0,1.1,98,0.00,,FEW,0.00,VWS V14.01,2013-06-11 10:49:00,
2013-06-11 05:50:00,57.9,57.4,28.97,South,180,0.0,0.0,98,0.00,,,0.00,VWS V14.01,2013-06-11 10:50:00,
2013-06-11 05:51:00,57.9,57.4,28.97,South,180,0.0,0.0,98,0.00,,FEW,0.00,VWS V14.01,2013-06-11 10:51:00,
2013-06-11 05:52:00,57.9,57.4,28.97,South,180,0.0,0.0,98,0.00,,FEW,0.00,VWS V14.01,2013-06-11 10:52:00,
2013-06-11 05:53:00,57.9,57.4,28.97,South,180,0.0,0.0,98,0.00,,FEW,0.00,VWS V14.01,2013-06-11 10:53:00,
2013-06-11 05:54:00,58.1,57.5,28.97,ESE,112,0.0,0.0,98,0.00,,FEW,0.00,VWS V14.01,2013-06-11 10:54:00,
2013-06-11 05:55:00,58.3,57.7,28.97,SE,135,0.0,0.0,98,0.00,,,0.00,VWS V14.01,2013-06-11 10:55:00,
2013-06-11 05:56:00,58.3,57.7,28.97,SE,135,0.0,0.0,98,0.00,,FEW,0.00,VWS V14.01,2013-06-11 10:56:00,
2013-06-11 05:57:00,58.3,57.7,28.97,SE,135,0.0,0.0,98,0.00,,FEW,0.00,VWS V14.01,2013-06-11 10:57:00,
2013-06-11 05:58:00,58.3,57.7,28.97,SE,135,0.0,0.0,98,0.00,,FEW,0.00,VWS V14.01,2013-06-11 10:58:00,
2013-06-11 05:59:00,58.3,57.7,28.97,ESE,112,1.6,1.6,98,0.00,,FEW,0.00,VWS V14.01,2013-06-11 10:59:00,
2013-06-11 06:00:00,58.5,57.9,28.97,ESE,112,0.0,2.5,98,0.00,,,0.00,VWS V14.01,2013-06-11 11:00:00,
2013-06-11 06:01:00,58.5,57.9,28.97,ESE,112,0.0,2.5,98,0.00,,FEW,0.00,VWS V14.01,2013-06-11 11:01:00,
2013-06-11 06:02:00,58.5,57.9,28.97,ESE,112,0.0,0.0,98,0.00,,FEW,0.00,VWS V14.01,2013-06-11 11:02:00,
2013-06-11 06:03:00,58.5,57.9,28.97,SSE,158,1.3,1.3,98,0.00,,FEW,0.00,VWS V14.01,2013-06-11 11:03:00,
2013-06-11 06:04:00,58.6,58.1,28.97,SSE,158,1.3,1.3,98,0.00,,FEW,0.00,VWS V14.01,2013-06-11 11:04:00,
2013-06-11 06:05:00,58.8,58.3,28.97,SSE,158,0.9,2.0,98,0.00,,,0.00,VWS V14.01,2013-06-11 11:05:00,
2013-06-11 06:06:00,58.8,58.3,28.97,South,180,1.3,2.0,98,0.00,,FEW,0.00,VWS V14.01,2013-06-11 11:06:00,
2013-06-11 06:07:00,58.8,58.3,28.97,SSE,158,1.3,1.3,98,0.00,,FEW,0.00,VWS V14.01,2013-06-11 11:07:00,
2013-06-11 06:08:00,58.8,58.3,28.97,South,180,1.6,1.6,98,0.00,,FEW,0.00,VWS V14.01,2013-06-11 11:08:00,
2013-06-11 06:09:00,58.8,58.3,28.97,South,180,1.6,1.6,98,0.00,,FEW,0.00,VWS V14.01,2013-06-11 11:09:00,
2013-06-11 06:10:00,59.0,58.4,28.97,SSE,158,1.3,2.0,98,0.00,,,0.00,VWS V14.01,2013-06-11 11:10:00,
2013-06-11 06:11:00,59.0,58.4,28.97,SSE,158,1.3,2.0,98,0.00,,FEW,0.00,VWS V14.01,2013-06-11 11:11:00,
2013-06-11 06:12:00,59.0,58.4,28.97,SSE,158,2.9,2.9,98,0.00,,FEW,0.00,VWS V14.01,2013-06-11 11:12:00,
2013-06-11 06:13:00,59.0,58.4,28.97,SSE,158,2.0,2.9,98,0.00,,FEW,0.00,VWS V14.01,2013-06-11 11:13:00,
2013-06-11 06:14:00,59.0,58.4,28.97,SSE,158,2.7,3.1,98,0.00,,FEW,0.00,VWS V14.01,2013-06-11 11:14:00,
2013-06-11 06:15:00,59.0,58.4,28.97,South,180,2.9,2.9,98,0.00,,,0.00,VWS V14.01,2013-06-11 11:15:00,
2013-06-11 06:16:00,59.0,58.4,28.97,South,180,2.7,2.9,98,0.00,,FEW,0.00,VWS V14.01,2013-06-11 11:16:00,
2013-06-11 06:17:00,59.2,58.6,28.97,SSE,158,1.6,2.7,98,0.00,,FEW,0.00,VWS V14.01,2013-06-11 11:17:00,
2013-06-11 06:18:00,59.2,58.6,28.97,SSE,158,1.3,1.6,98,0.00,,FEW,0.00,VWS V14.01,2013-06-11 11:18:00,
2013-06-11 06:19:00,59.2,58.6,28.97,South,180,2.5,2.5,98,0.00,,FEW,0.00,VWS V14.01,2013-06-11 11:19:00,
2013-06-11 06:20:00,59.2,58.6,28.97,South,180,2.7,2.7,98,0.00,,,0.00,VWS V14.01,2013-06-11 11:20:00,
2013-06-11 06:22:00,59.2,58.6,28.94,South,180,2.7,2.7,98,0.00,,FEW,0.00,VWS V14.01,2013-06-11 11:22:00,
2013-06-11 06:23:00,59.4,58.8,28.94,SSE,158,1.1,2.7,98,0.00,,FEW,0.00,VWS V14.01,2013-06-11 11:23:00,
2013-06-11 06:24:00,59.4,58.8,28.94,SSE,158,3.4,3.4,98,0.00,,FEW,0.00,VWS V14.01,2013-06-11 11:24:00,
2013-06-11 06:25:00,59.4,58.8,28.94,SE,135,0.9,1.3,98,0.00,,,0.00,VWS V14.01,2013-06-11 11:25:00,
2013-06-11 06:26:00,59.4,58.8,28.94,SE,135,0.9,1.3,98,0.00,,FEW,0.00,VWS V14.01,2013-06-11 11:26:00,
2013-06-11 06:27:00,59.4,58.8,28.94,SE,135,1.1,1.3,98,0.00,,FEW,0.00,VWS V14.01,2013-06-11 11:27:00,
2013-06-11 06:28:00,59.4,58.8,28.94,SE,135,1.1,1.1,98,0.00,,FEW,0.00,VWS V14.01,2013-06-11 11:28:00,
2013-06-11 06:29:00,59.4,58.8,28.94,SSE,158,0.0,1.1,98,0.00,,FEW,0.00,VWS V14.01,2013-06-11 11:29:00,
2013-06-11 06:30:00,59.4,58.8,28.94,SSE,158,0.0,0.9,98,0.00,,,0.00,VWS V14.01,2013-06-11 11:30:00,
2013-06-11 06:31:00,59.4,58.8,28.94,SSE,158,0.0,0.9,98,0.00,,FEW,0.00,VWS V14.01,2013-06-11 11:31:00,
2013-06-11 06:32:00,59.4,58.8,28.94,SSE,158,0.0,1.3,98,0.00,,FEW,0.00,VWS V14.01,2013-06-11 11:32:00,
2013-06-11 06:33:00,59.4,58.8,28.94,SSE,158,0.0,0.0,98,0.00,,FEW,0.00,VWS V14.01,2013-06-11 11:33:00,
2013-06-11 06:34:00,59.4,58.8,28.94,SE,135,0.0,1.3,98,0.00,,FEW,0.00,VWS V14.01,2013-06-11 11:34:00,
2013-06-11 06:35:00,59.5,59.0,28.94,SE,135,0.0,0.0,98,0.00,,,0.00,VWS V14.01,2013-06-11 11:35:00,
2013-06-11 06:36:00,59.5,59.0,28.94,SE,135,0.0,0.0,98,0.00,,FEW,0.00,VWS V14.01,2013-06-11 11:36:00,
2013-06-11 06:37:00,59.5,59.0,28.97,SE,135,0.0,0.0,98,0.00,,FEW,0.00,VWS V14.01,2013-06-11 11:37:00,
2013-06-11 06:38:00,59.5,59.0,28.97,SE,135,0.0,0.0,98,0.00,,FEW,0.00,VWS V14.01,2013-06-11 11:38:00,
2013-06-11 06:39:00,59.5,59.0,28.97,SE,135,0.0,0.0,98,0.00,,FEW,0.00,VWS V14.01,2013-06-11 11:39:00,
2013-06-11 06:40:00,59.7,59.2,28.97,SE,135,0.0,0.0,98,0.00,,,0.00,VWS V14.01,2013-06-11 11:40:00,
2013-06-11 06:41:00,59.7,59.2,28.97,SE,135,0.0,0.0,98,0.00,,FEW,0.00,VWS V14.01,2013-06-11 11:41:00,
2013-06-11 06:42:00,59.7,59.2,28.97,SE,135,0.0,0.0,98,0.00,,FEW,0.00,VWS V14.01,2013-06-11 11:42:00,
2013-06-11 06:43:00,59.9,59.3,28.97,SE,135,0.0,0.0,98,0.00,,FEW,0.00,VWS V14.01,2013-06-11 11:43:00,
2013-06-11 06:44:00,59.9,59.3,28.97,SE,135,0.0,0.0,98,0.00,,FEW,0.00,VWS V14.01,2013-06-11 11:44:00,
2013-06-11 06:45:00,59.9,59.3,28.97,SE,135,0.0,0.9,98,0.00,,,0.00,VWS V14.01,2013-06-11 11:45:00,
2013-06-11 06:46:00,59.9,59.3,28.97,SE,135,0.0,0.0,98,0.00,,FEW,0.00,VWS V14.01,2013-06-11 11:46:00,
2013-06-11 06:47:00,60.1,59.5,28.97,SSE,158,0.0,1.1,98,0.00,,FEW,0.00,VWS V14.01,2013-06-11 11:47:00,
2013-06-11 06:48:00,60.3,59.7,28.97,SSE,158,0.0,0.0,98,0.00,,FEW,0.00,VWS V14.01,2013-06-11 11:48:00,
2013-06-11 06:49:00,60.3,59.7,28.97,SSE,158,0.0,0.0,98,0.00,,FEW,0.00,VWS V14.01,2013-06-11 11:49:00,
2013-06-11 06:50:00,60.4,59.9,28.97,South,180,0.0,1.6,98,0.00,,,0.00,VWS V14.01,2013-06-11 11:50:00,
2013-06-11 06:51:00,60.4,59.9,28.97,South,180,0.0,1.6,98,0.00,,FEW,0.00,VWS V14.01,2013-06-11 11:51:00,
2013-06-11 06:52:00,60.6,60.1,28.97,South,180,0.0,0.0,98,0.00,,FEW,0.00,VWS V14.01,2013-06-11 11:52:00,
2013-06-11 06:53:00,60.6,60.1,28.97,SE,135,2.9,2.9,98,0.00,,FEW,0.00,VWS V14.01,2013-06-11 11:53:00,
2013-06-11 06:54:00,60.6,60.1,28.97,SSE,158,2.5,2.9,98,0.00,,FEW,0.00,VWS V14.01,2013-06-11 11:54:00,
2013-06-11 06:55:00,60.8,60.2,28.97,SE,135,2.5,2.5,98,0.00,,,0.00,VWS V14.01,2013-06-11 11:55:00,
2013-06-11 06:56:00,60.8,60.2,28.97,SE,135,2.0,2.5,98,0.00,,FEW,0.00,VWS V14.01,2013-06-11 11:56:00,
2013-06-11 06:57:00,61.0,60.4,28.97,SSE,158,1.6,2.2,98,0.00,,FEW,0.00,VWS V14.01,2013-06-11 11:57:00,
2013-06-11 06:58:00,61.0,60.4,28.97,SSE,158,0.0,1.6,98,0.00,,FEW,0.00,VWS V14.01,2013-06-11 11:58:00,
2013-06-11 06:59:00,61.0,60.4,28.97,SSE,158,0.0,0.0,98,0.00,,FEW,0.00,VWS V14.01,2013-06-11 11:59:00,
2013-06-11 07:00:00,61.3,60.8,28.97,SE,135,0.0,0.0,98,0.00,,,0.00,VWS V14.01,2013-06-11 12:00:00,
2013-06-11 07:01:00,61.3,60.8,28.97,SE,135,0.0,0.0,98,0.00,,FEW,0.00,VWS V14.01,2013-06-11 12:01:00,
2013-06-11 07:02:00,61.3,60.8,28.97,SE,135,0.0,0.0,98,0.00,,FEW,0.00,VWS V14.01,2013-06-11 12:02:00,
2013-06-11 07:03:00,61.5,61.0,28.97,ESE,112,0.0,0.0,98,0.00,,FEW,0.00,VWS V14.01,2013-06-11 12:03:00,
2013-06-11 07:04:00,61.5,61.0,28.97,SSE,158,1.1,1.1,98,0.00,,FEW,0.00,VWS V14.01,2013-06-11 12:04:00,
2013-06-11 07:05:00,61.5,61.0,28.97,SSE,158,0.0,1.6,98,0.00,,,0.00,VWS V14.01,2013-06-11 12:05:00,
2013-06-11 07:06:00,61.5,61.0,28.97,SSE,158,1.3,1.6,98,0.00,,FEW,0.00,VWS V14.01,2013-06-11 12:06:00,
2013-06-11 07:07:00,61.7,61.1,28.97,SSE,158,2.5,2.5,98,0.00,,FEW,0.00,VWS V14.01,2013-06-11 12:07:00,
2013-06-11 07:08:00,61.7,61.1,28.97,SSE,158,0.0,2.5,98,0.00,,FEW,0.00,VWS V14.01,2013-06-11 12:08:00,
2013-06-11 07:09:00,61.7,61.1,28.97,SSE,158,0.9,1.1,98,0.00,,FEW,0.00,VWS V14.01,2013-06-11 12:09:00,
2013-06-11 07:10:00,61.7,61.1,28.97,SSE,158,1.3,1.3,98,0.00,,,0.00,VWS V14.01,2013-06-11 12:10:00,
2013-06-11 07:11:00,61.7,61.1,28.97,SSE,158,1.3,1.3,98,0.00,,FEW,0.00,VWS V14.01,2013-06-11 12:11:00,
2013-06-11 07:12:00,61.7,61.1,28.97,SSE,158,0.0,1.3,98,0.00,,FEW,0.00,VWS V14.01,2013-06-11 12:12:00,
2013-06-11 07:14:00,61.7,61.1,28.97,SSW,202,2.2,2.5,98,0.00,,FEW,0.00,VWS V14.01,2013-06-11 12:14:00,
2013-06-11 07:15:00,61.9,61.3,28.97,SSE,158,1.6,1.6,98,0.00,,,0.00,VWS V14.01,2013-06-11 12:15:00,
2013-06-11 07:16:00,61.9,61.3,28.97,SSE,158,1.6,1.6,98,0.00,,FEW,0.00,VWS V14.01,2013-06-11 12:16:00,
2013-06-11 07:17:00,61.9,61.3,28.97,SSE,158,1.6,2.5,98,0.00,,FEW,0.00,VWS V14.01,2013-06-11 12:17:00,
2013-06-11 07:18:00,61.9,61.3,28.97,SSE,158,0.0,1.6,98,0.00,,FEW,0.00,VWS V14.01,2013-06-11 12:18:00,
2013-06-11 07:19:00,61.9,61.3,28.97,SSE,158,2.0,2.7,98,0.00,,FEW,0.00,VWS V14.01,2013-06-11 12:19:00,
2013-06-11 07:20:00,62.1,61.5,28.97,SSE,158,2.9,2.9,98,0.00,,,0.00,VWS V14.01,2013-06-11 12:20:00,
2013-06-11 07:21:00,62.1,61.5,28.97,SSE,158,2.9,2.9,98,0.00,,FEW,0.00,VWS V14.01,2013-06-11 12:21:00,
2013-06-11 07:22:00,62.1,61.5,28.97,South,180,2.5,3.6,98,0.00,,FEW,0.00,VWS V14.01,2013-06-11 12:22:00,
2013-06-11 07:23:00,62.1,61.5,28.97,SSE,158,2.7,3.1,98,0.00,,FEW,0.00,VWS V14.01,2013-06-11 12:23:00,
2013-06-11 07:24:00,62.1,61.5,28.97,SSE,158,1.6,2.7,98,0.00,,FEW,0.00,VWS V14.01,2013-06-11 12:24:00,
2013-06-11 07:25:00,62.2,61.7,28.97,SSE,158,2.5,2.5,98,0.00,,,0.00,VWS V14.01,2013-06-11 12:25:00,
2013-06-11 07:26:00,62.2,61.7,28.97,SSE,158,2.5,2.5,98,0.00,,FEW,0.00,VWS V14.01,2013-06-11 12:26:00,
2013-06-11 07:27:00,62.2,61.7,28.97,SSE,158,3.1,4.0,98,0.00,,FEW,0.00,VWS V14.01,2013-06-11 12:27:00,
2013-06-11 07:28:00,62.2,61.7,28.97,SSE,158,2.5,3.1,98,0.00,,FEW,0.00,VWS V14.01,2013-06-11 12:28:00,
2013-06-11 07:29:00,62.2,61.7,28.97,ESE,112,2.5,4.7,98,0.00,,FEW,0.00,VWS V14.01,2013-06-11 12:29:00,
2013-06-11 07:30:00,62.4,61.8,28.97,SSE,158,0.9,2.5,98,0.00,,,0.00,VWS V14.01,2013-06-11 12:30:00,
2013-06-11 07:31:00,62.4,61.8,28.97,SSE,158,0.9,2.5,98,0.00,,FEW,0.00,VWS V14.01,2013-06-11 12:31:00,
2013-06-11 07:32:00,62.4,61.8,28.97,ESE,112,2.5,2.9,98,0.00,,FEW,0.00,VWS V14.01,2013-06-11 12:32:00,
2013-06-11 07:33:00,62.4,61.8,28.97,South,180,2.7,2.7,98,0.00,,FEW,0.00,VWS V14.01,2013-06-11 12:33:00,
2013-06-11 07:34:00,62.6,62.0,28.97,SE,135,0.0,2.7,98,0.00,,FEW,0.00,VWS V14.01,2013-06-11 12:34:00,
2013-06-11 07:35:00,62.6,62.0,28.97,ESE,112,0.9,1.3,98,0.00,,,0.00,VWS V14.01,2013-06-11 12:35:00,
2013-06-11 07:36:00,62.6,62.0,28.97,ESE,112,0.9,1.3,98,0.00,,FEW,0.00,VWS V14.01,2013-06-11 12:36:00,
2013-06-11 07:37:00,62.8,62.2,28.97,SSE,158,1.1,1.3,98,0.00,,FEW,0.00,VWS V14.01,2013-06-11 12:37:00,
2013-06-11 07:38:00,62.8,62.2,28.91,ESE,112,2.7,3.6,98,0.00,,FEW,0.00,VWS V14.01,2013-06-11 12:38:00,
2013-06-11 07:39:00,62.8,62.2,28.91,SSE,158,0.9,2.9,98,0.00,,FEW,0.00,VWS V14.01,2013-06-11 12:39:00,
2013-06-11 07:40:00,63.0,62.4,28.91,SSE,158,2.0,2.0,98,0.00,,,0.00,VWS V14.01,2013-06-11 12:40:00,
2013-06-11 07:41:00,63.0,62.4,28.91,SSE,158,2.7,2.7,98,0.00,,FEW,0.00,VWS V14.01,2013-06-11 12:41:00,
2013-06-11 07:42:00,63.1,62.6,28.91,SSE,158,1.1,2.7,98,0.00,,FEW,0.00,VWS V14.01,2013-06-11 12:42:00,
2013-06-11 07:43:00,63.1,62.6,28.91,South,180,2.0,2.5,98,0.00,,FEW,0.00,VWS V14.01,2013-06-11 12:43:00,
2013-06-11 07:44:00,63.1,62.6,28.91,SSE,158,2.2,2.9,98,0.00,,FEW,0.00,VWS V14.01,2013-06-11 12:44:00,
2013-06-11 07:45:00,63.3,62.8,28.91,SSE,158,0.9,0.9,98,0.00,,,0.00,VWS V14.01,2013-06-11 12:45:00,
2013-06-11 07:46:00,63.3,62.8,28.91,SSE,158,0.9,1.6,98,0.00,,FEW,0.00,VWS V14.01,2013-06-11 12:46:00,
2013-06-11 07:47:00,63.3,62.8,28.91,WSW,248,1.1,1.1,98,0.00,,FEW,0.00,VWS V14.01,2013-06-11 12:47:00,
2013-06-11 07:48:00,63.5,62.9,28.91,SW,225,0.0,1.1,98,0.00,,FEW,0.00,VWS V14.01,2013-06-11 12:48:00,
2013-06-11 07:49:00,63.7,63.1,28.91,ESE,112,2.2,2.2,98,0.00,,FEW,0.00,VWS V14.01,2013-06-11 12:49:00,
2013-06-11 07:50:00,63.9,63.3,28.91,South,180,0.9,1.6,98,0.00,,,0.00,VWS V14.01,2013-06-11 12:50:00,
2013-06-11 07:51:00,63.9,63.3,28.91,South,180,0.9,1.6,98,0.00,,FEW,0.00,VWS V14.01,2013-06-11 12:51:00,
2013-06-11 07:52:00,63.9,63.3,28.97,WSW,248,2.9,2.9,98,0.00,,FEW,0.00,VWS V14.01,2013-06-11 12:52:00,
2013-06-11 07:53:00,63.9,63.3,28.97,SSW,202,1.1,2.9,98,0.00,,FEW,0.00,VWS V14.01,2013-06-11 12:53:00,
2013-06-11 07:54:00,64.0,63.5,28.97,SSW,202,1.6,2.9,98,0.00,,FEW,0.00,VWS V14.01,2013-06-11 12:54:00,
2013-06-11 07:55:00,64.0,63.5,28.97,SSW,202,1.3,1.3,98,0.00,,,0.00,VWS V14.01,2013-06-11 12:55:00,
2013-06-11 07:56:00,64.0,63.5,28.97,SSW,202,1.3,1.3,98,0.00,,FEW,0.00,VWS V14.01,2013-06-11 12:56:00,
2013-06-11 07:57:00,64.2,63.7,28.97,SW,225,2.0,2.0,98,0.00,,FEW,0.00,VWS V14.01,2013-06-11 12:57:00,
2013-06-11 07:58:00,64.2,63.7,28.97,SW,225,2.0,2.0,98,0.00,,FEW,0.00,VWS V14.01,2013-06-11 12:58:00,
2013-06-11 07:59:00,64.2,63.7,28.97,SSW,202,1.3,2.0,98,0.00,,FEW,0.00,VWS V14.01,2013-06-11 12:59:00,
2013-06-11 08:00:00,64.4,63.8,28.97,SSW,202,1.3,1.3,98,0.00,,,0.00,VWS V14.01,2013-06-11 13:00:00,
2013-06-11 08:01:00,64.4,63.8,28.97,SSW,202,1.3,1.3,98,0.00,,FEW,0.00,VWS V14.01,2013-06-11 13:01:00,
2013-06-11 08:02:00,64.4,63.8,28.97,South,180,1.3,1.3,98,0.00,,FEW,0.00,VWS V14.01,2013-06-11 13:02:00,
2013-06-11 08:03:00,64.4,63.8,28.97,WSW,248,2.0,2.0,98,0.00,,FEW,0.00,VWS V14.01,2013-06-11 13:03:00,
2013-06-11 08:04:00,64.9,64.4,28.97,SSW,202,1.6,2.7,98,0.00,,FEW,0.00,VWS V14.01,2013-06-11 13:04:00,
2013-06-11 08:05:00,65.1,64.5,28.97,SSE,158,1.1,1.6,98,0.00,,,0.00,VWS V14.01,2013-06-11 13:05:00,
2013-06-11 08:06:00,65.5,64.9,28.97,South,180,1.1,1.6,98,0.00,,FEW,0.00,VWS V14.01,2013-06-11 13:06:00,
2013-06-11 08:07:00,65.5,64.9,28.97,South,180,0.9,1.1,98,0.00,,FEW,0.00,VWS V14.01,2013-06-11 13:07:00,
2013-06-11 08:08:00,65.5,64.9,28.97,SSE,158,1.1,1.3,98,0.00,,FEW,0.00,VWS V14.01,2013-06-11 13:08:00,
2013-06-11 08:09:00,65.7,65.1,28.97,SSE,158,2.0,2.0,98,0.00,,FEW,0.00,VWS V14.01,2013-06-11 13:09:00,
2013-06-11 08:10:00,65.7,65.1,28.97,SSW,202,1.6,2.5,98,0.00,,,0.00,VWS V14.01,2013-06-11 13:10:00,
2013-06-11 08:11:00,65.7,65.1,28.97,SSW,202,1.6,2.5,98,0.00,,FEW,0.00,VWS V14.01,2013-06-11 13:11:00,
2013-06-11 08:12:00,65.7,64.8,28.97,South,180,0.9,2.0,97,0.00,,FEW,0.00,VWS V14.01,2013-06-11 13:12:00,
2013-06-11 08:13:00,65.7,64.8,28.97,SSE,158,0.0,0.9,97,0.00,,FEW,0.00,VWS V14.01,2013-06-11 13:13:00,
2013-06-11 08:14:00,65.7,64.8,28.97,SE,135,1.1,1.3,97,0.00,,FEW,0.00,VWS V14.01,2013-06-11 13:14:00,
2013-06-11 08:15:00,65.8,65.0,28.97,SSE,158,0.9,1.1,97,0.00,,,0.00,VWS V14.01,2013-06-11 13:15:00,
2013-06-11 08:16:00,65.8,65.0,28.97,SSE,158,0.9,1.1,97,0.00,,FEW,0.00,VWS V14.01,2013-06-11 13:16:00,
2013-06-11 08:17:00,65.8,65.0,28.97,ESE,112,0.0,1.1,97,0.00,,FEW,0.00,VWS V14.01,2013-06-11 13:17:00,
2013-06-11 08:18:00,65.8,65.0,28.97,SSE,158,2.2,2.2,97,0.00,,FEW,0.00,VWS V14.01,2013-06-11 13:18:00,
2013-06-11 08:19:00,66.0,65.2,28.97,SSE,158,0.0,2.2,97,0.00,,FEW,0.00,VWS V14.01,2013-06-11 13:19:00,
2013-06-11 08:20:00,66.2,65.3,28.97,SE,135,0.9,1.1,97,0.00,,,0.00,VWS V14.01,2013-06-11 13:20:00,
2013-06-11 08:21:00,66.2,65.3,28.97,South,180,1.1,1.1,97,0.00,,FEW,0.00,VWS V14.01,2013-06-11 13:21:00,
2013-06-11 08:22:00,66.4,65.5,28.97,SSE,158,1.6,2.5,97,0.00,,FEW,0.00,VWS V14.01,2013-06-11 13:22:00,
2013-06-11 08:23:00,66.4,65.5,28.97,SSE,158,1.1,1.6,97,0.00,,FEW,0.00,VWS V14.01,2013-06-11 13:23:00,
2013-06-11 08:24:00,66.6,65.7,28.97,SSE,158,1.1,1.3,97,0.00,,FEW,0.00,VWS V14.01,2013-06-11 13:24:00,
2013-06-11 08:25:00,66.7,65.9,28.97,SSE,158,3.1,3.1,97,0.00,,,0.00,VWS V14.01,2013-06-11 13:25:00,
2013-06-11 08:26:00,67.1,66.2,28.97,SSE,158,0.0,3.1,97,0.00,,FEW,0.00,VWS V14.01,2013-06-11 13:26:00,
2013-06-11 08:27:00,67.1,66.2,28.97,SSE,158,0.9,0.9,97,0.00,,FEW,0.00,VWS V14.01,2013-06-11 13:27:00,
2013-06-11 08:28:00,67.3,66.1,28.97,SSE,158,2.7,3.4,96,0.00,,FEW,0.00,VWS V14.01,2013-06-11 13:28:00,
2013-06-11 08:29:00,67.5,66.3,28.97,SSW,202,2.0,3.8,96,0.00,,FEW,0.00,VWS V14.01,2013-06-11 13:29:00,
2013-06-11 08:30:00,67.6,66.2,28.97,SSE,158,3.6,3.6,95,0.00,,,0.00,VWS V14.01,2013-06-11 13:30:00,
2013-06-11 08:31:00,67.6,66.2,28.97,SSE,158,3.6,3.6,95,0.00,,FEW,0.00,VWS V14.01,2013-06-11 13:31:00,
2013-06-11 08:32:00,67.6,66.2,28.97,SSE,158,3.4,3.6,95,0.00,,FEW,0.00,VWS V14.01,2013-06-11 13:32:00,
2013-06-11 08:33:00,67.6,65.9,28.97,SE,135,3.6,3.8,94,0.00,,FEW,0.00,VWS V14.01,2013-06-11 13:33:00,
2013-06-11 08:34:00,67.6,65.6,28.97,SE,135,3.6,3.6,93,0.00,,FEW,0.00,VWS V14.01,2013-06-11 13:34:00,
2013-06-11 08:35:00,67.6,65.6,28.97,South,180,1.1,1.6,93,0.00,,,0.00,VWS V14.01,2013-06-11 13:35:00,
2013-06-11 08:36:00,67.6,65.6,28.97,South,180,1.1,1.6,93,0.00,,FEW,0.00,VWS V14.01,2013-06-11 13:36:00,
2013-06-11 08:37:00,67.6,65.6,28.97,South,180,3.1,3.1,93,0.00,,FEW,0.00,VWS V14.01,2013-06-11 13:37:00,
2013-06-11 08:38:00,67.5,65.4,28.94,SE,135,4.3,4.3,93,0.00,,FEW,0.00,VWS V14.01,2013-06-11 13:38:00,
2013-06-11 08:39:00,67.5,65.1,28.94,SE,135,1.3,4.3,92,0.00,,FEW,0.00,VWS V14.01,2013-06-11 13:39:00,
2013-06-11 08:40:00,67.5,65.1,28.94,SW,225,0.0,3.1,92,0.00,,,0.00,VWS V14.01,2013-06-11 13:40:00,
2013-06-11 08:41:00,67.5,65.1,28.94,SW,225,0.0,3.1,92,0.00,,FEW,0.00,VWS V14.01,2013-06-11 13:41:00,
2013-06-11 08:42:00,67.5,65.4,28.94,South,180,1.3,1.6,93,0.00,,FEW,0.00,VWS V14.01,2013-06-11 13:42:00,
2013-06-11 08:44:00,67.5,65.4,28.94,WSW,248,2.2,2.2,93,0.00,,FEW,0.00,VWS V14.01,2013-06-11 13:44:00,
2013-06-11 08:45:00,67.5,65.4,28.94,South,180,1.1,2.5,93,0.00,,,0.00,VWS V14.01,2013-06-11 13:45:00,
2013-06-11 08:46:00,67.5,65.4,28.94,SSW,202,2.7,2.7,93,0.00,,FEW,0.00,VWS V14.01,2013-06-11 13:46:00,
2013-06-11 08:47:00,67.5,65.4,28.94,SSW,202,3.4,3.4,93,0.00,,FEW,0.00,VWS V14.01,2013-06-11 13:47:00,
2013-06-11 08:48:00,67.3,65.2,28.94,SSW,202,1.3,3.4,93,0.00,,FEW,0.00,VWS V14.01,2013-06-11 13:48:00,
2013-06-11 08:49:00,67.3,65.2,28.94,SSE,158,2.2,2.5,93,0.00,,FEW,0.00,VWS V14.01,2013-06-11 13:49:00,
2013-06-11 08:50:00,67.1,65.0,28.94,SSE,158,2.5,2.5,93,0.00,,,0.00,VWS V14.01,2013-06-11 13:50:00,
2013-06-11 08:51:00,67.1,65.0,28.94,SSE,158,2.5,2.5,93,0.00,,FEW,0.00,VWS V14.01,2013-06-11 13:51:00,
2013-06-11 08:52:00,67.1,65.0,28.97,SSE,158,2.9,3.1,93,0.00,,FEW,0.00,VWS V14.01,2013-06-11 13:52:00,
2013-06-11 08:53:00,66.9,64.8,28.97,SSE,158,3.4,3.6,93,0.00,,FEW,0.00,VWS V14.01,2013-06-11 13:53:00,
2013-06-11 08:54:00,66.9,64.8,28.97,SSE,158,1.6,3.4,93,0.00,,FEW,0.00,VWS V14.01,2013-06-11 13:54:00,
2013-06-11 08:55:00,66.7,64.7,28.97,SE,135,2.7,3.1,93,0.00,,,0.00,VWS V14.01,2013-06-11 13:55:00,
2013-06-11 08:56:00,66.7,64.7,28.97,ESE,112,3.8,3.8,93,0.00,,FEW,0.00,VWS V14.01,2013-06-11 13:56:00,
2013-06-11 08:57:00,66.6,64.5,28.97,SSE,158,9.4,9.4,93,0.00,,FEW,0.00,VWS V14.01,2013-06-11 13:57:00,
2013-06-11 08:58:00,66.6,64.5,28.97,ESE,112,6.7,9.4,93,0.00,,FEW,0.00,VWS V14.01,2013-06-11 13:58:00,
2013-06-11 08:59:00,66.4,64.3,28.97,SE,135,3.4,6.7,93,0.00,,FEW,0.00,VWS V14.01,2013-06-11 13:59:00,
2013-06-11 09:00:00,66.4,64.3,28.97,SE,135,3.8,3.8,93,0.00,,,0.00,VWS V14.01,2013-06-11 14:00:00,
2013-06-11 09:01:00,66.4,64.3,28.97,SE,135,3.8,3.8,93,0.00,,FEW,0.00,VWS V14.01,2013-06-11 14:01:00,
2013-06-11 09:02:00,66.4,64.6,28.97,SE,135,4.9,4.9,94,0.00,,FEW,0.00,VWS V14.01,2013-06-11 14:02:00,
2013-06-11 09:03:00,66.4,64.6,28.97,East,90,3.4,4.9,94,0.00,,FEW,0.00,VWS V14.01,2013-06-11 14:03:00,
2013-06-11 09:04:00,66.4,64.6,28.97,West,270,1.6,3.4,94,0.00,,FEW,0.00,VWS V14.01,2013-06-11 14:04:00,
2013-06-11 09:05:00,66.7,65.0,28.97,SSE,158,2.2,2.5,94,0.00,,,0.00,VWS V14.01,2013-06-11 14:05:00,
2013-06-11 09:06:00,66.7,65.0,28.97,SSE,158,2.2,2.5,94,0.00,,FEW,0.00,VWS V14.01,2013-06-11 14:06:00,
2013-06-11 09:07:00,66.7,65.0,28.91,South,180,1.6,4.0,94,0.00,,FEW,0.00,VWS V14.01,2013-06-11 14:07:00,
2013-06-11 09:08:00,66.9,65.1,28.91,SSE,158,0.9,2.5,94,0.00,,FEW,0.00,VWS V14.01,2013-06-11 14:08:00,
2013-06-11 09:09:00,67.1,65.3,28.91,SSE,158,1.6,4.0,94,0.00,,FEW,0.00,VWS V14.01,2013-06-11 14:09:00,
2013-06-11 09:10:00,67.5,65.7,28.91,WSW,248,1.1,2.2,94,0.00,,,0.00,VWS V14.01,2013-06-11 14:10:00,
2013-06-11 09:11:00,67.5,65.7,28.91,SW,225,1.1,2.2,94,0.00,,FEW,0.00,VWS V14.01,2013-06-11 14:11:00,
2013-06-11 09:12:00,67.6,65.9,28.91,NW,315,1.3,1.3,94,0.00,,FEW,0.00,VWS V14.01,2013-06-11 14:12:00,
2013-06-11 09:13:00,67.8,66.0,28.91,WNW,292,1.3,2.0,94,0.00,,FEW,0.00,VWS V14.01,2013-06-11 14:13:00,
2013-06-11 09:14:00,67.8,66.0,28.91,NW,315,1.6,2.0,94,0.00,,FEW,0.00,VWS V14.01,2013-06-11 14:14:00,
2013-06-11 09:15:00,68.2,66.4,28.91,NNW,338,0.9,1.6,94,0.00,,,0.00,VWS V14.01,2013-06-11 14:15:00,
2013-06-11 09:16:00,68.2,66.4,28.91,NNW,338,0.9,1.6,94,0.00,,FEW,0.00,VWS V14.01,2013-06-11 14:16:00,
2013-06-11 09:17:00,68.2,66.4,28.91,NW,315,0.0,0.9,94,0.00,,FEW,0.00,VWS V14.01,2013-06-11 14:17:00,
2013-06-11 09:18:00,68.4,66.6,28.91,NW,315,0.0,0.0,94,0.00,,FEW,0.00,VWS V14.01,2013-06-11 14:18:00,
2013-06-11 09:19:00,68.5,66.8,28.91,NNW,338,0.0,0.0,94,0.00,,FEW,0.00,VWS V14.01,2013-06-11 14:19:00,
2013-06-11 09:20:00,68.9,67.1,28.91,North,0,1.6,2.0,94,0.00,,,0.00,VWS V14.01,2013-06-11 14:20:00,
2013-06-11 09:21:00,68.9,67.1,28.91,NNE,22,1.6,2.0,94,0.00,,FEW,0.00,VWS V14.01,2013-06-11 14:21:00,
2013-06-11 09:22:00,68.9,67.1,28.94,NNW,338,1.3,1.6,94,0.00,,FEW,0.00,VWS V14.01,2013-06-11 14:22:00,
2013-06-11 09:23:00,69.1,67.0,28.94,NNW,338,2.0,2.0,93,0.00,,FEW,0.00,VWS V14.01,2013-06-11 14:23:00,
2013-06-11 09:24:00,69.1,67.0,28.94,NW,315,2.2,2.2,93,0.00,,FEW,0.00,VWS V14.01,2013-06-11 14:24:00,
2013-06-11 09:25:00,69.1,67.0,28.94,NNW,338,1.3,2.0,93,0.00,,,0.00,VWS V14.01,2013-06-11 14:25:00,
2013-06-11 09:26:00,69.1,67.0,28.94,NNW,338,1.3,2.0,93,0.00,,FEW,0.00,VWS V14.01,2013-06-11 14:26:00,
2013-06-11 09:27:00,69.1,66.7,28.94,NNW,338,2.2,2.5,92,0.00,,FEW,0.00,VWS V14.01,2013-06-11 14:27:00,
2013-06-11 09:29:00,69.1,66.7,28.94,NNW,338,2.5,2.9,92,0.00,,FEW,0.00,VWS V14.01,2013-06-11 14:29:00,
2013-06-11 09:30:00,68.9,66.5,28.94,NNW,338,2.2,2.5,92,0.00,,,0.00,VWS V14.01,2013-06-11 14:30:00,
2013-06-11 09:31:00,68.9,66.5,28.94,NNW,338,2.2,2.5,92,0.00,,FEW,0.00,VWS V14.01,2013-06-11 14:31:00,
2013-06-11 09:32:00,68.9,66.5,28.94,NNW,338,3.6,3.6,92,0.00,,FEW,0.00,VWS V14.01,2013-06-11 14:32:00,
2013-06-11 09:33:00,68.7,66.0,28.94,NW,315,2.7,3.6,91,0.00,,FEW,0.00,VWS V14.01,2013-06-11 14:33:00,
2013-06-11 09:34:00,68.7,66.0,28.94,North,0,2.9,3.1,91,0.00,,FEW,0.00,VWS V14.01,2013-06-11 14:34:00,
2013-06-11 09:35:00,68.7,66.0,28.94,NNW,338,3.4,3.4,91,0.00,,,0.00,VWS V14.01,2013-06-11 14:35:00,
2013-06-11 09:36:00,68.7,66.0,28.94,NNW,338,3.4,3.4,91,0.00,,FEW,0.00,VWS V14.01,2013-06-11 14:36:00,
2013-06-11 09:37:00,68.7,66.0,28.97,NNW,338,3.1,3.8,91,0.00,,FEW,0.00,VWS V14.01,2013-06-11 14:37:00,
2013-06-11 09:38:00,68.7,66.0,28.97,NNW,338,2.0,3.1,91,0.00,,FEW,0.00,VWS V14.01,2013-06-11 14:38:00,
2013-06-11 09:39:00,68.7,66.0,28.97,NW,315,3.6,3.6,91,0.00,,FEW,0.00,VWS V14.01,2013-06-11 14:39:00,
2013-06-11 09:40:00,69.1,66.3,28.97,NNW,338,3.4,3.4,91,0.00,,,0.00,VWS V14.01,2013-06-11 14:40:00,
2013-06-11 09:41:00,69.1,66.3,28.97,NNW,338,3.4,3.4,91,0.00,,FEW,0.00,VWS V14.01,2013-06-11 14:41:00,
2013-06-11 09:42:00,69.1,66.3,28.97,NNW,338,3.8,4.3,91,0.00,,FEW,0.00,VWS V14.01,2013-06-11 14:42:00,
2013-06-11 09:43:00,70.2,67.4,28.97,WNW,292,3.8,4.9,91,0.00,,FEW,0.00,VWS V14.01,2013-06-11 14:43:00,
2013-06-11 09:44:00,70.7,67.6,28.97,NW,315,6.3,6.3,90,0.00,,FEW,0.00,VWS V14.01,2013-06-11 14:44:00,
2013-06-11 09:45:00,71.4,68.0,28.97,WNW,292,5.6,5.6,89,0.00,,,0.00,VWS V14.01,2013-06-11 14:45:00,
2013-06-11 09:46:00,71.4,68.0,28.97,WNW,292,5.4,5.6,89,0.00,,FEW,0.00,VWS V14.01,2013-06-11 14:46:00,
2013-06-11 09:47:00,71.6,67.5,28.97,NW,315,3.6,5.6,87,0.00,,FEW,0.00,VWS V14.01,2013-06-11 14:47:00,
2013-06-11 09:48:00,72.1,67.7,28.97,WNW,292,2.5,3.6,86,0.00,,FEW,0.00,VWS V14.01,2013-06-11 14:48:00,
2013-06-11 09:49:00,72.1,67.7,28.97,NNW,338,2.9,4.3,86,0.00,,FEW,0.00,VWS V14.01,2013-06-11 14:49:00,
2013-06-11 09:50:00,71.8,66.7,28.97,NNW,338,3.8,6.3,84,0.00,,,0.00,VWS V14.01,2013-06-11 14:50:00,
2013-06-11 09:52:00,71.8,66.7,28.94,NW,315,2.5,4.9,84,0.00,,FEW,0.00,VWS V14.01,2013-06-11 14:52:00,
2013-06-11 09:53:00,71.8,66.7,28.94,NW,315,3.4,3.4,84,0.00,,FEW,0.00,VWS V14.01,2013-06-11 14:53:00,
2013-06-11 09:54:00,72.0,66.9,28.94,NNW,338,2.5,3.4,84,0.00,,FEW,0.00,VWS V14.01,2013-06-11 14:54:00,
2013-06-11 09:55:00,73.4,68.3,28.94,NW,315,2.9,2.9,84,0.00,,,0.00,VWS V14.01,2013-06-11 14:55:00,
2013-06-11 09:56:00,73.4,68.3,28.94,NW,315,2.9,2.9,84,0.00,,FEW,0.00,VWS V14.01,2013-06-11 14:56:00,
2013-06-11 09:57:00,74.3,69.5,28.94,North,0,2.9,2.9,85,0.00,,FEW,0.00,VWS V14.01,2013-06-11 14:57:00,
2013-06-11 09:58:00,74.7,68.1,28.94,NNW,338,3.6,4.9,80,0.00,,FEW,0.00,VWS V14.01,2013-06-11 14:58:00,
2013-06-11 09:59:00,74.7,67.7,28.94,NNW,338,3.1,3.8,79,0.00,,FEW,0.00,VWS V14.01,2013-06-11 14:59:00,
2013-06-11 10:00:00,74.7,67.7,28.94,NNW,338,4.0,4.0,79,0.00,,,0.00,VWS V14.01,2013-06-11 15:00:00,
2013-06-11 10:01:00,74.7,67.7,28.94,NNW,338,2.0,4.0,79,0.00,,FEW,0.00,VWS V14.01,2013-06-11 15:01:00,
2013-06-11 10:02:00,74.7,67.7,28.94,NNW,338,2.0,2.0,79,0.00,,FEW,0.00,VWS V14.01,2013-06-11 15:02:00,
2013-06-11 10:03:00,74.3,67.0,28.94,NNW,338,3.4,3.8,78,0.00,,FEW,0.00,VWS V14.01,2013-06-11 15:03:00,
2013-06-11 10:04:00,73.9,66.7,28.94,WNW,292,3.4,3.4,78,0.00,,FEW,0.00,VWS V14.01,2013-06-11 15:04:00,
2013-06-11 10:05:00,73.0,65.8,28.94,NNE,22,2.7,2.7,78,0.00,,,0.00,VWS V14.01,2013-06-11 15:05:00,
2013-06-11 10:06:00,73.0,65.8,28.94,North,0,3.6,3.6,78,0.00,,FEW,0.00,VWS V14.01,2013-06-11 15:06:00,
2013-06-11 10:07:00,73.0,66.2,28.97,NNE,22,1.1,3.6,79,0.00,,FEW,0.00,VWS V14.01,2013-06-11 15:07:00,
2013-06-11 10:08:00,72.9,66.0,28.97,North,0,1.3,2.2,79,0.00,,FEW,0.00,VWS V14.01,2013-06-11 15:08:00,
2013-06-11 10:09:00,72.9,66.0,28.97,North,0,0.0,1.3,79,0.00,,FEW,0.00,VWS V14.01,2013-06-11 15:09:00,
2013-06-11 10:10:00,72.7,66.2,28.97,ENE,68,1.1,1.1,80,0.00,,,0.00,VWS V14.01,2013-06-11 15:10:00,
2013-06-11 10:11:00,72.7,66.2,28.97,ENE,68,1.1,1.1,80,0.00,,FEW,0.00,VWS V14.01,2013-06-11 15:11:00,
2013-06-11 10:12:00,72.7,66.2,28.97,ESE,112,1.1,2.7,80,0.00,,FEW,0.00,VWS V14.01,2013-06-11 15:12:00,
2013-06-11 10:13:00,72.5,66.0,28.97,ENE,68,0.0,1.1,80,0.00,,FEW,0.00,VWS V14.01,2013-06-11 15:13:00,
2013-06-11 10:14:00,72.5,66.0,28.97,ENE,68,0.0,0.0,80,0.00,,FEW,0.00,VWS V14.01,2013-06-11 15:14:00,
2013-06-11 10:15:00,72.5,66.3,28.97,SE,135,1.3,1.3,81,0.00,,,0.00,VWS V14.01,2013-06-11 15:15:00,
2013-06-11 10:16:00,72.5,66.3,28.97,SE,135,1.3,1.3,81,0.00,,FEW,0.00,VWS V14.01,2013-06-11 15:16:00,
2013-06-11 10:17:00,72.5,66.3,28.97,ESE,112,0.0,2.5,81,0.00,,FEW,0.00,VWS V14.01,2013-06-11 15:17:00,
2013-06-11 10:18:00,72.3,66.2,28.97,ESE,112,1.3,1.6,81,0.00,,FEW,0.00,VWS V14.01,2013-06-11 15:18:00,
2013-06-11 10:19:00,72.3,66.2,28.97,SSE,158,1.6,3.1,81,0.00,,FEW,0.00,VWS V14.01,2013-06-11 15:19:00,
2013-06-11 10:20:00,72.1,66.0,28.97,SSE,158,1.3,2.9,81,0.00,,,0.00,VWS V14.01,2013-06-11 15:20:00,
2013-06-11 10:21:00,72.1,66.0,28.97,South,180,1.6,2.9,81,0.00,,FEW,0.00,VWS V14.01,2013-06-11 15:21:00,
2013-06-11 10:22:00,72.1,66.0,28.91,SSE,158,1.6,1.6,81,0.00,,FEW,0.00,VWS V14.01,2013-06-11 15:22:00,
2013-06-11 10:23:00,72.1,66.3,28.91,SE,135,1.1,2.2,82,0.00,,FEW,0.00,VWS V14.01,2013-06-11 15:23:00,
2013-06-11 10:24:00,72.1,66.3,28.91,SSE,158,0.9,2.0,82,0.00,,FEW,0.00,VWS V14.01,2013-06-11 15:24:00,
2013-06-11 10:25:00,72.1,66.3,28.91,SSE,158,2.2,2.2,82,0.00,,,0.00,VWS V14.01,2013-06-11 15:25:00,
2013-06-11 10:26:00,72.1,66.3,28.91,SSE,158,2.2,2.2,82,0.00,,FEW,0.00,VWS V14.01,2013-06-11 15:26:00,
2013-06-11 10:27:00,72.1,66.3,28.91,SSW,202,2.7,2.7,82,0.00,,FEW,0.00,VWS V14.01,2013-06-11 15:27:00,
2013-06-11 10:28:00,72.0,66.2,28.91,SSW,202,1.3,3.4,82,0.00,,FEW,0.00,VWS V14.01,2013-06-11 15:28:00,
2013-06-11 10:29:00,71.8,66.0,28.91,SSW,202,3.6,4.0,82,0.00,,FEW,0.00,VWS V14.01,2013-06-11 15:29:00,
2013-06-11 10:30:00,71.6,65.8,28.91,SSW,202,1.1,2.5,82,0.00,,,0.00,VWS V14.01,2013-06-11 15:30:00,
2013-06-11 10:31:00,71.6,65.8,28.91,SSW,202,2.5,2.5,82,0.00,,FEW,0.00,VWS V14.01,2013-06-11 15:31:00,
2013-06-11 10:32:00,71.4,66.0,28.91,SSW,202,2.7,2.7,83,0.00,,FEW,0.00,VWS V14.01,2013-06-11 15:32:00,
2013-06-11 10:33:00,71.4,66.0,28.91,SSE,158,1.3,2.7,83,0.00,,FEW,0.00,VWS V14.01,2013-06-11 15:33:00,
2013-06-11 10:34:00,71.2,65.8,28.91,West,270,0.0,1.6,83,0.00,,FEW,0.00,VWS V14.01,2013-06-11 15:34:00,
2013-06-11 10:35:00,71.1,65.6,28.91,West,270,0.9,1.3,83,0.00,,,0.00,VWS V14.01,2013-06-11 15:35:00,
2013-06-11 10:36:00,71.1,65.6,28.91,West,270,0.9,1.3,83,0.00,,FEW,0.00,VWS V14.01,2013-06-11 15:36:00,
2013-06-11 10:37:00,71.1,65.6,28.97,South,180,0.9,0.9,83,0.00,,FEW,0.00,VWS V14.01,2013-06-11 15:37:00,
2013-06-11 10:38:00,70.9,65.5,28.97,SSE,158,2.7,2.7,83,0.00,,FEW,0.00,VWS V14.01,2013-06-11 15:38:00,
2013-06-11 10:39:00,70.9,65.5,28.97,SSE,158,2.5,2.7,83,0.00,,FEW,0.00,VWS V14.01,2013-06-11 15:39:00,
2013-06-11 10:40:00,70.7,65.6,28.97,South,180,1.1,1.6,84,0.00,,,0.00,VWS V14.01,2013-06-11 15:40:00,
2013-06-11 10:41:00,70.7,65.6,28.97,SSE,158,0.0,1.6,84,0.00,,FEW,0.00,VWS V14.01,2013-06-11 15:41:00,
2013-06-11 10:42:00,70.7,65.6,28.97,NNW,338,0.0,0.0,84,0.00,,FEW,0.00,VWS V14.01,2013-06-11 15:42:00,
2013-06-11 10:43:00,70.5,65.5,28.97,NNW,338,2.0,2.2,84,0.00,,FEW,0.00,VWS V14.01,2013-06-11 15:43:00,
2013-06-11 10:44:00,70.5,65.8,28.97,NNW,338,2.5,2.5,85,0.00,,FEW,0.00,VWS V14.01,2013-06-11 15:44:00,
2013-06-11 10:45:00,70.2,65.8,28.97,NNW,338,3.1,3.6,86,0.00,,,0.00,VWS V14.01,2013-06-11 15:45:00,
2013-06-11 10:46:00,70.2,65.8,28.97,NNW,338,3.1,3.6,86,0.00,,FEW,0.00,VWS V14.01,2013-06-11 15:46:00,
2013-06-11 10:47:00,70.0,65.6,28.97,NNE,22,2.9,3.4,86,0.00,,FEW,0.00,VWS V14.01,2013-06-11 15:47:00,
2013-06-11 10:48:00,70.0,65.6,28.97,NNW,338,3.8,3.8,86,0.00,,FEW,0.00,VWS V14.01,2013-06-11 15:48:00,
2013-06-11 10:49:00,69.8,65.8,28.97,North,0,2.7,3.8,87,0.00,,FEW,0.00,VWS V14.01,2013-06-11 15:49:00,
2013-06-11 10:50:00,69.6,65.9,28.97,NNE,22,2.5,3.6,88,0.00,,,0.00,VWS V14.01,2013-06-11 15:50:00,
2013-06-11 10:51:00,69.6,65.9,28.97,NNE,22,2.5,3.6,88,0.00,,FEW,0.00,VWS V14.01,2013-06-11 15:51:00,
2013-06-11 10:52:00,69.6,65.9,28.97,North,0,1.6,2.5,88,0.00,,FEW,0.00,VWS V14.01,2013-06-11 15:52:00,
2013-06-11 10:53:00,69.6,65.9,28.97,ENE,68,1.3,1.6,88,0.00,,FEW,0.00,VWS V14.01,2013-06-11 15:53:00,
2013-06-11 10:54:00,69.6,65.9,28.97,NW,315,0.0,1.3,88,0.00,,FEW,0.00,VWS V14.01,2013-06-11 15:54:00,
2013-06-11 10:55:00,69.4,65.7,28.97,NNW,338,2.9,2.9,88,0.00,,,0.00,VWS V14.01,2013-06-11 15:55:00,
2013-06-11 10:56:00,69.4,65.7,28.97,NNW,338,2.9,2.9,88,0.00,,FEW,0.00,VWS V14.01,2013-06-11 15:56:00,
2013-06-11 10:57:00,69.4,65.7,28.97,WNW,292,1.1,2.9,88,0.00,,FEW,0.00,VWS V14.01,2013-06-11 15:57:00,
2013-06-11 10:58:00,69.4,66.1,28.97,WNW,292,0.0,1.6,89,0.00,,FEW,0.00,VWS V14.01,2013-06-11 15:58:00,
2013-06-11 10:59:00,69.4,66.1,28.97,SSW,202,0.0,0.9,89,0.00,,FEW,0.00,VWS V14.01,2013-06-11 15:59:00,
2013-06-11 11:00:00,69.4,66.1,28.97,NW,315,1.6,1.6,89,0.00,,,0.00,VWS V14.01,2013-06-11 16:00:00,
2013-06-11 11:01:00,69.4,66.1,28.97,NW,315,1.6,1.6,89,0.00,,FEW,0.00,VWS V14.01,2013-06-11 16:01:00,
2013-06-11 11:02:00,69.4,66.1,28.97,WNW,292,2.2,2.2,89,0.00,,FEW,0.00,VWS V14.01,2013-06-11 16:02:00,
2013-06-11 11:03:00,69.4,66.1,28.97,WNW,292,0.9,2.2,89,0.00,,FEW,0.00,VWS V14.01,2013-06-11 16:03:00,
2013-06-11 11:04:00,69.4,66.1,28.97,North,0,1.1,2.2,89,0.00,,FEW,0.00,VWS V14.01,2013-06-11 16:04:00,
2013-06-11 11:05:00,69.3,65.9,28.97,ESE,112,0.0,0.9,89,0.00,,,0.00,VWS V14.01,2013-06-11 16:05:00,
2013-06-11 11:06:00,69.3,65.9,28.97,ESE,112,0.0,0.9,89,0.00,,FEW,0.00,VWS V14.01,2013-06-11 16:06:00,
2013-06-11 11:07:00,69.3,66.2,28.97,SE,135,1.3,2.2,90,0.00,,FEW,0.00,VWS V14.01,2013-06-11 16:07:00,
2013-06-11 11:08:00,69.3,66.2,28.97,East,90,0.9,2.2,90,0.00,,FEW,0.00,VWS V14.01,2013-06-11 16:08:00,
2013-06-11 11:09:00,69.1,66.0,28.97,East,90,0.0,0.9,90,0.00,,FEW,0.00,VWS V14.01,2013-06-11 16:09:00,
2013-06-11 11:10:00,69.1,66.0,28.97,SSW,202,0.0,1.1,90,0.00,,,0.00,VWS V14.01,2013-06-11 16:10:00,
2013-06-11 11:11:00,69.1,66.0,28.97,SSW,202,0.0,1.1,90,0.00,,FEW,0.00,VWS V14.01,2013-06-11 16:11:00,
2013-06-11 11:12:00,69.1,66.0,28.97,ESE,112,0.0,0.0,90,0.00,,FEW,0.00,VWS V14.01,2013-06-11 16:12:00,
2013-06-11 11:13:00,68.9,65.8,28.97,SSE,158,0.0,1.6,90,0.00,,FEW,0.00,VWS V14.01,2013-06-11 16:13:00,
2013-06-11 11:14:00,68.9,65.8,28.97,SE,135,0.0,0.0,90,0.00,,FEW,0.00,VWS V14.01,2013-06-11 16:14:00,
2013-06-11 11:15:00,68.9,65.8,28.97,NNW,338,1.3,1.3,90,0.00,,,0.00,VWS V14.01,2013-06-11 16:15:00,
2013-06-11 11:16:00,68.9,65.8,28.97,NNE,22,2.5,2.5,90,0.00,,FEW,0.00,VWS V14.01,2013-06-11 16:16:00,
2013-06-11 11:17:00,68.7,65.7,28.97,North,0,2.2,2.5,90,0.00,,FEW,0.00,VWS V14.01,2013-06-11 16:17:00,
2013-06-11 11:18:00,68.7,65.7,28.97,NNW,338,2.0,2.2,90,0.00,,FEW,0.00,VWS V14.01,2013-06-11 16:18:00,
2013-06-11 11:19:00,68.7,65.7,28.97,NE,45,1.1,2.0,90,0.00,,FEW,0.00,VWS V14.01,2013-06-11 16:19:00,
2013-06-11 11:20:00,68.7,66.0,28.97,SE,135,0.0,0.0,91,0.00,,,0.00,VWS V14.01,2013-06-11 16:20:00,
2013-06-11 11:21:00,68.7,66.0,28.97,SE,135,0.0,0.0,91,0.00,,FEW,0.00,VWS V14.01,2013-06-11 16:21:00,
2013-06-11 11:23:00,68.7,66.0,28.94,ENE,68,1.1,1.1,91,0.00,,FEW,0.00,VWS V14.01,2013-06-11 16:23:00,
2013-06-11 11:24:00,68.7,66.0,28.94,NNW,338,2.7,2.7,91,0.00,,FEW,0.00,VWS V14.01,2013-06-11 16:24:00,
2013-06-11 11:25:00,68.7,66.0,28.94,NNE,22,3.4,3.4,91,0.00,,,0.00,VWS V14.01,2013-06-11 16:25:00,
2013-06-11 11:26:00,68.7,66.0,28.94,NNE,22,3.4,3.4,91,0.00,,FEW,0.00,VWS V14.01,2013-06-11 16:26:00,
2013-06-11 11:27:00,68.7,66.3,28.94,NE,45,1.6,3.8,92,0.00,,FEW,0.00,VWS V14.01,2013-06-11 16:27:00,
2013-06-11 11:28:00,68.7,66.6,28.94,NW,315,0.9,3.8,93,0.00,,FEW,0.00,VWS V14.01,2013-06-11 16:28:00,
2013-06-11 11:29:00,68.9,66.8,28.94,NE,45,0.0,2.0,93,0.00,,FEW,0.00,VWS V14.01,2013-06-11 16:29:00,
2013-06-11 11:30:00,69.1,67.0,28.94,SSW,202,1.3,1.3,93,0.00,,,0.00,VWS V14.01,2013-06-11 16:30:00,
2013-06-11 11:31:00,69.1,67.0,28.94,SSW,202,1.3,1.3,93,0.00,,FEW,0.00,VWS V14.01,2013-06-11 16:31:00,
2013-06-11 11:32:00,69.1,67.0,28.94,SSW,202,0.9,1.3,93,0.00,,FEW,0.00,VWS V14.01,2013-06-11 16:32:00,
2013-06-11 11:33:00,69.1,67.0,28.94,SSE,158,2.5,2.5,93,0.00,,FEW,0.00,VWS V14.01,2013-06-11 16:33:00,
2013-06-11 11:34:00,69.1,67.0,28.94,SSE,158,2.5,2.5,93,0.00,,FEW,0.00,VWS V14.01,2013-06-11 16:34:00,
2013-06-11 11:35:00,69.4,67.3,28.94,SSE,158,0.0,2.0,93,0.00,,,0.00,VWS V14.01,2013-06-11 16:35:00,
2013-06-11 11:36:00,69.6,67.5,28.94,SSE,158,0.0,2.0,93,0.00,,FEW,0.00,VWS V14.01,2013-06-11 16:36:00,
2013-06-11 11:37:00,69.8,67.7,28.91,SSW,202,0.9,1.1,93,0.00,,FEW,0.00,VWS V14.01,2013-06-11 16:37:00,
2013-06-11 11:38:00,69.8,67.4,28.91,South,180,0.0,0.9,92,0.00,,FEW,0.00,VWS V14.01,2013-06-11 16:38:00,
2013-06-11 11:39:00,70.9,68.4,28.91,SSW,202,0.0,0.0,92,0.00,,FEW,0.00,VWS V14.01,2013-06-11 16:39:00,
2013-06-11 11:40:00,71.8,69.3,28.91,SSE,158,2.5,2.5,92,0.00,,,0.00,VWS V14.01,2013-06-11 16:40:00,
2013-06-11 11:41:00,71.8,69.3,28.91,WSW,248,2.0,2.5,92,0.00,,FEW,0.00,VWS V14.01,2013-06-11 16:41:00,
2013-06-11 11:42:00,72.1,69.7,28.91,WNW,292,0.0,2.2,92,0.00,,FEW,0.00,VWS V14.01,2013-06-11 16:42:00,
2013-06-11 11:43:00,72.3,69.9,28.91,West,270,2.7,2.9,92,0.00,,FEW,0.00,VWS V14.01,2013-06-11 16:43:00,
2013-06-11 11:44:00,72.7,69.6,28.91,WNW,292,2.5,3.1,90,0.00,,FEW,0.00,VWS V14.01,2013-06-11 16:44:00,
2013-06-11 11:45:00,72.9,69.8,28.91,WSW,248,1.1,2.5,90,0.00,,,0.00,VWS V14.01,2013-06-11 16:45:00,
2013-06-11 11:46:00,72.9,69.8,28.91,WNW,292,4.3,4.3,90,0.00,,FEW,0.00,VWS V14.01,2013-06-11 16:46:00,
2013-06-11 11:47:00,73.0,69.9,28.91,NW,315,2.7,4.3,90,0.00,,FEW,0.00,VWS V14.01,2013-06-11 16:47:00,
2013-06-11 11:48:00,73.0,69.9,28.91,NW,315,3.8,4.0,90,0.00,,FEW,0.00,VWS V14.01,2013-06-11 16:48:00,
2013-06-11 11:49:00,73.0,69.6,28.91,SW,225,2.9,3.8,89,0.00,,FEW,0.00,VWS V14.01,2013-06-11 16:49:00,
2013-06-11 11:50:00,73.0,69.6,28.91,West,270,2.5,2.5,89,0.00,,,0.00,VWS V14.01,2013-06-11 16:50:00,
2013-06-11 11:51:00,73.0,69.6,28.91,SW,225,3.4,3.8,89,0.00,,FEW,0.00,VWS V14.01,2013-06-11 16:51:00,
2013-06-11 11:52:00,72.9,69.1,28.97,SSW,202,3.1,3.4,88,0.00,,FEW,0.00,VWS V14.01,2013-06-11 16:52:00,
2013-06-11 11:53:00,72.9,69.1,28.97,SW,225,2.9,3.1,88,0.00,,FEW,0.00,VWS V14.01,2013-06-11 16:53:00,
2013-06-11 11:54:00,72.7,68.9,28.97,SSE,158,0.9,3.1,88,0.00,,FEW,0.00,VWS V14.01,2013-06-11 16:54:00,
2013-06-11 11:55:00,72.7,68.9,28.97,South,180,3.4,3.6,88,0.00,,,0.00,VWS V14.01,2013-06-11 16:55:00,
2013-06-11 11:57:00,72.7,68.9,28.97,South,180,2.9,3.6,88,0.00,,FEW,0.00,VWS V14.01,2013-06-11 16:57:00,
2013-06-11 11:58:00,72.3,68.6,28.97,SW,225,3.1,3.8,88,0.00,,FEW,0.00,VWS V14.01,2013-06-11 16:58:00,
2013-06-11 11:59:00,72.1,68.1,28.97,SSW,202,2.5,3.8,87,0.00,,FEW,0.00,VWS V14.01,2013-06-11 16:59:00,
2013-06-11 12:00:00,72.0,67.9,28.97,SSW,202,1.6,3.1,87,0.00,,,0.00,VWS V14.01,2013-06-11 17:00:00,
2013-06-11 12:01:00,72.0,67.9,28.97,SW,225,1.6,3.1,87,0.00,,FEW,0.00,VWS V14.01,2013-06-11 17:01:00,
2013-06-11 12:02:00,72.0,68.2,28.97,NW,315,1.6,3.6,88,0.00,,FEW,0.00,VWS V14.01,2013-06-11 17:02:00,
2013-06-11 12:03:00,72.0,68.2,28.97,SSE,158,0.0,1.6,88,0.00,,FEW,0.00,VWS V14.01,2013-06-11 17:03:00,
2013-06-11 12:04:00,72.0,68.2,28.97,South,180,0.9,2.0,88,0.00,,FEW,0.00,VWS V14.01,2013-06-11 17:04:00,
2013-06-11 12:05:00,72.0,68.2,28.97,SSW,202,2.5,2.5,88,0.00,,,0.00,VWS V14.01,2013-06-11 17:05:00,
2013-06-11 12:06:00,72.0,68.2,28.97,SSW,202,1.6,2.5,88,0.00,,FEW,0.00,VWS V14.01,2013-06-11 17:06:00,
2013-06-11 12:07:00,72.0,68.2,28.94,SSE,158,1.6,1.6,88,0.00,,FEW,0.00,VWS V14.01,2013-06-11 17:07:00,
2013-06-11 12:08:00,72.0,68.2,28.94,SSE,158,2.0,2.0,88,0.00,,FEW,0.00,VWS V14.01,2013-06-11 17:08:00,
2013-06-11 12:10:00,72.0,68.2,28.94,ESE,112,0.0,1.1,88,0.00,,,0.00,VWS V14.01,2013-06-11 17:10:00,
2013-06-11 12:11:00,72.0,68.2,28.94,SSE,158,1.1,1.1,88,0.00,,FEW,0.00,VWS V14.01,2013-06-11 17:11:00,
2013-06-11 12:12:00,72.0,68.2,28.94,ESE,112,2.2,2.7,88,0.00,,FEW,0.00,VWS V14.01,2013-06-11 17:12:00,
2013-06-11 12:13:00,71.8,68.0,28.94,NNE,22,2.2,2.2,88,0.00,,FEW,0.00,VWS V14.01,2013-06-11 17:13:00,
2013-06-11 12:14:00,71.8,68.0,28.94,ESE,112,0.9,2.2,88,0.00,,FEW,0.00,VWS V14.01,2013-06-11 17:14:00,
2013-06-11 12:15:00,71.8,68.4,28.94,SE,135,0.0,1.3,89,0.00,,,0.00,VWS V14.01,2013-06-11 17:15:00,
2013-06-11 12:16:00,71.6,68.2,28.94,ESE,112,2.7,2.7,89,0.00,,FEW,0.00,VWS V14.01,2013-06-11 17:16:00,
2013-06-11 12:17:00,71.6,68.2,28.94,East,90,0.0,2.7,89,0.00,,FEW,0.00,VWS V14.01,2013-06-11 17:17:00,
2013-06-11 12:18:00,71.6,68.2,28.94,ESE,112,0.0,0.9,89,0.00,,FEW,0.00,VWS V14.01,2013-06-11 17:18:00,
2013-06-11 12:19:00,71.6,68.2,28.94,East,90,0.0,1.6,89,0.00,,FEW,0.00,VWS V14.01,2013-06-11 17:19:00,
2013-06-11 12:20:00,71.4,68.0,28.94,SSE,158,0.0,0.0,89,0.00,,,0.00,VWS V14.01,2013-06-11 17:20:00,
2013-06-11 12:21:00,71.4,68.0,28.94,ESE,112,1.1,1.1,89,0.00,,FEW,0.00,VWS V14.01,2013-06-11 17:21:00,
2013-06-11 12:23:00,71.4,68.0,28.94,ESE,112,2.0,2.2,89,0.00,,FEW,0.00,VWS V14.01,2013-06-11 17:23:00,
2013-06-11 12:24:00,71.2,67.8,28.91,SSE,158,1.3,2.0,89,0.00,,FEW,0.00,VWS V14.01,2013-06-11 17:24:00,
2013-06-11 12:25:00,71.1,67.7,28.91,South,180,2.7,3.4,89,0.00,,,0.00,VWS V14.01,2013-06-11 17:25:00,
2013-06-11 12:26:00,71.1,67.7,28.91,SSE,158,1.6,3.4,89,0.00,,FEW,0.00,VWS V14.01,2013-06-11 17:26:00,
2013-06-11 12:27:00,70.9,67.8,28.91,SE,135,3.1,3.1,90,0.00,,FEW,0.00,VWS V14.01,2013-06-11 17:27:00,
2013-06-11 12:28:00,70.9,67.8,28.91,SSE,158,2.5,4.3,90,0.00,,FEW,0.00,VWS V14.01,2013-06-11 17:28:00,
2013-06-11 12:29:00,70.9,67.8,28.91,SSE,158,3.1,3.1,90,0.00,,FEW,0.00,VWS V14.01,2013-06-11 17:29:00,
2013-06-11 12:30:00,70.5,67.4,28.91,ESE,112,3.1,5.8,90,0.00,,,0.00,VWS V14.01,2013-06-11 17:30:00,
2013-06-11 12:31:00,70.5,67.4,28.91,ESE,112,3.1,5.8,90,0.00,,FEW,0.00,VWS V14.01,2013-06-11 17:31:00,
2013-06-11 12:32:00,70.3,67.3,28.91,SSE,158,2.0,3.1,90,0.00,,FEW,0.00,VWS V14.01,2013-06-11 17:32:00,
2013-06-11 12:33:00,70.3,67.6,28.91,SE,135,3.1,3.1,91,0.00,,FEW,0.00,VWS V14.01,2013-06-11 17:33:00,
2013-06-11 12:34:00,70.3,67.6,28.91,North,0,2.7,3.1,91,0.00,,FEW,0.00,VWS V14.01,2013-06-11 17:34:00,
2013-06-11 12:35:00,70.2,67.4,28.91,NNW,338,4.0,4.0,91,0.00,,,0.00,VWS V14.01,2013-06-11 17:35:00,
2013-06-11 12:36:00,70.2,67.4,28.91,NNW,338,4.0,4.0,91,0.00,,FEW,0.00,VWS V14.01,2013-06-11 17:36:00,
2013-06-11 12:37:00,70.2,67.4,28.91,NNE,22,2.0,4.0,91,0.00,,FEW,0.00,VWS V14.01,2013-06-11 17:37:00,
2013-06-11 12:38:00,70.2,67.7,28.91,NNE,22,2.0,2.0,92,0.00,,FEW,0.00,VWS V14.01,2013-06-11 17:38:00,
2013-06-11 12:39:00,70.3,67.9,28.91,NW,315,0.9,3.1,92,0.00,,FEW,0.00,VWS V14.01,2013-06-11 17:39:00,
2013-06-11 12:40:00,70.7,68.3,28.91,SW,225,0.0,0.0,92,0.00,,,0.00,VWS V14.01,2013-06-11 17:40:00,
2013-06-11 12:41:00,70.7,68.3,28.91,SW,225,0.0,0.0,92,0.00,,FEW,0.00,VWS V14.01,2013-06-11 17:41:00,
2013-06-11 12:42:00,70.9,68.4,28.91,SSE,158,1.3,1.6,92,0.00,,FEW,0.00,VWS V14.01,2013-06-11 17:42:00,
2013-06-11 12:43:00,71.1,68.6,28.91,SE,135,2.0,2.0,92,0.00,,FEW,0.00,VWS V14.01,2013-06-11 17:43:00,
2013-06-11 12:44:00,71.4,69.0,28.91,SSE,158,0.9,2.0,92,0.00,,FEW,0.00,VWS V14.01,2013-06-11 17:44:00,
2013-06-11 12:45:00,71.6,68.8,28.91,South,180,2.2,2.9,91,0.00,,,0.00,VWS V14.01,2013-06-11 17:45:00,
2013-06-11 12:46:00,71.8,69.0,28.91,SSE,158,2.7,2.9,91,0.00,,FEW,0.00,VWS V14.01,2013-06-11 17:46:00,
2013-06-11 12:47:00,72.0,69.2,28.91,NNW,338,0.9,2.7,91,0.00,,FEW,0.00,VWS V14.01,2013-06-11 17:47:00,
2013-06-11 12:48:00,72.0,69.2,28.91,NNW,338,0.9,0.9,91,0.00,,FEW,0.00,VWS V14.01,2013-06-11 17:48:00,
2013-06-11 12:49:00,72.3,69.6,28.91,WNW,292,1.6,1.6,91,0.00,,FEW,0.00,VWS V14.01,2013-06-11 17:49:00,
2013-06-11 12:50:00,72.7,69.9,28.91,SSE,158,1.3,1.3,91,0.00,,,0.00,VWS V14.01,2013-06-11 17:50:00,
2013-06-11 12:51:00,72.7,69.9,28.91,SW,225,0.0,1.3,91,0.00,,FEW,0.00,VWS V14.01,2013-06-11 17:51:00,
2013-06-11 12:52:00,72.7,69.6,28.91,NNW,338,2.2,2.2,90,0.00,,FEW,0.00,VWS V14.01,2013-06-11 17:52:00,
2013-06-11 12:53:00,72.7,69.6,28.91,NNW,338,2.2,2.5,90,0.00,,FEW,0.00,VWS V14.01,2013-06-11 17:53:00,
2013-06-11 12:54:00,72.5,69.4,28.91,NNW,338,3.4,3.4,90,0.00,,FEW,0.00,VWS V14.01,2013-06-11 17:54:00,
2013-06-11 12:55:00,72.5,69.4,28.91,NNW,338,2.7,3.8,90,0.00,,,0.00,VWS V14.01,2013-06-11 17:55:00,
2013-06-11 12:56:00,72.5,69.4,28.91,NNW,338,2.5,3.8,90,0.00,,FEW,0.00,VWS V14.01,2013-06-11 17:56:00,
2013-06-11 12:57:00,72.3,68.9,28.91,NW,315,1.3,2.5,89,0.00,,FEW,0.00,VWS V14.01,2013-06-11 17:57:00,
2013-06-11 12:58:00,72.3,68.9,28.91,NNW,338,2.0,2.0,89,0.00,,FEW,0.00,VWS V14.01,2013-06-11 17:58:00,
2013-06-11 12:59:00,72.5,69.1,28.91,North,0,2.5,2.5,89,0.00,,FEW,0.00,VWS V14.01,2013-06-11 17:59:00,
2013-06-11 13:00:00,72.7,69.3,28.91,NNW,338,1.3,1.3,89,0.00,,,0.00,VWS V14.01,2013-06-11 18:00:00,
2013-06-11 13:01:00,72.7,69.2,28.91,NNW,338,2.7,2.7,89,0.00,,FEW,0.00,VWS V14.01,2013-06-11 18:01:00,
2013-06-11 13:02:00,72.5,69.1,28.91,North,0,1.6,3.1,89,0.00,,FEW,0.00,VWS V14.01,2013-06-11 18:02:00,
2013-06-11 13:03:00,72.7,68.9,28.91,NNE,22,1.6,2.5,88,0.00,,FEW,0.00,VWS V14.01,2013-06-11 18:03:00,
2013-06-11 13:04:00,72.7,68.9,28.91,NNW,338,1.6,2.0,88,0.00,,FEW,0.00,VWS V14.01,2013-06-11 18:04:00,
2013-06-11 13:05:00,72.7,68.9,28.91,NW,315,0.0,1.6,88,0.00,,,0.00,VWS V14.01,2013-06-11 18:05:00,
2013-06-11 13:06:00,72.7,68.9,28.91,SE,135,0.9,1.6,88,0.00,,FEW,0.00,VWS V14.01,2013-06-11 18:06:00,
2013-06-11 13:07:00,73.0,69.3,28.91,SE,135,0.9,0.9,88,0.00,,FEW,0.00,VWS V14.01,2013-06-11 18:07:00,
2013-06-11 13:08:00,73.4,69.6,28.88,East,90,1.1,2.0,88,0.00,,FEW,0.00,VWS V14.01,2013-06-11 18:08:00,
2013-06-11 13:09:00,73.9,70.2,28.88,SSE,158,0.0,2.2,88,0.00,,FEW,0.00,VWS V14.01,2013-06-11 18:09:00,
2013-06-11 13:10:00,74.5,70.7,28.88,NW,315,2.5,2.5,88,0.00,,,0.00,VWS V14.01,2013-06-11 18:10:00,
2013-06-11 13:11:00,74.5,70.7,28.88,NNW,338,2.5,2.5,88,0.00,,FEW,0.00,VWS V14.01,2013-06-11 18:11:00,
2013-06-11 13:12:00,74.5,70.0,28.88,North,0,2.9,4.0,86,0.00,,FEW,0.00,VWS V14.01,2013-06-11 18:12:00,
2013-06-11 13:13:00,74.5,70.0,28.88,North,0,2.9,2.9,86,0.00,,FEW,0.00,VWS V14.01,2013-06-11 18:13:00,
2013-06-11 13:14:00,74.5,70.0,28.88,NW,315,1.1,2.9,86,0.00,,FEW,0.00,VWS V14.01,2013-06-11 18:14:00,
2013-06-11 13:15:00,75.7,70.9,28.88,SSW,202,1.6,1.6,85,0.00,,,0.00,VWS V14.01,2013-06-11 18:15:00,
2013-06-11 13:16:00,75.9,71.1,28.88,South,180,2.7,2.7,85,0.00,,FEW,0.00,VWS V14.01,2013-06-11 18:16:00,
2013-06-11 13:17:00,75.9,70.7,28.88,SSE,158,2.7,2.7,84,0.00,,FEW,0.00,VWS V14.01,2013-06-11 18:17:00,
2013-06-11 13:18:00,76.1,70.9,28.88,SE,135,1.6,2.7,84,0.00,,FEW,0.00,VWS V14.01,2013-06-11 18:18:00,
2013-06-11 13:19:00,76.1,70.6,28.88,ESE,112,1.6,2.0,83,0.00,,FEW,0.00,VWS V14.01,2013-06-11 18:19:00,
2013-06-11 13:20:00,76.1,70.9,28.88,West,270,1.1,1.3,84,0.00,,,0.00,VWS V14.01,2013-06-11 18:20:00,
2013-06-11 13:21:00,76.1,70.9,28.88,NW,315,0.9,1.3,84,0.00,,FEW,0.00,VWS V14.01,2013-06-11 18:21:00,
2013-06-11 13:22:00,75.9,70.4,28.88,NNW,338,2.0,2.0,83,0.00,,FEW,0.00,VWS V14.01,2013-06-11 18:22:00,
2013-06-11 13:23:00,76.1,70.6,28.88,NNE,22,0.9,2.2,83,0.00,,FEW,0.00,VWS V14.01,2013-06-11 18:23:00,
2013-06-11 13:24:00,76.3,70.4,28.88,SSE,158,2.0,2.0,82,0.00,,FEW,0.00,VWS V14.01,2013-06-11 18:24:00,
2013-06-11 13:25:00,76.8,70.9,28.88,SSE,158,0.0,0.9,82,0.00,,,0.00,VWS V14.01,2013-06-11 18:25:00,
2013-06-11 13:26:00,76.8,70.9,28.88,SSE,158,2.5,2.5,82,0.00,,FEW,0.00,VWS V14.01,2013-06-11 18:26:00,
2013-06-11 13:27:00,77.0,70.7,28.88,South,180,1.3,2.7,81,0.00,,FEW,0.00,VWS V14.01,2013-06-11 18:27:00,
2013-06-11 13:28:00,77.2,70.2,28.88,SSE,158,2.2,2.7,79,0.00,,FEW,0.00,VWS V14.01,2013-06-11 18:28:00,
2013-06-11 13:29:00,77.4,70.3,28.88,SW,225,1.3,2.2,79,0.00,,FEW,0.00,VWS V14.01,2013-06-11 18:29:00,
2013-06-11 13:30:00,77.4,70.3,28.88,WNW,292,3.6,4.3,79,0.00,,,0.00,VWS V14.01,2013-06-11 18:30:00,
2013-06-11 13:31:00,77.4,70.0,28.88,NW,315,3.6,4.3,78,0.00,,FEW,0.00,VWS V14.01,2013-06-11 18:31:00,
2013-06-11 13:32:00,77.4,70.0,28.88,NW,315,2.7,3.8,78,0.00,,FEW,0.00,VWS V14.01,2013-06-11 18:32:00,
2013-06-11 13:33:00,77.4,70.0,28.88,WNW,292,2.0,2.7,78,0.00,,FEW,0.00,VWS V14.01,2013-06-11 18:33:00,
2013-06-11 13:34:00,77.5,69.4,28.88,North,0,3.1,3.6,76,0.00,,FEW,0.00,VWS V14.01,2013-06-11 18:34:00,
2013-06-11 13:35:00,77.5,69.4,28.88,NNE,22,2.2,2.2,76,0.00,,,0.00,VWS V14.01,2013-06-11 18:35:00,
2013-06-11 13:36:00,77.5,69.4,28.88,NNE,22,1.1,2.2,76,0.00,,FEW,0.00,VWS V14.01,2013-06-11 18:36:00,
2013-06-11 13:38:00,77.5,69.8,28.94,NNW,338,2.7,3.1,77,0.00,,FEW,0.00,VWS V14.01,2013-06-11 18:38:00,
2013-06-11 13:39:00,77.5,69.4,28.94,NNW,338,2.7,2.9,76,0.00,,FEW,0.00,VWS V14.01,2013-06-11 18:39:00,
2013-06-11 13:40:00,77.7,69.6,28.94,West,270,1.1,2.7,76,0.00,,,0.00,VWS V14.01,2013-06-11 18:40:00,
2013-06-11 13:42:00,77.7,69.6,28.94,NNE,22,2.9,2.9,76,0.00,,FEW,0.00,VWS V14.01,2013-06-11 18:42:00,
2013-06-11 13:43:00,77.9,69.7,28.94,SSW,202,0.9,2.9,76,0.00,,FEW,0.00,VWS V14.01,2013-06-11 18:43:00,
2013-06-11 13:44:00,78.1,69.9,28.94,WNW,292,2.0,2.0,76,0.00,,FEW,0.00,VWS V14.01,2013-06-11 18:44:00,
2013-06-11 13:45:00,78.4,70.6,28.94,South,180,0.0,1.1,77,0.00,,,0.00,VWS V14.01,2013-06-11 18:45:00,
2013-06-11 13:46:00,78.6,70.4,28.94,WSW,248,2.0,2.0,76,0.00,,FEW,0.00,VWS V14.01,2013-06-11 18:46:00,
2013-06-11 13:47:00,78.8,70.6,28.94,North,0,3.1,3.8,76,0.00,,FEW,0.00,VWS V14.01,2013-06-11 18:47:00,
2013-06-11 13:48:00,78.6,69.6,28.94,North,0,3.6,4.7,74,0.00,,FEW,0.00,VWS V14.01,2013-06-11 18:48:00,
2013-06-11 13:49:00,78.6,69.2,28.94,NW,315,2.9,4.0,73,0.00,,FEW,0.00,VWS V14.01,2013-06-11 18:49:00,
2013-06-11 13:50:00,78.6,69.2,28.94,NNW,338,4.0,4.0,73,0.00,,,0.00,VWS V14.01,2013-06-11 18:50:00,
2013-06-11 13:51:00,78.6,69.2,28.94,NNW,338,4.9,4.9,73,0.00,,FEW,0.00,VWS V14.01,2013-06-11 18:51:00,
2013-06-11 13:52:00,77.9,68.2,28.97,NNE,22,3.6,4.9,72,0.00,,FEW,0.00,VWS V14.01,2013-06-11 18:52:00,
2013-06-11 13:53:00,77.5,67.8,28.97,NNW,338,3.6,3.6,72,0.00,,FEW,0.00,VWS V14.01,2013-06-11 18:53:00,
2013-06-11 13:54:00,77.5,68.2,28.97,WNW,292,2.5,5.4,73,0.00,,FEW,0.00,VWS V14.01,2013-06-11 18:54:00,
2013-06-11 13:55:00,77.5,69.0,28.97,NNW,338,4.0,4.0,75,0.00,,,0.00,VWS V14.01,2013-06-11 18:55:00,
2013-06-11 13:56:00,77.5,69.0,28.97,NNW,338,2.7,4.7,75,0.00,,FEW,0.00,VWS V14.01,2013-06-11 18:56:00,
2013-06-11 13:57:00,77.4,68.8,28.97,NW,315,3.4,4.0,75,0.00,,FEW,0.00,VWS V14.01,2013-06-11 18:57:00,
2013-06-11 13:58:00,77.5,69.0,28.97,NE,45,3.6,6.0,75,0.00,,FEW,0.00,VWS V14.01,2013-06-11 18:58:00,
2013-06-11 13:59:00,77.7,69.2,28.97,NNW,338,2.9,4.3,75,0.00,,FEW,0.00,VWS V14.01,2013-06-11 18:59:00,
2013-06-11 14:00:00,77.9,69.7,28.97,NNW,338,2.9,3.8,76,0.00,,,0.00,VWS V14.01,2013-06-11 19:00:00,
2013-06-11 14:01:00,78.1,69.5,28.97,NNW,338,2.2,3.8,75,0.00,,FEW,0.00,VWS V14.01,2013-06-11 19:01:00,
2013-06-11 14:02:00,78.3,69.7,28.97,NNW,338,1.6,2.9,75,0.00,,FEW,0.00,VWS V14.01,2013-06-11 19:02:00,
2013-06-11 14:03:00,78.4,70.2,28.97,WNW,292,1.3,2.5,76,0.00,,FEW,0.00,VWS V14.01,2013-06-11 19:03:00,
2013-06-11 14:04:00,78.4,69.5,28.97,North,0,3.1,3.4,74,0.00,,FEW,0.00,VWS V14.01,2013-06-11 19:04:00,
2013-06-11 14:05:00,78.4,69.9,28.97,West,270,2.5,3.6,75,0.00,,,0.00,VWS V14.01,2013-06-11 19:05:00,
2013-06-11 14:06:00,78.4,69.9,28.97,NNW,338,3.4,3.6,75,0.00,,FEW,0.00,VWS V14.01,2013-06-11 19:06:00,
2013-06-11 14:07:00,77.9,68.9,28.94,North,0,2.0,3.4,74,0.00,,FEW,0.00,VWS V14.01,2013-06-11 19:07:00,
2013-06-11 14:09:00,77.9,68.9,28.94,WNW,292,4.3,4.3,74,0.00,,FEW,0.00,VWS V14.01,2013-06-11 19:09:00,
2013-06-11 14:10:00,77.0,68.1,28.94,NNE,22,5.4,5.4,74,0.00,,,0.00,VWS V14.01,2013-06-11 19:10:00,
2013-06-11 14:11:00,76.6,68.1,28.94,North,0,3.8,5.4,75,0.00,,FEW,0.00,VWS V14.01,2013-06-11 19:11:00,
2013-06-11 14:12:00,76.5,68.0,28.94,NNW,338,4.7,5.4,75,0.00,,FEW,0.00,VWS V14.01,2013-06-11 19:12:00,
2013-06-11 14:13:00,76.3,68.2,28.94,North,0,2.5,4.7,76,0.00,,FEW,0.00,VWS V14.01,2013-06-11 19:13:00,
2013-06-11 14:14:00,76.3,68.2,28.94,WNW,292,2.9,3.8,76,0.00,,FEW,0.00,VWS V14.01,2013-06-11 19:14:00,
2013-06-11 14:15:00,75.9,67.8,28.94,NW,315,2.5,2.9,76,0.00,,,0.00,VWS V14.01,2013-06-11 19:15:00,
2013-06-11 14:17:00,75.9,67.8,28.94,NW,315,0.9,2.9,76,0.00,,FEW,0.00,VWS V14.01,2013-06-11 19:17:00,
2013-06-11 14:18:00,75.7,68.0,28.94,NNW,338,3.4,3.4,77,0.00,,FEW,0.00,VWS V14.01,2013-06-11 19:18:00,
2013-06-11 14:19:00,75.7,68.0,28.94,North,0,3.1,3.4,77,0.00,,FEW,0.00,VWS V14.01,2013-06-11 19:19:00,
2013-06-11 14:20:00,75.4,67.7,28.94,NNW,338,2.2,2.9,77,0.00,,,0.00,VWS V14.01,2013-06-11 19:20:00,
2013-06-11 14:21:00,75.4,67.7,28.94,North,0,1.3,2.9,77,0.00,,FEW,0.00,VWS V14.01,2013-06-11 19:21:00,
2013-06-11 14:22:00,75.2,67.9,28.94,North,0,2.7,3.4,78,0.00,,FEW,0.00,VWS V14.01,2013-06-11 19:22:00,
2013-06-11 14:23:00,75.2,67.9,28.94,NNW,338,1.6,3.1,78,0.00,,FEW,0.00,VWS V14.01,2013-06-11 19:23:00,
2013-06-11 14:24:00,75.2,67.9,28.94,NNW,338,0.0,1.6,78,0.00,,FEW,0.00,VWS V14.01,2013-06-11 19:24:00,
2013-06-11 14:25:00,75.0,68.1,28.94,NNW,338,3.1,3.1,79,0.00,,,0.00,VWS V14.01,2013-06-11 19:25:00,
2013-06-11 14:26:00,75.0,68.1,28.94,NNW,338,2.2,3.1,79,0.00,,FEW,0.00,VWS V14.01,2013-06-11 19:26:00,
2013-06-11 14:27:00,75.2,67.9,28.94,NNE,22,2.9,2.9,78,0.00,,FEW,0.00,VWS V14.01,2013-06-11 19:27:00,
2013-06-11 14:28:00,75.2,67.9,28.94,NNE,22,0.0,3.4,78,0.00,,FEW,0.00,VWS V14.01,2013-06-11 19:28:00,
2013-06-11 14:29:00,75.4,68.1,28.94,ENE,68,1.1,1.6,78,0.00,,FEW,0.00,VWS V14.01,2013-06-11 19:29:00,
2013-06-11 14:30:00,75.7,68.4,28.94,NNW,338,2.9,2.9,78,0.00,,,0.00,VWS V14.01,2013-06-11 19:30:00,
2013-06-11 14:31:00,75.9,68.9,28.94,NW,315,0.9,2.9,79,0.00,,FEW,0.00,VWS V14.01,2013-06-11 19:31:00,
2013-06-11 14:32:00,75.9,68.9,28.94,NNE,22,1.3,1.3,79,0.00,,FEW,0.00,VWS V14.01,2013-06-11 19:32:00,
2013-06-11 14:33:00,75.9,68.9,28.94,North,0,2.0,3.4,79,0.00,,FEW,0.00,VWS V14.01,2013-06-11 19:33:00,
2013-06-11 14:34:00,76.5,69.1,28.94,North,0,0.0,2.0,78,0.00,,FEW,0.00,VWS V14.01,2013-06-11 19:34:00,
2013-06-11 14:35:00,77.4,70.0,28.94,SE,135,0.0,0.0,78,0.00,,,0.00,VWS V14.01,2013-06-11 19:35:00,
2013-06-11 14:36:00,77.4,70.0,28.94,ESE,112,1.1,1.1,78,0.00,,FEW,0.00,VWS V14.01,2013-06-11 19:36:00,
2013-06-11 14:37:00,78.3,70.8,28.91,SSE,158,2.0,2.0,78,0.00,,FEW,0.00,VWS V14.01,2013-06-11 19:37:00,
2013-06-11 14:38:00,79.9,72.0,28.91,SE,135,2.0,2.2,77,0.00,,FEW,0.00,VWS V14.01,2013-06-11 19:38:00,
2013-06-11 14:39:00,79.9,71.2,28.91,SW,225,0.9,2.5,75,0.00,,FEW,0.00,VWS V14.01,2013-06-11 19:39:00,
2013-06-11 14:40:00,80.1,71.4,28.91,NNE,22,1.3,1.3,75,0.00,,,0.00,VWS V14.01,2013-06-11 19:40:00,
2013-06-11 14:41:00,80.1,71.4,28.91,West,270,2.0,2.0,75,0.00,,FEW,0.00,VWS V14.01,2013-06-11 19:41:00,
2013-06-11 14:42:00,80.1,71.4,28.91,West,270,2.0,2.0,75,0.00,,FEW,0.00,VWS V14.01,2013-06-11 19:42:00,
2013-06-11 14:43:00,79.9,70.9,28.91,East,90,1.1,2.0,74,0.00,,FEW,0.00,VWS V14.01,2013-06-11 19:43:00,
2013-06-11 14:44:00,80.1,71.4,28.91,North,0,1.3,2.7,75,0.00,,FEW,0.00,VWS V14.01,2013-06-11 19:44:00,
2013-06-11 14:45:00,80.6,71.2,28.91,East,90,0.9,1.3,73,0.00,,,0.00,VWS V14.01,2013-06-11 19:45:00,
2013-06-11 14:46:00,80.6,71.2,28.91,SSE,158,1.1,1.3,73,0.00,,FEW,0.00,VWS V14.01,2013-06-11 19:46:00,
2013-06-11 14:47:00,81.0,71.5,28.91,NNE,22,1.3,2.0,73,0.00,,FEW,0.00,VWS V14.01,2013-06-11 19:47:00,
2013-06-11 14:48:00,81.7,71.8,28.91,NE,45,1.6,1.6,72,0.00,,FEW,0.00,VWS V14.01,2013-06-11 19:48:00,
2013-06-11 14:49:00,81.7,71.4,28.91,SSE,158,1.6,3.1,71,0.00,,FEW,0.00,VWS V14.01,2013-06-11 19:49:00,
2013-06-11 14:50:00,81.5,70.4,28.91,WSW,248,2.2,2.7,69,0.00,,,0.00,VWS V14.01,2013-06-11 19:50:00,
2013-06-11 14:51:00,81.5,70.4,28.91,SE,135,2.5,2.7,69,0.00,,FEW,0.00,VWS V14.01,2013-06-11 19:51:00,
2013-06-11 14:52:00,80.8,69.2,28.88,ENE,68,1.6,2.5,68,0.00,,FEW,0.00,VWS V14.01,2013-06-11 19:52:00,
2013-06-11 14:53:00,80.6,69.5,28.88,South,180,1.1,2.7,69,0.00,,FEW,0.00,VWS V14.01,2013-06-11 19:53:00,
2013-06-11 14:54:00,80.6,69.9,28.88,NNW,338,2.0,2.0,70,0.00,,FEW,0.00,VWS V14.01,2013-06-11 19:54:00,
2013-06-11 14:55:00,80.8,70.1,28.88,NE,45,0.9,2.0,70,0.00,,,0.00,VWS V14.01,2013-06-11 19:55:00,
2013-06-11 14:56:00,81.0,69.8,28.88,SSW,202,0.0,2.0,69,0.00,,FEW,0.00,VWS V14.01,2013-06-11 19:56:00,
2013-06-11 14:57:00,80.8,70.1,28.88,North,0,2.5,2.5,70,0.00,,FEW,0.00,VWS V14.01,2013-06-11 19:57:00,
2013-06-11 14:58:00,80.6,69.1,28.88,North,0,2.0,2.5,68,0.00,,FEW,0.00,VWS V14.01,2013-06-11 19:58:00,
2013-06-11 14:59:00,80.6,69.5,28.88,NNW,338,2.0,2.7,69,0.00,,FEW,0.00,VWS V14.01,2013-06-11 19:59:00,
2013-06-11 15:00:00,81.1,70.0,28.88,ENE,68,0.0,0.0,69,0.00,,,0.00,VWS V14.01,2013-06-11 20:00:00,
2013-06-11 15:01:00,82.2,71.0,28.88,ENE,68,0.0,0.0,69,0.00,,FEW,0.00,VWS V14.01,2013-06-11 20:01:00,
2013-06-11 15:02:00,82.9,72.2,28.88,ENE,68,0.0,0.0,70,0.00,,FEW,0.00,VWS V14.01,2013-06-11 20:02:00,
2013-06-11 15:03:00,83.1,72.3,28.88,ENE,68,0.0,0.9,70,0.00,,FEW,0.00,VWS V14.01,2013-06-11 20:03:00,
2013-06-11 15:04:00,82.8,70.7,28.88,NNE,22,2.7,3.4,67,0.00,,FEW,0.00,VWS V14.01,2013-06-11 20:04:00,
2013-06-11 15:05:00,82.4,69.9,28.88,ENE,68,3.8,3.8,66,0.00,,,0.00,VWS V14.01,2013-06-11 20:05:00,
2013-06-11 15:06:00,82.4,69.9,28.88,NE,45,1.3,3.8,66,0.00,,FEW,0.00,VWS V14.01,2013-06-11 20:06:00,
2013-06-11 15:07:00,82.0,69.6,28.91,NNW,338,1.6,2.7,66,0.00,,FEW,0.00,VWS V14.01,2013-06-11 20:07:00,
2013-06-11 15:08:00,81.3,68.9,28.91,SSW,202,1.3,2.0,66,0.00,,FEW,0.00,VWS V14.01,2013-06-11 20:08:00,
2013-06-11 15:09:00,81.1,69.2,28.91,NNW,338,1.3,2.7,67,0.00,,FEW,0.00,VWS V14.01,2013-06-11 20:09:00,
2013-06-11 15:10:00,80.6,68.2,28.91,NNW,338,3.6,4.0,66,0.00,,,0.00,VWS V14.01,2013-06-11 20:10:00,
2013-06-11 15:11:00,79.7,67.3,28.91,North,0,4.0,4.3,66,0.00,,FEW,0.00,VWS V14.01,2013-06-11 20:11:00,
2013-06-11 15:12:00,79.5,67.2,28.91,NNW,338,3.8,4.0,66,0.00,,FEW,0.00,VWS V14.01,2013-06-11 20:12:00,
2013-06-11 15:14:00,79.2,67.3,28.91,North,0,2.9,4.9,67,0.00,,FEW,0.00,VWS V14.01,2013-06-11 20:14:00,
2013-06-11 15:15:00,78.8,67.4,28.91,NNW,338,1.6,2.9,68,0.00,,,0.00,VWS V14.01,2013-06-11 20:15:00,
2013-06-11 15:16:00,78.8,67.8,28.91,NW,315,0.9,2.9,69,0.00,,FEW,0.00,VWS V14.01,2013-06-11 20:16:00,
2013-06-11 15:17:00,79.0,67.9,28.91,NNE,22,2.5,2.5,69,0.00,,FEW,0.00,VWS V14.01,2013-06-11 20:17:00,
2013-06-11 15:18:00,79.9,68.8,28.91,NNW,338,0.0,2.9,69,0.00,,FEW,0.00,VWS V14.01,2013-06-11 20:18:00,
2013-06-11 15:19:00,80.4,69.8,28.91,NNE,22,1.1,1.1,70,0.00,,FEW,0.00,VWS V14.01,2013-06-11 20:19:00,
2013-06-11 15:20:00,80.8,69.2,28.91,SSW,202,2.0,2.0,68,0.00,,,0.00,VWS V14.01,2013-06-11 20:20:00,
2013-06-11 15:21:00,80.8,69.2,28.91,East,90,2.0,2.2,68,0.00,,FEW,0.00,VWS V14.01,2013-06-11 20:21:00,
2013-06-11 15:22:00,80.8,69.2,28.88,West,270,1.3,3.8,68,0.00,,FEW,0.00,VWS V14.01,2013-06-11 20:22:00,
2013-06-11 15:23:00,80.6,69.1,28.88,NNW,338,1.1,1.3,68,0.00,,FEW,0.00,VWS V14.01,2013-06-11 20:23:00,
2013-06-11 15:24:00,80.4,68.9,28.88,East,90,2.5,3.1,68,0.00,,FEW,0.00,VWS V14.01,2013-06-11 20:24:00,
2013-06-11 15:25:00,80.4,68.9,28.88,NNE,22,2.7,2.7,68,0.00,,,0.00,VWS V14.01,2013-06-11 20:25:00,
2013-06-11 15:26:00,80.4,68.9,28.88,North,0,2.0,2.7,68,0.00,,FEW,0.00,VWS V14.01,2013-06-11 20:26:00,
2013-06-11 15:27:00,80.4,68.9,28.88,NNW,338,3.6,3.6,68,0.00,,FEW,0.00,VWS V14.01,2013-06-11 20:27:00,
2013-06-11 15:28:00,80.8,68.8,28.88,NNW,338,4.9,4.9,67,0.00,,FEW,0.00,VWS V14.01,2013-06-11 20:28:00,
2013-06-11 15:29:00,80.8,68.8,28.88,NNE,22,6.5,6.5,67,0.00,,FEW,0.00,VWS V14.01,2013-06-11 20:29:00,
2013-06-11 15:30:00,80.4,68.5,28.88,East,90,2.7,6.5,67,0.00,,,0.00,VWS V14.01,2013-06-11 20:30:00,
2013-06-11 15:31:00,81.1,69.2,28.88,North,0,0.9,0.9,67,0.00,,FEW,0.00,VWS V14.01,2013-06-11 20:31:00,
2013-06-11 15:32:00,81.7,69.7,28.88,WNW,292,2.0,3.1,67,0.00,,FEW,0.00,VWS V14.01,2013-06-11 20:32:00,
2013-06-11 15:33:00,82.2,70.2,28.88,NNE,22,0.9,2.7,67,0.00,,FEW,0.00,VWS V14.01,2013-06-11 20:33:00,
2013-06-11 15:34:00,82.8,70.7,28.88,WNW,292,1.6,2.5,67,0.00,,FEW,0.00,VWS V14.01,2013-06-11 20:34:00,
2013-06-11 15:35:00,84.0,71.9,28.88,ENE,68,2.2,2.2,67,0.00,,,0.00,VWS V14.01,2013-06-11 20:35:00,
2013-06-11 15:36:00,84.0,71.9,28.88,NNE,22,1.3,2.2,67,0.00,,FEW,0.00,VWS V14.01,2013-06-11 20:36:00,
2013-06-11 15:37:00,84.4,71.3,28.88,WSW,248,2.2,3.4,65,0.00,,FEW,0.00,VWS V14.01,2013-06-11 20:37:00,
2013-06-11 15:38:00,84.9,71.4,28.88,ENE,68,1.6,3.1,64,0.00,,FEW,0.00,VWS V14.01,2013-06-11 20:38:00,
2013-06-11 15:39:00,85.5,71.9,28.88,SSE,158,2.2,2.2,64,0.00,,FEW,0.00,VWS V14.01,2013-06-11 20:39:00,
2013-06-11 15:40:00,86.0,72.9,28.88,NW,315,3.1,3.1,65,0.00,,,0.00,VWS V14.01,2013-06-11 20:40:00,
2013-06-11 15:41:00,86.0,72.4,28.88,WNW,292,1.3,3.1,64,0.00,,FEW,0.00,VWS V14.01,2013-06-11 20:41:00,
2013-06-11 15:42:00,86.0,72.4,28.88,ENE,68,5.6,5.6,64,0.00,,FEW,0.00,VWS V14.01,2013-06-11 20:42:00,
2013-06-11 15:43:00,86.0,70.5,28.88,NNE,22,2.7,5.6,60,0.00,,FEW,0.00,VWS V14.01,2013-06-11 20:43:00,
2013-06-11 15:44:00,86.4,71.3,28.88,East,90,3.1,3.1,61,0.00,,FEW,0.00,VWS V14.01,2013-06-11 20:44:00,
2013-06-11 15:45:00,86.2,70.2,28.88,NE,45,2.7,4.9,59,0.00,,,0.00,VWS V14.01,2013-06-11 20:45:00,
2013-06-11 15:46:00,86.7,71.2,28.88,SE,135,1.3,1.3,60,0.00,,FEW,0.00,VWS V14.01,2013-06-11 20:46:00,
2013-06-11 15:47:00,86.9,71.8,28.88,WNW,292,0.0,2.0,61,0.00,,FEW,0.00,VWS V14.01,2013-06-11 20:47:00,
2013-06-11 15:48:00,86.0,70.5,28.88,North,0,2.5,2.9,60,0.00,,FEW,0.00,VWS V14.01,2013-06-11 20:48:00,
2013-06-11 15:49:00,86.0,70.5,28.88,SSW,202,1.1,2.5,60,0.00,,FEW,0.00,VWS V14.01,2013-06-11 20:49:00,
2013-06-11 15:50:00,85.1,69.7,28.88,ENE,68,1.3,1.3,60,0.00,,,0.00,VWS V14.01,2013-06-11 20:50:00,
2013-06-11 15:51:00,85.1,69.7,28.88,SSE,158,1.6,2.0,60,0.00,,FEW,0.00,VWS V14.01,2013-06-11 20:51:00,
2013-06-11 15:52:00,84.9,69.0,28.85,SE,135,2.2,3.1,59,0.00,,FEW,0.00,VWS V14.01,2013-06-11 20:52:00,
2013-06-11 15:53:00,84.4,68.5,28.85,SSE,158,3.6,3.8,59,0.00,,FEW,0.00,VWS V14.01,2013-06-11 20:53:00,
2013-06-11 15:54:00,83.7,67.8,28.85,SSE,158,1.6,3.6,59,0.00,,FEW,0.00,VWS V14.01,2013-06-11 20:54:00,
2013-06-11 15:55:00,83.7,67.8,28.85,ESE,112,2.2,2.2,59,0.00,,,0.00,VWS V14.01,2013-06-11 20:55:00,
2013-06-11 15:57:00,82.8,67.5,28.85,SE,135,2.0,2.2,60,0.00,,FEW,0.00,VWS V14.01,2013-06-11 20:57:00,
2013-06-11 15:58:00,82.2,67.4,28.85,East,90,1.3,2.0,61,0.00,,FEW,0.00,VWS V14.01,2013-06-11 20:58:00,
2013-06-11 15:59:00,82.2,67.4,28.85,NNW,338,0.9,2.2,61,0.00,,FEW,0.00,VWS V14.01,2013-06-11 20:59:00,
2013-06-11 16:00:00,82.0,67.8,28.85,NNW,338,2.5,2.5,62,0.00,,,0.00,VWS V14.01,2013-06-11 21:00:00,
2013-06-11 16:01:00,81.7,67.4,28.85,North,0,3.8,3.8,62,0.00,,FEW,0.00,VWS V14.01,2013-06-11 21:01:00,
2013-06-11 16:02:00,81.7,67.4,28.85,NNE,22,3.6,3.8,62,0.00,,FEW,0.00,VWS V14.01,2013-06-11 21:02:00,
2013-06-11 16:03:00,81.5,67.7,28.85,NNW,338,3.4,4.0,63,0.00,,FEW,0.00,VWS V14.01,2013-06-11 21:03:00,
2013-06-11 16:04:00,81.5,67.2,28.85,North,0,3.6,3.6,62,0.00,,FEW,0.00,VWS V14.01,2013-06-11 21:04:00,
2013-06-11 16:05:00,81.1,67.4,28.85,North,0,1.6,1.6,63,0.00,,,0.00,VWS V14.01,2013-06-11 21:05:00,
2013-06-11 16:06:00,81.1,67.4,28.85,NNW,338,3.8,3.8,63,0.00,,FEW,0.00,VWS V14.01,2013-06-11 21:06:00,
2013-06-11 16:08:00,81.0,66.7,28.94,NW,315,1.1,3.8,62,0.00,,FEW,0.00,VWS V14.01,2013-06-11 21:08:00,
2013-06-11 16:09:00,80.4,67.1,28.94,NNE,22,2.0,2.5,64,0.00,,FEW,0.00,VWS V14.01,2013-06-11 21:09:00,
2013-06-11 16:10:00,80.2,67.0,28.94,North,0,1.1,2.5,64,0.00,,,0.00,VWS V14.01,2013-06-11 21:10:00,
2013-06-11 16:11:00,80.2,67.0,28.94,North,0,1.1,2.5,64,0.00,,FEW,0.00,VWS V14.01,2013-06-11 21:11:00,
2013-06-11 16:12:00,80.1,67.2,28.94,ESE,112,1.1,1.1,65,0.00,,FEW,0.00,VWS V14.01,2013-06-11 21:12:00,
2013-06-11 16:13:00,80.1,67.2,28.94,ESE,112,0.0,1.1,65,0.00,,FEW,0.00,VWS V14.01,2013-06-11 21:13:00,
2013-06-11 16:14:00,79.9,67.1,28.94,ESE,112,3.8,3.8,65,0.00,,FEW,0.00,VWS V14.01,2013-06-11 21:14:00,
2013-06-11 16:15:00,79.3,66.6,28.94,NNE,22,2.7,2.7,65,0.00,,,0.00,VWS V14.01,2013-06-11 21:15:00,
2013-06-11 16:16:00,79.2,66.8,28.94,NNW,338,3.1,3.1,66,0.00,,FEW,0.00,VWS V14.01,2013-06-11 21:16:00,
2013-06-11 16:17:00,79.0,66.7,28.94,NNW,338,2.5,3.1,66,0.00,,FEW,0.00,VWS V14.01,2013-06-11 21:17:00,
2013-06-11 16:18:00,78.6,66.8,28.94,NNW,338,1.6,2.7,67,0.00,,FEW,0.00,VWS V14.01,2013-06-11 21:18:00,
2013-06-11 16:19:00,78.6,66.8,28.94,NNE,22,2.7,4.7,67,0.00,,FEW,0.00,VWS V14.01,2013-06-11 21:19:00,
2013-06-11 16:20:00,78.3,66.8,28.94,NNE,22,2.9,4.0,68,0.00,,,0.00,VWS V14.01,2013-06-11 21:20:00,
2013-06-11 16:21:00,78.3,66.8,28.94,NNE,22,2.9,4.0,68,0.00,,FEW,0.00,VWS V14.01,2013-06-11 21:21:00,
2013-06-11 16:22:00,78.3,66.8,28.94,NNW,338,2.5,2.9,68,0.00,,FEW,0.00,VWS V14.01,2013-06-11 21:22:00,
2013-06-11 16:23:00,77.5,66.6,28.91,North,0,3.4,4.0,69,0.00,,FEW,0.00,VWS V14.01,2013-06-11 21:23:00,
2013-06-11 16:25:00,77.4,66.8,28.91,NNW,338,5.4,5.4,70,0.00,,,0.00,VWS V14.01,2013-06-11 21:25:00,
2013-06-11 16:26:00,77.2,66.7,28.91,NNW,338,4.9,5.8,70,0.00,,FEW,0.00,VWS V14.01,2013-06-11 21:26:00,
2013-06-11 16:27:00,77.2,67.1,28.91,North,0,1.3,4.9,71,0.00,,FEW,0.00,VWS V14.01,2013-06-11 21:27:00,
2013-06-11 16:28:00,77.4,67.2,28.91,WSW,248,1.1,4.0,71,0.00,,FEW,0.00,VWS V14.01,2013-06-11 21:28:00,
2013-06-11 16:29:00,77.5,67.0,28.91,NNW,338,2.9,2.9,70,0.00,,FEW,0.00,VWS V14.01,2013-06-11 21:29:00,
2013-06-11 16:30:00,77.9,67.3,28.91,North,0,2.7,3.1,70,0.00,,,0.00,VWS V14.01,2013-06-11 21:30:00,
2013-06-11 16:31:00,77.9,67.3,28.91,NNW,338,3.1,3.6,70,0.00,,FEW,0.00,VWS V14.01,2013-06-11 21:31:00,
2013-06-11 16:32:00,77.9,67.3,28.91,North,0,2.9,3.1,70,0.00,,FEW,0.00,VWS V14.01,2013-06-11 21:32:00,
2013-06-11 16:33:00,77.9,67.3,28.91,North,0,2.7,3.1,70,0.00,,FEW,0.00,VWS V14.01,2013-06-11 21:33:00,
2013-06-11 16:34:00,77.7,67.6,28.91,NNW,338,2.9,5.4,71,0.00,,FEW,0.00,VWS V14.01,2013-06-11 21:34:00,
2013-06-11 16:35:00,77.7,67.6,28.91,NNE,22,2.7,2.9,71,0.00,,,0.00,VWS V14.01,2013-06-11 21:35:00,
2013-06-11 16:36:00,77.5,67.4,28.91,NNW,338,3.8,3.8,71,0.00,,FEW,0.00,VWS V14.01,2013-06-11 21:36:00,
2013-06-11 16:37:00,77.4,67.2,28.94,North,0,6.0,6.3,71,0.00,,FEW,0.00,VWS V14.01,2013-06-11 21:37:00,
2013-06-11 16:38:00,77.2,67.1,28.94,NNE,22,4.0,6.0,71,0.00,,FEW,0.00,VWS V14.01,2013-06-11 21:38:00,
2013-06-11 16:39:00,76.8,66.7,28.94,NNE,22,3.6,4.9,71,0.00,,FEW,0.00,VWS V14.01,2013-06-11 21:39:00,
2013-06-11 16:40:00,76.8,66.7,28.94,WSW,248,1.1,3.1,71,0.00,,,0.00,VWS V14.01,2013-06-11 21:40:00,
2013-06-11 16:41:00,76.8,67.5,28.94,NNE,22,0.9,3.1,73,0.00,,FEW,0.00,VWS V14.01,2013-06-11 21:41:00,
2013-06-11 16:42:00,76.8,67.1,28.94,North,0,2.9,2.9,72,0.00,,FEW,0.00,VWS V14.01,2013-06-11 21:42:00,
2013-06-11 16:43:00,76.8,67.1,28.94,North,0,1.3,2.9,72,0.00,,FEW,0.00,VWS V14.01,2013-06-11 21:43:00,
2013-06-11 16:44:00,76.8,67.1,28.94,NNW,338,2.7,2.7,72,0.00,,FEW,0.00,VWS V14.01,2013-06-11 21:44:00,
2013-06-11 16:45:00,76.8,67.1,28.94,NNE,22,2.2,3.1,72,0.00,,,0.00,VWS V14.01,2013-06-11 21:45:00,
2013-06-11 16:46:00,76.8,67.1,28.94,North,0,1.6,3.1,72,0.00,,FEW,0.00,VWS V14.01,2013-06-11 21:46:00,
2013-06-11 16:47:00,77.0,67.3,28.94,NW,315,2.0,2.0,72,0.00,,FEW,0.00,VWS V14.01,2013-06-11 21:47:00,
2013-06-11 16:48:00,77.2,67.5,28.94,NNE,22,2.0,2.0,72,0.00,,FEW,0.00,VWS V14.01,2013-06-11 21:48:00,
2013-06-11 16:49:00,77.4,67.6,28.94,NNE,22,2.5,2.5,72,0.00,,FEW,0.00,VWS V14.01,2013-06-11 21:49:00,
2013-06-11 16:50:00,77.4,67.6,28.94,NNE,22,0.9,1.3,72,0.00,,,0.00,VWS V14.01,2013-06-11 21:50:00,
2013-06-11 16:51:00,77.5,67.8,28.94,NE,45,1.3,2.2,72,0.00,,FEW,0.00,VWS V14.01,2013-06-11 21:51:00,
2013-06-11 16:52:00,77.7,67.6,28.91,North,0,1.3,2.0,71,0.00,,FEW,0.00,VWS V14.01,2013-06-11 21:52:00,
2013-06-11 16:53:00,77.9,67.8,28.91,NNW,338,1.3,1.3,71,0.00,,FEW,0.00,VWS V14.01,2013-06-11 21:53:00,
2013-06-11 16:54:00,78.6,68.4,28.91,NNW,338,2.5,2.7,71,0.00,,FEW,0.00,VWS V14.01,2013-06-11 21:54:00,
2013-06-11 16:55:00,79.0,68.4,28.91,North,0,4.0,4.0,70,0.00,,,0.00,VWS V14.01,2013-06-11 21:55:00,
2013-06-11 16:56:00,79.0,68.4,28.91,North,0,3.4,4.7,70,0.00,,FEW,0.00,VWS V14.01,2013-06-11 21:56:00,
2013-06-11 16:57:00,79.0,67.9,28.91,North,0,3.6,3.6,69,0.00,,FEW,0.00,VWS V14.01,2013-06-11 21:57:00,
2013-06-11 16:58:00,79.3,67.9,28.91,NNW,338,2.7,3.6,68,0.00,,FEW,0.00,VWS V14.01,2013-06-11 21:58:00,
2013-06-11 16:59:00,79.7,68.2,28.91,NNE,22,2.0,3.4,68,0.00,,FEW,0.00,VWS V14.01,2013-06-11 21:59:00,
2013-06-11 17:00:00,80.4,69.3,28.91,NE,45,1.6,2.0,69,0.00,,,0.00,VWS V14.01,2013-06-11 22:00:00,
2013-06-11 17:01:00,80.4,69.3,28.91,NNW,338,0.0,2.0,69,0.00,,FEW,0.00,VWS V14.01,2013-06-11 22:01:00,
2013-06-11 17:02:00,80.4,68.5,28.91,NNW,338,2.5,3.4,67,0.00,,FEW,0.00,VWS V14.01,2013-06-11 22:02:00,
2013-06-11 17:04:00,80.6,68.6,28.91,WNW,292,0.9,2.5,67,0.00,,FEW,0.00,VWS V14.01,2013-06-11 22:04:00,
2013-06-11 17:05:00,80.8,68.4,28.91,NNW,338,0.0,1.3,66,0.00,,,0.00,VWS V14.01,2013-06-11 22:05:00,
2013-06-11 17:06:00,80.8,68.8,28.91,NNW,338,0.0,1.3,67,0.00,,FEW,0.00,VWS V14.01,2013-06-11 22:06:00,
2013-06-11 17:07:00,81.1,69.2,28.88,NNW,338,0.0,0.9,67,0.00,,FEW,0.00,VWS V14.01,2013-06-11 22:07:00,
2013-06-11 17:08:00,81.3,69.3,28.88,NNW,338,1.3,1.3,67,0.00,,FEW,0.00,VWS V14.01,2013-06-11 22:08:00,
2013-06-11 17:09:00,81.1,67.8,28.88,North,0,3.6,3.8,64,0.00,,FEW,0.00,VWS V14.01,2013-06-11 22:09:00,
2013-06-11 17:10:00,81.1,67.8,28.88,NNW,338,1.6,2.5,64,0.00,,,0.00,VWS V14.01,2013-06-11 22:10:00,
2013-06-11 17:11:00,81.1,68.3,28.88,NW,315,2.0,2.5,65,0.00,,FEW,0.00,VWS V14.01,2013-06-11 22:11:00,
2013-06-11 17:12:00,81.1,68.3,28.88,NNW,338,2.5,2.5,65,0.00,,FEW,0.00,VWS V14.01,2013-06-11 22:12:00,
2013-06-11 17:13:00,81.1,68.3,28.88,NNE,22,2.0,2.5,65,0.00,,FEW,0.00,VWS V14.01,2013-06-11 22:13:00,
2013-06-11 17:14:00,81.0,67.7,28.88,North,0,0.9,2.5,64,0.00,,FEW,0.00,VWS V14.01,2013-06-11 22:14:00,
2013-06-11 17:15:00,80.6,66.8,28.88,North,0,1.3,2.5,63,0.00,,,0.00,VWS V14.01,2013-06-11 22:15:00,
2013-06-11 17:16:00,80.6,66.8,28.88,NW,315,1.3,2.5,63,0.00,,FEW,0.00,VWS V14.01,2013-06-11 22:16:00,
2013-06-11 17:17:00,80.8,67.0,28.88,NNE,22,0.0,1.6,63,0.00,,FEW,0.00,VWS V14.01,2013-06-11 22:17:00,
2013-06-11 17:18:00,80.8,67.0,28.88,NNE,22,2.7,2.7,63,0.00,,FEW,0.00,VWS V14.01,2013-06-11 22:18:00,
2013-06-11 17:19:00,81.3,67.5,28.88,NNE,22,0.0,2.7,63,0.00,,FEW,0.00,VWS V14.01,2013-06-11 22:19:00,
2013-06-11 17:20:00,81.5,67.7,28.88,NNE,22,3.4,3.4,63,0.00,,,0.00,VWS V14.01,2013-06-11 22:20:00,
2013-06-11 17:21:00,81.3,67.1,28.88,NNW,338,2.0,3.4,62,0.00,,FEW,0.00,VWS V14.01,2013-06-11 22:21:00,
2013-06-11 17:22:00,81.3,67.1,28.91,NNW,338,2.0,2.0,62,0.00,,FEW,0.00,VWS V14.01,2013-06-11 22:22:00,
2013-06-11 17:23:00,81.3,67.1,28.91,WSW,248,0.0,2.0,62,0.00,,FEW,0.00,VWS V14.01,2013-06-11 22:23:00,
2013-06-11 17:24:00,81.1,66.9,28.91,East,90,0.0,1.1,62,0.00,,FEW,0.00,VWS V14.01,2013-06-11 22:24:00,
2013-06-11 17:25:00,81.3,67.5,28.91,NW,315,0.0,1.1,63,0.00,,,0.00,VWS V14.01,2013-06-11 22:25:00,
2013-06-11 17:26:00,81.3,67.5,28.91,WSW,248,0.0,1.1,63,0.00,,FEW,0.00,VWS V14.01,2013-06-11 22:26:00,
2013-06-11 17:27:00,81.3,67.5,28.91,WNW,292,0.0,0.0,63,0.00,,FEW,0.00,VWS V14.01,2013-06-11 22:27:00,
2013-06-11 17:28:00,81.3,67.5,28.91,West,270,0.0,0.9,63,0.00,,FEW,0.00,VWS V14.01,2013-06-11 22:28:00,
2013-06-11 17:29:00,81.3,67.5,28.91,SSE,158,2.5,2.5,63,0.00,,FEW,0.00,VWS V14.01,2013-06-11 22:29:00,
2013-06-11 17:30:00,81.5,67.7,28.91,SSE,158,3.6,4.0,63,0.00,,,0.00,VWS V14.01,2013-06-11 22:30:00,
2013-06-11 17:31:00,81.5,67.7,28.91,SSE,158,1.1,4.0,63,0.00,,FEW,0.00,VWS V14.01,2013-06-11 22:31:00,
2013-06-11 17:32:00,81.3,67.1,28.91,SSW,202,2.7,3.4,62,0.00,,FEW,0.00,VWS V14.01,2013-06-11 22:32:00,
2013-06-11 17:33:00,81.3,67.1,28.91,South,180,2.0,3.1,62,0.00,,FEW,0.00,VWS V14.01,2013-06-11 22:33:00,
2013-06-11 17:34:00,81.5,67.2,28.91,South,180,1.6,2.2,62,0.00,,FEW,0.00,VWS V14.01,2013-06-11 22:34:00,
2013-06-11 17:35:00,81.9,68.0,28.91,SSE,158,2.7,2.7,63,0.00,,,0.00,VWS V14.01,2013-06-11 22:35:00,
2013-06-11 17:36:00,82.2,68.4,28.91,SE,135,2.7,2.7,63,0.00,,FEW,0.00,VWS V14.01,2013-06-11 22:36:00,
2013-06-11 17:37:00,82.6,68.2,28.91,SSW,202,2.0,2.9,62,0.00,,FEW,0.00,VWS V14.01,2013-06-11 22:37:00,
2013-06-11 17:38:00,82.9,68.6,28.91,SSE,158,2.5,2.5,62,0.00,,FEW,0.00,VWS V14.01,2013-06-11 22:38:00,
2013-06-11 17:39:00,82.9,68.1,28.91,SSE,158,2.7,3.8,61,0.00,,FEW,0.00,VWS V14.01,2013-06-11 22:39:00,
2013-06-11 17:40:00,83.5,68.6,28.91,SSE,158,1.1,1.3,61,0.00,,,0.00,VWS V14.01,2013-06-11 22:40:00,
2013-06-11 17:41:00,83.7,68.8,28.91,SSE,158,3.4,3.4,61,0.00,,FEW,0.00,VWS V14.01,2013-06-11 22:41:00,
2013-06-11 17:42:00,83.7,68.3,28.91,SSE,158,2.2,3.4,60,0.00,,FEW,0.00,VWS V14.01,2013-06-11 22:42:00,
2013-06-11 17:43:00,83.5,68.6,28.91,SSE,158,1.1,2.5,61,0.00,,FEW,0.00,VWS V14.01,2013-06-11 22:43:00,
2013-06-11 17:44:00,83.5,68.2,28.91,SSW,202,1.6,1.6,60,0.00,,FEW,0.00,VWS V14.01,2013-06-11 22:44:00,
2013-06-11 17:45:00,83.3,68.5,28.91,SSW,202,0.0,0.9,61,0.00,,,0.00,VWS V14.01,2013-06-11 22:45:00,
2013-06-11 17:46:00,83.3,68.5,28.91,SSE,158,0.9,0.9,61,0.00,,FEW,0.00,VWS V14.01,2013-06-11 22:46:00,
2013-06-11 17:47:00,83.1,67.8,28.91,SSE,158,1.6,1.6,60,0.00,,FEW,0.00,VWS V14.01,2013-06-11 22:47:00,
2013-06-11 17:48:00,82.9,67.6,28.91,NNW,338,1.1,1.6,60,0.00,,FEW,0.00,VWS V14.01,2013-06-11 22:48:00,
2013-06-11 17:49:00,82.9,67.6,28.91,NW,315,0.0,1.1,60,0.00,,FEW,0.00,VWS V14.01,2013-06-11 22:49:00,
2013-06-11 17:50:00,82.9,67.6,28.91,SSW,202,1.3,1.3,60,0.00,,,0.00,VWS V14.01,2013-06-11 22:50:00,
2013-06-11 17:51:00,82.9,67.6,28.91,WSW,248,1.3,2.2,60,0.00,,FEW,0.00,VWS V14.01,2013-06-11 22:51:00,
2013-06-11 17:52:00,82.9,67.6,28.91,WSW,248,1.1,1.3,60,0.00,,FEW,0.00,VWS V14.01,2013-06-11 22:52:00,
2013-06-11 17:53:00,82.9,67.6,28.91,NNW,338,1.6,1.6,60,0.00,,FEW,0.00,VWS V14.01,2013-06-11 22:53:00,
2013-06-11 17:55:00,82.9,67.6,28.91,NNW,338,2.9,2.9,60,0.00,,,0.00,VWS V14.01,2013-06-11 22:55:00,
2013-06-11 17:56:00,82.9,67.6,28.91,NNW,338,2.7,2.9,60,0.00,,FEW,0.00,VWS V14.01,2013-06-11 22:56:00,
2013-06-11 17:57:00,83.7,68.3,28.91,NW,315,2.9,2.9,60,0.00,,FEW,0.00,VWS V14.01,2013-06-11 22:57:00,
2013-06-11 17:58:00,83.8,68.5,28.91,NW,315,2.0,2.9,60,0.00,,FEW,0.00,VWS V14.01,2013-06-11 22:58:00,
2013-06-11 17:59:00,83.8,68.0,28.91,West,270,0.0,2.0,59,0.00,,FEW,0.00,VWS V14.01,2013-06-11 22:59:00,
2013-06-11 18:00:00,84.2,68.3,28.91,West,270,3.1,3.1,59,0.00,,,0.00,VWS V14.01,2013-06-11 23:00:00,
2013-06-11 18:01:00,84.2,68.3,28.91,NNW,338,3.6,3.6,59,0.00,,FEW,0.00,VWS V14.01,2013-06-11 23:01:00,
2013-06-11 18:03:00,84.2,68.3,28.91,WNW,292,2.0,3.6,59,0.00,,FEW,0.00,VWS V14.01,2013-06-11 23:03:00,
2013-06-11 18:04:00,83.5,67.2,28.91,NNW,338,2.9,3.6,58,0.00,,FEW,0.00,VWS V14.01,2013-06-11 23:04:00,
2013-06-11 18:05:00,83.1,66.8,28.91,NNE,22,3.4,3.6,58,0.00,,,0.00,VWS V14.01,2013-06-11 23:05:00,
2013-06-11 18:06:00,83.1,66.8,28.91,NNE,22,3.4,3.6,58,0.00,,FEW,0.00,VWS V14.01,2013-06-11 23:06:00,
2013-06-11 18:07:00,83.1,66.8,28.91,NNW,338,3.4,3.4,58,0.00,,FEW,0.00,VWS V14.01,2013-06-11 23:07:00,
2013-06-11 18:08:00,83.1,66.8,28.94,NNW,338,3.1,4.9,58,0.00,,FEW,0.00,VWS V14.01,2013-06-11 23:08:00,
2013-06-11 18:09:00,82.4,66.7,28.94,NNE,22,0.0,3.8,59,0.00,,FEW,0.00,VWS V14.01,2013-06-11 23:09:00,
2013-06-11 18:10:00,82.4,66.7,28.94,North,0,2.7,2.7,59,0.00,,,0.00,VWS V14.01,2013-06-11 23:10:00,
2013-06-11 18:11:00,82.2,66.5,28.94,NNW,338,3.6,3.6,59,0.00,,FEW,0.00,VWS V14.01,2013-06-11 23:11:00,
2013-06-11 18:12:00,81.7,65.5,28.94,NNW,338,4.9,4.9,58,0.00,,FEW,0.00,VWS V14.01,2013-06-11 23:12:00,
2013-06-11 18:13:00,81.7,66.0,28.94,NNW,338,3.1,4.9,59,0.00,,FEW,0.00,VWS V14.01,2013-06-11 23:13:00,
2013-06-11 18:14:00,81.3,65.6,28.94,NNW,338,4.3,4.3,59,0.00,,FEW,0.00,VWS V14.01,2013-06-11 23:14:00,
2013-06-11 18:15:00,81.3,65.6,28.94,NNE,22,3.6,4.3,59,0.00,,,0.00,VWS V14.01,2013-06-11 23:15:00,
2013-06-11 18:16:00,81.3,65.6,28.94,NNW,338,2.0,3.6,59,0.00,,FEW,0.00,VWS V14.01,2013-06-11 23:16:00,
2013-06-11 18:17:00,80.6,65.4,28.94,NNW,338,2.0,2.0,60,0.00,,FEW,0.00,VWS V14.01,2013-06-11 23:17:00,
2013-06-11 18:18:00,80.1,65.4,28.94,NW,315,4.0,4.0,61,0.00,,FEW,0.00,VWS V14.01,2013-06-11 23:18:00,
2013-06-11 18:19:00,80.1,65.4,28.94,NNW,338,4.0,4.5,61,0.00,,FEW,0.00,VWS V14.01,2013-06-11 23:19:00,
2013-06-11 18:20:00,80.1,65.4,28.94,NNW,338,3.8,4.3,61,0.00,,,0.00,VWS V14.01,2013-06-11 23:20:00,
2013-06-11 18:21:00,80.1,65.4,28.94,NNW,338,3.6,3.8,61,0.00,,FEW,0.00,VWS V14.01,2013-06-11 23:21:00,
2013-06-11 18:22:00,79.5,65.4,28.94,NNW,338,1.6,4.0,62,0.00,,FEW,0.00,VWS V14.01,2013-06-11 23:22:00,
2013-06-11 18:23:00,79.7,65.5,28.94,NNW,338,3.4,3.4,62,0.00,,FEW,0.00,VWS V14.01,2013-06-11 23:23:00,
2013-06-11 18:24:00,79.7,65.5,28.94,North,0,4.7,5.6,62,0.00,,FEW,0.00,VWS V14.01,2013-06-11 23:24:00,
2013-06-11 18:25:00,79.9,65.7,28.94,North,0,5.4,5.4,62,0.00,,,0.00,VWS V14.01,2013-06-11 23:25:00,
2013-06-11 18:26:00,80.1,65.9,28.94,NNW,338,4.0,5.4,62,0.00,,FEW,0.00,VWS V14.01,2013-06-11 23:26:00,
2013-06-11 18:27:00,80.4,66.2,28.94,NNW,338,5.6,5.6,62,0.00,,FEW,0.00,VWS V14.01,2013-06-11 23:27:00,
2013-06-11 18:28:00,80.6,65.9,28.94,NNW,338,2.5,5.6,61,0.00,,FEW,0.00,VWS V14.01,2013-06-11 23:28:00,
2013-06-11 18:29:00,80.8,66.1,28.94,North,0,3.6,3.8,61,0.00,,FEW,0.00,VWS V14.01,2013-06-11 23:29:00,
2013-06-11 18:30:00,81.0,65.8,28.94,NE,45,5.8,5.8,60,0.00,,,0.00,VWS V14.01,2013-06-11 23:30:00,
2013-06-11 18:31:00,81.0,65.8,28.94,NNW,338,4.9,5.8,60,0.00,,FEW,0.00,VWS V14.01,2013-06-11 23:31:00,
2013-06-11 18:32:00,81.0,65.8,28.94,North,0,3.6,4.9,60,0.00,,FEW,0.00,VWS V14.01,2013-06-11 23:32:00,
2013-06-11 18:33:00,80.6,65.9,28.94,North,0,2.9,3.6,61,0.00,,FEW,0.00,VWS V14.01,2013-06-11 23:33:00,
2013-06-11 18:34:00,80.6,65.9,28.94,NNW,338,1.3,3.1,61,0.00,,FEW,0.00,VWS V14.01,2013-06-11 23:34:00,
2013-06-11 18:35:00,80.4,65.8,28.94,NNW,338,5.6,5.6,61,0.00,,,0.00,VWS V14.01,2013-06-11 23:35:00,
2013-06-11 18:36:00,80.4,65.8,28.94,NNW,338,5.6,5.6,61,0.00,,FEW,0.00,VWS V14.01,2013-06-11 23:36:00,
2013-06-11 18:37:00,80.2,65.6,28.94,NNE,22,3.4,5.6,61,0.00,,FEW,0.00,VWS V14.01,2013-06-11 23:37:00,
2013-06-11 18:38:00,80.4,65.8,28.91,NNW,338,1.6,3.4,61,0.00,,FEW,0.00,VWS V14.01,2013-06-11 23:38:00,
2013-06-11 18:39:00,80.6,65.9,28.91,NNE,22,2.7,3.4,61,0.00,,FEW,0.00,VWS V14.01,2013-06-11 23:39:00,
2013-06-11 18:40:00,80.6,65.9,28.91,NNW,338,1.3,1.3,61,0.00,,,0.00,VWS V14.01,2013-06-11 23:40:00,
2013-06-11 18:41:00,80.6,65.9,28.91,NNE,22,3.1,3.1,61,0.00,,FEW,0.00,VWS V14.01,2013-06-11 23:41:00,
2013-06-11 18:42:00,81.5,66.8,28.91,NW,315,3.4,3.4,61,0.00,,FEW,0.00,VWS V14.01,2013-06-11 23:42:00,
2013-06-11 18:43:00,81.5,66.3,28.91,NNW,338,2.7,4.9,60,0.00,,FEW,0.00,VWS V14.01,2013-06-11 23:43:00,
2013-06-11 18:44:00,81.3,66.1,28.91,North,0,2.9,3.4,60,0.00,,FEW,0.00,VWS V14.01,2013-06-11 23:44:00,
2013-06-11 18:45:00,81.0,65.3,28.91,NNW,338,2.5,2.5,59,0.00,,,0.00,VWS V14.01,2013-06-11 23:45:00,
2013-06-11 18:46:00,80.8,65.1,28.91,North,0,3.6,3.6,59,0.00,,FEW,0.00,VWS V14.01,2013-06-11 23:46:00,
2013-06-11 18:47:00,80.8,65.1,28.91,North,0,3.6,3.6,59,0.00,,FEW,0.00,VWS V14.01,2013-06-11 23:47:00,
2013-06-11 18:48:00,79.7,64.6,28.91,NNW,338,2.9,3.8,60,0.00,,FEW,0.00,VWS V14.01,2013-06-11 23:48:00,
2013-06-11 18:49:00,79.3,64.7,28.91,NNW,338,4.0,4.0,61,0.00,,FEW,0.00,VWS V14.01,2013-06-11 23:49:00,
2013-06-11 18:50:00,79.2,64.6,28.91,NNE,22,2.5,2.5,61,0.00,,,0.00,VWS V14.01,2013-06-11 23:50:00,
2013-06-11 18:51:00,79.0,64.4,28.91,NNW,338,3.8,3.8,61,0.00,,FEW,0.00,VWS V14.01,2013-06-11 23:51:00,
2013-06-11 18:52:00,78.8,64.7,28.91,NNE,22,2.0,3.8,62,0.00,,FEW,0.00,VWS V14.01,2013-06-11 23:52:00,
2013-06-11 18:53:00,78.8,64.7,28.91,NNE,22,1.3,2.0,62,0.00,,FEW,0.00,VWS V14.01,2013-06-11 23:53:00,
2013-06-11 18:54:00,78.8,64.7,28.91,NNW,338,2.5,4.3,62,0.00,,FEW,0.00,VWS V14.01,2013-06-11 23:54:00,
2013-06-11 18:55:00,78.4,64.8,28.91,North,0,2.7,2.9,63,0.00,,,0.00,VWS V14.01,2013-06-11 23:55:00,
2013-06-11 18:56:00,78.3,64.6,28.91,NNW,338,4.9,4.9,63,0.00,,FEW,0.00,VWS V14.01,2013-06-11 23:56:00,
2013-06-11 18:57:00,78.3,64.6,28.91,NNE,22,4.3,4.9,63,0.00,,FEW,0.00,VWS V14.01,2013-06-11 23:57:00,
2013-06-11 18:58:00,78.3,64.6,28.91,NNW,338,2.9,4.3,63,0.00,,FEW,0.00,VWS V14.01,2013-06-11 23:58:00,
2013-06-11 18:59:00,78.3,64.6,28.91,NNW,338,3.4,4.0,63,0.00,,FEW,0.00,VWS V14.01,2013-06-11 23:59:00,
2013-06-11 19:00:00,78.3,64.6,28.91,NNE,22,3.6,3.6,63,0.00,,,0.00,VWS V14.01,2013-06-12 00:00:00,
2013-06-11 19:01:00,78.6,65.4,28.91,North,0,3.4,4.3,64,0.00,,FEW,0.00,VWS V14.01,2013-06-12 00:01:00,
2013-06-11 19:02:00,79.0,65.3,28.91,NNE,22,2.7,3.4,63,0.00,,FEW,0.00,VWS V14.01,2013-06-12 00:02:00,
2013-06-11 19:03:00,79.5,65.8,28.91,NNE,22,2.9,3.4,63,0.00,,FEW,0.00,VWS V14.01,2013-06-12 00:03:00,
2013-06-11 19:04:00,79.7,66.0,28.91,NNW,338,2.5,3.4,63,0.00,,FEW,0.00,VWS V14.01,2013-06-12 00:04:00,
2013-06-11 19:05:00,79.5,65.8,28.91,NNE,22,2.9,4.0,63,0.00,,,0.00,VWS V14.01,2013-06-12 00:05:00,
2013-06-11 19:06:00,79.3,65.7,28.91,NNW,338,3.4,4.0,63,0.00,,FEW,0.00,VWS V14.01,2013-06-12 00:06:00,
2013-06-11 19:07:00,79.2,65.5,28.91,NNE,22,2.5,3.4,63,0.00,,FEW,0.00,VWS V14.01,2013-06-12 00:07:00,
2013-06-11 19:08:00,79.0,65.3,28.91,NNE,22,2.2,2.9,63,0.00,,FEW,0.00,VWS V14.01,2013-06-12 00:08:00,
2013-06-11 19:09:00,78.8,65.2,28.91,North,0,2.0,2.9,63,0.00,,FEW,0.00,VWS V14.01,2013-06-12 00:09:00,
2013-06-11 19:10:00,78.4,65.3,28.91,NNE,22,1.3,2.0,64,0.00,,,0.00,VWS V14.01,2013-06-12 00:10:00,
2013-06-11 19:11:00,78.3,65.1,28.91,NNW,338,2.7,3.1,64,0.00,,FEW,0.00,VWS V14.01,2013-06-12 00:11:00,
2013-06-11 19:12:00,78.1,64.9,28.91,North,0,2.2,3.6,64,0.00,,FEW,0.00,VWS V14.01,2013-06-12 00:12:00,
2013-06-11 19:13:00,77.9,65.2,28.91,NE,45,2.9,2.9,65,0.00,,FEW,0.00,VWS V14.01,2013-06-12 00:13:00,
2013-06-11 19:14:00,77.9,65.2,28.91,NNE,22,2.2,2.9,65,0.00,,FEW,0.00,VWS V14.01,2013-06-12 00:14:00,
2013-06-11 19:15:00,77.9,65.2,28.91,NNW,338,3.4,3.4,65,0.00,,,0.00,VWS V14.01,2013-06-12 00:15:00,
2013-06-11 19:16:00,77.9,65.2,28.91,NNW,338,2.9,2.9,65,0.00,,FEW,0.00,VWS V14.01,2013-06-12 00:16:00,
2013-06-11 19:17:00,78.1,65.4,28.91,NNE,22,0.9,2.9,65,0.00,,FEW,0.00,VWS V14.01,2013-06-12 00:17:00,
2013-06-11 19:18:00,78.4,65.7,28.91,WNW,292,2.7,2.7,65,0.00,,FEW,0.00,VWS V14.01,2013-06-12 00:18:00,
2013-06-11 19:19:00,78.4,65.7,28.91,NNW,338,2.0,2.7,65,0.00,,FEW,0.00,VWS V14.01,2013-06-12 00:19:00,
2013-06-11 19:20:00,79.0,66.2,28.91,NNW,338,3.4,3.4,65,0.00,,,0.00,VWS V14.01,2013-06-12 00:20:00,
2013-06-11 19:21:00,78.8,65.6,28.91,NNE,22,2.7,3.6,64,0.00,,FEW,0.00,VWS V14.01,2013-06-12 00:21:00,
2013-06-11 19:22:00,78.8,65.6,28.91,WNW,292,2.5,2.7,64,0.00,,FEW,0.00,VWS V14.01,2013-06-12 00:22:00,
2013-06-11 19:23:00,78.8,65.6,28.91,NNE,22,2.7,2.7,64,0.00,,FEW,0.00,VWS V14.01,2013-06-12 00:23:00,
2013-06-11 19:24:00,78.6,65.9,28.91,NNW,338,2.7,2.7,65,0.00,,FEW,0.00,VWS V14.01,2013-06-12 00:24:00,
2013-06-11 19:25:00,78.4,65.7,28.91,NW,315,1.3,1.3,65,0.00,,,0.00,VWS V14.01,2013-06-12 00:25:00,
2013-06-11 19:26:00,78.1,65.4,28.91,NNW,338,2.7,2.9,65,0.00,,FEW,0.00,VWS V14.01,2013-06-12 00:26:00,
2013-06-11 19:27:00,78.1,65.4,28.91,NE,45,2.5,2.7,65,0.00,,FEW,0.00,VWS V14.01,2013-06-12 00:27:00,
2013-06-11 19:28:00,77.9,65.2,28.91,NNW,338,1.1,4.9,65,0.00,,FEW,0.00,VWS V14.01,2013-06-12 00:28:00,
2013-06-11 19:29:00,77.7,65.0,28.91,North,0,2.2,2.2,65,0.00,,FEW,0.00,VWS V14.01,2013-06-12 00:29:00,
2013-06-11 19:30:00,77.9,65.2,28.91,North,0,1.1,2.2,65,0.00,,,0.00,VWS V14.01,2013-06-12 00:30:00,
2013-06-11 19:31:00,77.9,65.2,28.91,NNW,338,1.1,2.2,65,0.00,,FEW,0.00,VWS V14.01,2013-06-12 00:31:00,
2013-06-11 19:32:00,77.9,65.2,28.91,NNE,22,2.2,2.7,65,0.00,,FEW,0.00,VWS V14.01,2013-06-12 00:32:00,
2013-06-11 19:33:00,77.7,65.0,28.91,ENE,68,2.5,2.5,65,0.00,,FEW,0.00,VWS V14.01,2013-06-12 00:33:00,
2013-06-11 19:34:00,77.7,65.0,28.91,ENE,68,2.5,2.5,65,0.00,,FEW,0.00,VWS V14.01,2013-06-12 00:34:00,
2013-06-11 19:35:00,77.7,65.5,28.91,NNE,22,2.7,2.7,66,0.00,,,0.00,VWS V14.01,2013-06-12 00:35:00,
2013-06-11 19:36:00,78.1,65.8,28.91,North,0,2.7,2.7,66,0.00,,FEW,0.00,VWS V14.01,2013-06-12 00:36:00,
2013-06-11 19:37:00,78.1,65.8,28.91,NNW,338,2.5,2.7,66,0.00,,FEW,0.00,VWS V14.01,2013-06-12 00:37:00,
2013-06-11 19:38:00,78.8,66.5,28.91,ENE,68,0.9,2.5,66,0.00,,FEW,0.00,VWS V14.01,2013-06-12 00:38:00,
2013-06-11 19:39:00,78.6,66.3,28.94,NNW,338,1.1,2.2,66,0.00,,FEW,0.00,VWS V14.01,2013-06-12 00:39:00,
2013-06-11 19:40:00,78.6,66.3,28.94,North,0,1.3,1.3,66,0.00,,,0.00,VWS V14.01,2013-06-12 00:40:00,
2013-06-11 19:41:00,78.6,66.3,28.94,North,0,1.3,1.3,66,0.00,,FEW,0.00,VWS V14.01,2013-06-12 00:41:00,
2013-06-11 19:42:00,78.4,66.2,28.94,NW,315,2.5,2.5,66,0.00,,FEW,0.00,VWS V14.01,2013-06-12 00:42:00,
2013-06-11 19:43:00,78.6,66.3,28.94,NNW,338,0.9,2.5,66,0.00,,FEW,0.00,VWS V14.01,2013-06-12 00:43:00,
2013-06-11 19:44:00,79.0,66.7,28.94,NNE,22,2.5,2.5,66,0.00,,FEW,0.00,VWS V14.01,2013-06-12 00:44:00,
2013-06-11 19:45:00,78.8,66.5,28.94,NNE,22,1.1,1.1,66,0.00,,,0.00,VWS V14.01,2013-06-12 00:45:00,
2013-06-11 19:46:00,78.8,66.5,28.94,North,0,1.3,1.6,66,0.00,,FEW,0.00,VWS V14.01,2013-06-12 00:46:00,
2013-06-11 19:47:00,78.6,66.3,28.94,NNE,22,2.2,3.6,66,0.00,,FEW,0.00,VWS V14.01,2013-06-12 00:47:00,
2013-06-11 19:48:00,78.3,66.0,28.94,NNW,338,1.6,2.2,66,0.00,,FEW,0.00,VWS V14.01,2013-06-12 00:48:00,
2013-06-11 19:49:00,77.9,65.6,28.94,North,0,2.7,3.6,66,0.00,,FEW,0.00,VWS V14.01,2013-06-12 00:49:00,
2013-06-11 19:50:00,77.9,65.6,28.94,NNE,22,1.3,2.2,66,0.00,,,0.00,VWS V14.01,2013-06-12 00:50:00,
2013-06-11 19:51:00,77.9,65.6,28.94,North,0,1.6,2.5,66,0.00,,FEW,0.00,VWS V14.01,2013-06-12 00:51:00,
2013-06-11 19:52:00,77.5,65.7,28.91,WNW,292,1.1,2.0,67,0.00,,FEW,0.00,VWS V14.01,2013-06-12 00:52:00,
2013-06-11 19:53:00,77.5,65.7,28.91,WNW,292,1.1,1.1,67,0.00,,FEW,0.00,VWS V14.01,2013-06-12 00:53:00,
2013-06-11 19:55:00,77.0,65.2,28.91,NNW,338,2.0,2.5,67,0.00,,,0.00,VWS V14.01,2013-06-12 00:55:00,
2013-06-11 19:56:00,77.0,65.2,28.91,NNE,22,2.9,3.6,67,0.00,,FEW,0.00,VWS V14.01,2013-06-12 00:56:00,
2013-06-11 19:57:00,76.8,65.0,28.91,NNE,22,2.5,2.9,67,0.00,,FEW,0.00,VWS V14.01,2013-06-12 00:57:00,
2013-06-11 19:58:00,76.6,65.3,28.91,North,0,0.0,2.5,68,0.00,,FEW,0.00,VWS V14.01,2013-06-12 00:58:00,
2013-06-11 19:59:00,76.6,65.3,28.91,NNE,22,2.7,2.7,68,0.00,,FEW,0.00,VWS V14.01,2013-06-12 00:59:00,
2013-06-11 20:00:00,76.5,65.1,28.91,NE,45,2.0,3.1,68,0.00,,,0.00,VWS V14.01,2013-06-12 01:00:00,
2013-06-11 20:01:00,76.3,64.9,28.91,NNE,22,1.1,3.1,68,0.00,,FEW,0.00,VWS V14.01,2013-06-12 01:01:00,
2013-06-11 20:02:00,76.3,64.9,28.91,NNE,22,0.0,1.3,68,0.00,,FEW,0.00,VWS V14.01,2013-06-12 01:02:00,
2013-06-11 20:03:00,76.1,64.8,28.91,NNW,338,1.3,1.3,68,0.00,,FEW,0.00,VWS V14.01,2013-06-12 01:03:00,
2013-06-11 20:04:00,75.9,64.6,28.91,NNE,22,3.6,3.6,68,0.00,,FEW,0.00,VWS V14.01,2013-06-12 01:04:00,
2013-06-11 20:05:00,75.9,65.0,28.91,NNE,22,0.0,0.0,69,0.00,,,0.00,VWS V14.01,2013-06-12 01:05:00,
2013-06-11 20:06:00,75.9,65.0,28.91,NNE,22,0.0,0.0,69,0.00,,FEW,0.00,VWS V14.01,2013-06-12 01:06:00,
2013-06-11 20:07:00,75.7,64.9,28.91,NNE,22,0.0,0.0,69,0.00,,FEW,0.00,VWS V14.01,2013-06-12 01:07:00,
2013-06-11 20:08:00,75.7,64.9,28.91,North,0,0.0,1.3,69,0.00,,FEW,0.00,VWS V14.01,2013-06-12 01:08:00,
2013-06-11 20:09:00,75.6,64.7,28.91,North,0,0.0,0.0,69,0.00,,FEW,0.00,VWS V14.01,2013-06-12 01:09:00,
2013-06-11 20:10:00,75.4,64.9,28.91,NNW,338,1.6,1.6,70,0.00,,,0.00,VWS V14.01,2013-06-12 01:10:00,
2013-06-11 20:11:00,75.2,64.8,28.91,North,0,1.3,1.6,70,0.00,,FEW,0.00,VWS V14.01,2013-06-12 01:11:00,
2013-06-11 20:12:00,75.2,64.8,28.91,NNE,22,1.1,1.3,70,0.00,,FEW,0.00,VWS V14.01,2013-06-12 01:12:00,
2013-06-11 20:13:00,75.0,64.6,28.91,NE,45,0.0,1.1,70,0.00,,FEW,0.00,VWS V14.01,2013-06-12 01:13:00,
2013-06-11 20:14:00,75.0,65.0,28.91,ENE,68,0.9,1.3,71,0.00,,FEW,0.00,VWS V14.01,2013-06-12 01:14:00,
2013-06-11 20:15:00,75.0,65.0,28.91,NNE,22,2.2,2.2,71,0.00,,,0.00,VWS V14.01,2013-06-12 01:15:00,
2013-06-11 20:16:00,75.0,65.0,28.91,NE,45,0.0,2.2,71,0.00,,FEW,0.00,VWS V14.01,2013-06-12 01:16:00,
2013-06-11 20:17:00,75.2,65.2,28.91,NNE,22,0.0,0.0,71,0.00,,FEW,0.00,VWS V14.01,2013-06-12 01:17:00,
2013-06-11 20:18:00,75.2,65.2,28.91,NNE,22,0.0,0.0,71,0.00,,FEW,0.00,VWS V14.01,2013-06-12 01:18:00,
2013-06-11 20:19:00,75.0,65.4,28.91,North,0,0.0,0.9,72,0.00,,FEW,0.00,VWS V14.01,2013-06-12 01:19:00,
2013-06-11 20:20:00,74.8,65.2,28.91,NNE,22,0.0,0.0,72,0.00,,,0.00,VWS V14.01,2013-06-12 01:20:00,
2013-06-11 20:21:00,74.7,65.0,28.91,NNE,22,0.0,0.0,72,0.00,,FEW,0.00,VWS V14.01,2013-06-12 01:21:00,
2013-06-11 20:22:00,74.7,65.0,28.91,NNW,338,2.2,2.2,72,0.00,,FEW,0.00,VWS V14.01,2013-06-12 01:22:00,
2013-06-11 20:23:00,74.5,64.9,28.91,North,0,1.3,2.2,72,0.00,,FEW,0.00,VWS V14.01,2013-06-12 01:23:00,
2013-06-11 20:24:00,74.3,65.1,28.91,NW,315,0.0,1.3,73,0.00,,FEW,0.00,VWS V14.01,2013-06-12 01:24:00,
2013-06-11 20:25:00,74.1,64.9,28.91,NNW,338,2.5,2.5,73,0.00,,,0.00,VWS V14.01,2013-06-12 01:25:00,
2013-06-11 20:26:00,74.1,64.9,28.91,ENE,68,0.9,2.5,73,0.00,,FEW,0.00,VWS V14.01,2013-06-12 01:26:00,
2013-06-11 20:27:00,73.9,64.8,28.91,NE,45,1.6,1.6,73,0.00,,FEW,0.00,VWS V14.01,2013-06-12 01:27:00,
2013-06-11 20:28:00,73.9,64.8,28.91,NNE,22,1.1,2.7,73,0.00,,FEW,0.00,VWS V14.01,2013-06-12 01:28:00,
2013-06-11 20:29:00,73.8,64.6,28.91,NNE,22,0.0,1.1,73,0.00,,FEW,0.00,VWS V14.01,2013-06-12 01:29:00,
2013-06-11 20:30:00,73.8,64.6,28.91,NE,45,0.0,0.0,73,0.00,,,0.00,VWS V14.01,2013-06-12 01:30:00,
2013-06-11 20:32:00,73.6,64.4,28.91,NNE,22,0.0,1.3,73,0.00,,FEW,0.00,VWS V14.01,2013-06-12 01:32:00,
2013-06-11 20:33:00,73.6,64.4,28.91,WNW,292,1.1,1.3,73,0.00,,FEW,0.00,VWS V14.01,2013-06-12 01:33:00,
2013-06-11 20:34:00,73.4,64.6,28.91,NNE,22,2.7,2.7,74,0.00,,FEW,0.00,VWS V14.01,2013-06-12 01:34:00,
2013-06-11 20:35:00,73.2,64.4,28.91,NNW,338,2.0,2.0,74,0.00,,,0.00,VWS V14.01,2013-06-12 01:35:00,
2013-06-11 20:36:00,73.2,64.8,28.91,North,0,2.7,2.7,75,0.00,,FEW,0.00,VWS V14.01,2013-06-12 01:36:00,
2013-06-11 20:37:00,73.0,64.7,28.88,NNW,338,1.3,2.7,75,0.00,,FEW,0.00,VWS V14.01,2013-06-12 01:37:00,
2013-06-11 20:38:00,73.0,64.7,28.88,North,0,1.1,1.3,75,0.00,,FEW,0.00,VWS V14.01,2013-06-12 01:38:00,
2013-06-11 20:39:00,73.0,64.7,28.88,NNW,338,1.1,687.6,75,0.00,,FEW,0.00,VWS V14.01,2013-06-12 01:39:00,
2013-06-11 20:40:00,72.9,64.5,28.88,North,0,1.1,1.1,75,0.00,,,0.00,VWS V14.01,2013-06-12 01:40:00,
2013-06-11 20:41:00,72.9,64.5,28.88,North,0,1.6,1.6,75,0.00,,FEW,0.00,VWS V14.01,2013-06-12 01:41:00,
2013-06-11 20:42:00,72.9,64.5,28.88,NNE,22,0.0,1.6,75,0.00,,FEW,0.00,VWS V14.01,2013-06-12 01:42:00,
2013-06-11 20:43:00,72.7,64.3,28.88,NNE,22,3.8,3.8,75,0.00,,FEW,0.00,VWS V14.01,2013-06-12 01:43:00,
2013-06-11 20:44:00,72.7,64.3,28.88,NNW,338,0.0,3.8,75,0.00,,FEW,0.00,VWS V14.01,2013-06-12 01:44:00,
2013-06-11 20:45:00,72.7,64.3,28.88,NNW,338,0.9,2.5,75,0.00,,,0.00,VWS V14.01,2013-06-12 01:45:00,
2013-06-11 20:46:00,72.7,64.7,28.88,NNW,338,1.3,2.5,76,0.00,,FEW,0.00,VWS V14.01,2013-06-12 01:46:00,
2013-06-11 20:47:00,72.7,64.7,28.88,NNE,22,0.0,1.3,76,0.00,,FEW,0.00,VWS V14.01,2013-06-12 01:47:00,
2013-06-11 20:48:00,72.5,64.5,28.88,NNE,22,0.9,2.0,76,0.00,,FEW,0.00,VWS V14.01,2013-06-12 01:48:00,
2013-06-11 20:49:00,72.5,64.5,28.88,North,0,2.2,2.2,76,0.00,,FEW,0.00,VWS V14.01,2013-06-12 01:49:00,
2013-06-11 20:50:00,72.5,64.9,28.88,NNW,338,0.9,0.9,77,0.00,,,0.00,VWS V14.01,2013-06-12 01:50:00,
2013-06-11 20:51:00,72.3,64.3,28.88,NNE,22,2.0,2.0,76,0.00,,FEW,0.00,VWS V14.01,2013-06-12 01:51:00,
2013-06-11 20:52:00,72.3,64.3,28.88,NNE,22,2.0,2.0,76,0.00,,FEW,0.00,VWS V14.01,2013-06-12 01:52:00,
2013-06-11 20:53:00,72.3,64.7,28.88,North,0,2.5,2.5,77,0.00,,FEW,0.00,VWS V14.01,2013-06-12 01:53:00,
2013-06-11 20:54:00,72.3,64.7,28.88,North,0,0.9,2.5,77,0.00,,FEW,0.00,VWS V14.01,2013-06-12 01:54:00,
2013-06-11 20:55:00,72.1,64.5,28.88,NNW,338,1.6,1.6,77,0.00,,,0.00,VWS V14.01,2013-06-12 01:55:00,
2013-06-11 20:56:00,72.1,64.5,28.88,NNW,338,1.6,1.6,77,0.00,,FEW,0.00,VWS V14.01,2013-06-12 01:56:00,
2013-06-11 20:57:00,72.1,64.5,28.88,NNE,22,0.0,2.2,77,0.00,,FEW,0.00,VWS V14.01,2013-06-12 01:57:00,
2013-06-11 20:58:00,72.1,64.5,28.88,NNE,22,2.5,2.5,77,0.00,,FEW,0.00,VWS V14.01,2013-06-12 01:58:00,
2013-06-11 20:59:00,72.1,64.5,28.88,NNW,338,2.7,2.7,77,0.00,,FEW,0.00,VWS V14.01,2013-06-12 01:59:00,
2013-06-11 21:00:00,72.1,64.5,28.88,East,90,1.1,1.1,77,0.00,,,0.00,VWS V14.01,2013-06-12 02:00:00,
2013-06-11 21:01:00,72.0,64.4,28.88,NNW,338,1.1,1.1,77,0.00,,FEW,0.00,VWS V14.01,2013-06-12 02:01:00,
2013-06-11 21:02:00,72.0,64.4,28.88,NNW,338,0.9,1.3,77,0.00,,FEW,0.00,VWS V14.01,2013-06-12 02:02:00,
2013-06-11 21:03:00,72.0,64.4,28.88,SSW,202,0.0,0.9,77,0.00,,FEW,0.00,VWS V14.01,2013-06-12 02:03:00,
2013-06-11 21:04:00,71.8,64.6,28.88,NE,45,0.0,0.0,78,0.00,,FEW,0.00,VWS V14.01,2013-06-12 02:04:00,
2013-06-11 21:05:00,71.8,64.6,28.88,NNE,22,0.0,0.9,78,0.00,,,0.00,VWS V14.01,2013-06-12 02:05:00,
2013-06-11 21:06:00,71.8,64.6,28.88,NNE,22,1.1,1.1,78,0.00,,FEW,0.00,VWS V14.01,2013-06-12 02:06:00,
2013-06-11 21:07:00,71.6,64.4,28.91,NNW,338,1.1,1.1,78,0.00,,FEW,0.00,VWS V14.01,2013-06-12 02:07:00,
2013-06-11 21:08:00,71.6,64.8,28.91,NNW,338,1.3,3.4,79,0.00,,FEW,0.00,VWS V14.01,2013-06-12 02:08:00,
2013-06-11 21:09:00,71.6,64.8,28.91,NNW,338,2.0,2.0,79,0.00,,FEW,0.00,VWS V14.01,2013-06-12 02:09:00,
2013-06-11 21:10:00,71.6,64.8,28.91,North,0,2.5,2.5,79,0.00,,,0.00,VWS V14.01,2013-06-12 02:10:00,
2013-06-11 21:11:00,71.6,64.8,28.91,NNW,338,1.1,2.5,79,0.00,,FEW,0.00,VWS V14.01,2013-06-12 02:11:00,
2013-06-11 21:12:00,71.4,64.6,28.91,NNE,22,1.1,1.1,79,0.00,,FEW,0.00,VWS V14.01,2013-06-12 02:12:00,
2013-06-11 21:13:00,71.2,64.4,28.91,NNE,22,0.0,1.6,79,0.00,,FEW,0.00,VWS V14.01,2013-06-12 02:13:00,
2013-06-11 21:14:00,71.2,64.4,28.91,NNE,22,0.0,1.3,79,0.00,,FEW,0.00,VWS V14.01,2013-06-12 02:14:00,
2013-06-11 21:15:00,71.2,64.4,28.91,NNE,22,1.3,1.3,79,0.00,,,0.00,VWS V14.01,2013-06-12 02:15:00,
2013-06-11 21:16:00,71.2,64.4,28.91,NE,45,0.0,1.3,79,0.00,,FEW,0.00,VWS V14.01,2013-06-12 02:16:00,
2013-06-11 21:17:00,71.1,64.2,28.91,NE,45,0.0,0.0,79,0.00,,FEW,0.00,VWS V14.01,2013-06-12 02:17:00,
2013-06-11 21:18:00,71.1,64.2,28.91,NE,45,0.0,0.0,79,0.00,,FEW,0.00,VWS V14.01,2013-06-12 02:18:00,
2013-06-11 21:19:00,70.9,64.4,28.91,NE,45,0.0,0.0,80,0.00,,FEW,0.00,VWS V14.01,2013-06-12 02:19:00,
2013-06-11 21:20:00,70.7,64.2,28.91,NE,45,0.0,0.0,80,0.00,,,0.00,VWS V14.01,2013-06-12 02:20:00,
2013-06-11 21:21:00,70.7,64.2,28.91,NNE,22,0.0,0.0,80,0.00,,FEW,0.00,VWS V14.01,2013-06-12 02:21:00,
2013-06-11 21:22:00,70.5,64.1,28.91,NNE,22,0.0,0.0,80,0.00,,FEW,0.00,VWS V14.01,2013-06-12 02:22:00,
2013-06-11 21:23:00,70.5,64.1,28.91,NNE,22,0.0,0.0,80,0.00,,FEW,0.00,VWS V14.01,2013-06-12 02:23:00,
2013-06-11 21:24:00,70.5,64.1,28.91,NNE,22,0.0,0.0,80,0.00,,FEW,0.00,VWS V14.01,2013-06-12 02:24:00,
2013-06-11 21:25:00,70.3,63.9,28.91,NNE,22,0.0,0.0,80,0.00,,,0.00,VWS V14.01,2013-06-12 02:25:00,
2013-06-11 21:26:00,70.3,63.9,28.91,NE,45,0.0,0.0,80,0.00,,FEW,0.00,VWS V14.01,2013-06-12 02:26:00,
2013-06-11 21:27:00,70.2,63.7,28.91,NE,45,0.0,0.0,80,0.00,,FEW,0.00,VWS V14.01,2013-06-12 02:27:00,
2013-06-11 21:28:00,70.0,63.5,28.91,NE,45,0.0,0.0,80,0.00,,FEW,0.00,VWS V14.01,2013-06-12 02:28:00,
2013-06-11 21:29:00,70.0,63.9,28.91,NE,45,0.0,0.0,81,0.00,,,0.00,VWS V14.01,2013-06-12 02:29:00,
2013-06-11 21:30:00,70.0,63.9,28.91,NE,45,0.0,0.0,81,0.00,,FEW,0.00,VWS V14.01,2013-06-12 02:30:00,
2013-06-11 21:31:00,69.8,63.7,28.91,NE,45,0.0,0.0,81,0.00,,FEW,0.00,VWS V14.01,2013-06-12 02:31:00,
2013-06-11 21:32:00,69.6,63.5,28.91,NE,45,0.0,0.0,81,0.00,,FEW,0.00,VWS V14.01,2013-06-12 02:32:00,
2013-06-11 21:33:00,69.6,63.5,28.91,NE,45,0.0,0.0,81,0.00,,FEW,0.00,VWS V14.01,2013-06-12 02:33:00,
2013-06-11 21:34:00,69.4,63.4,28.91,NE,45,0.0,0.0,81,0.00,,,0.00,VWS V14.01,2013-06-12 02:34:00,
2013-06-11 21:35:00,69.4,63.4,28.91,NE,45,0.0,0.0,81,0.00,,FEW,0.00,VWS V14.01,2013-06-12 02:35:00,
2013-06-11 21:36:00,69.3,63.2,28.91,NE,45,0.0,0.0,81,0.00,,FEW,0.00,VWS V14.01,2013-06-12 02:36:00,
2013-06-11 21:38:00,69.3,63.5,28.91,NE,45,0.0,0.0,82,0.00,,FEW,0.00,VWS V14.01,2013-06-12 02:38:00,
2013-06-11 21:39:00,68.9,63.2,28.91,NE,45,0.0,0.0,82,0.00,,,0.00,VWS V14.01,2013-06-12 02:39:00,
2013-06-11 21:40:00,68.9,63.2,28.91,NE,45,0.0,0.0,82,0.00,,FEW,0.00,VWS V14.01,2013-06-12 02:40:00,
2013-06-11 21:41:00,68.9,63.2,28.91,NE,45,0.0,0.0,82,0.00,,FEW,0.00,VWS V14.01,2013-06-12 02:41:00,
2013-06-11 21:42:00,68.7,63.0,28.91,NE,45,0.0,0.0,82,0.00,,FEW,0.00,VWS V14.01,2013-06-12 02:42:00,
2013-06-11 21:43:00,68.7,63.0,28.91,NE,45,0.0,0.0,82,0.00,,FEW,0.00,VWS V14.01,2013-06-12 02:43:00,
2013-06-11 21:44:00,68.5,63.2,28.91,NE,45,0.0,0.0,83,0.00,,,0.00,VWS V14.01,2013-06-12 02:44:00,
2013-06-11 21:45:00,68.5,63.2,28.91,NE,45,0.0,0.0,83,0.00,,FEW,0.00,VWS V14.01,2013-06-12 02:45:00,
2013-06-11 21:46:00,68.5,63.2,28.91,NE,45,0.0,0.0,83,0.00,,FEW,0.00,VWS V14.01,2013-06-12 02:46:00,
2013-06-11 21:47:00,68.5,63.2,28.91,NE,45,0.0,0.0,83,0.00,,FEW,0.00,VWS V14.01,2013-06-12 02:47:00,
2013-06-11 21:48:00,68.4,63.0,28.91,NE,45,0.0,0.0,83,0.00,,FEW,0.00,VWS V14.01,2013-06-12 02:48:00,
2013-06-11 21:49:00,68.4,63.3,28.91,NE,45,0.0,0.0,84,0.00,,,0.00,VWS V14.01,2013-06-12 02:49:00,
2013-06-11 21:50:00,68.4,63.3,28.91,NE,45,0.0,0.0,84,0.00,,FEW,0.00,VWS V14.01,2013-06-12 02:50:00,
2013-06-11 21:51:00,68.2,63.2,28.91,NE,45,0.0,0.0,84,0.00,,FEW,0.00,VWS V14.01,2013-06-12 02:51:00,
2013-06-11 21:52:00,68.2,63.2,28.94,NE,45,0.0,0.0,84,0.00,,FEW,0.00,VWS V14.01,2013-06-12 02:52:00,
2013-06-11 21:53:00,68.2,63.2,28.94,NE,45,0.0,0.0,84,0.00,,FEW,0.00,VWS V14.01,2013-06-12 02:53:00,
2013-06-11 21:54:00,68.0,63.0,28.94,NE,45,0.0,0.0,84,0.00,,,0.00,VWS V14.01,2013-06-12 02:54:00,
2013-06-11 21:55:00,68.0,63.0,28.94,NE,45,0.0,0.0,84,0.00,,FEW,0.00,VWS V14.01,2013-06-12 02:55:00,
2013-06-11 21:56:00,68.0,63.0,28.94,NE,45,0.0,0.0,84,0.00,,FEW,0.00,VWS V14.01,2013-06-12 02:56:00,
2013-06-11 21:57:00,68.0,63.0,28.94,NE,45,0.0,0.0,84,0.00,,FEW,0.00,VWS V14.01,2013-06-12 02:57:00,
2013-06-11 21:58:00,67.8,63.2,28.94,NE,45,0.0,0.0,85,0.00,,FEW,0.00,VWS V14.01,2013-06-12 02:58:00,
2013-06-11 21:59:00,67.8,63.2,28.94,NE,45,0.0,0.0,85,0.00,,,0.00,VWS V14.01,2013-06-12 02:59:00,
2013-06-11 22:00:00,67.8,63.2,28.94,NE,45,0.0,0.0,85,0.00,,FEW,0.00,VWS V14.01,2013-06-12 03:00:00,
2013-06-11 22:01:00,67.6,63.3,28.94,NE,45,0.0,0.0,86,0.00,,FEW,0.00,VWS V14.01,2013-06-12 03:01:00,
2013-06-11 22:02:00,67.6,63.3,28.94,NE,45,0.0,0.0,86,0.00,,FEW,0.00,VWS V14.01,2013-06-12 03:02:00,
2013-06-11 22:03:00,67.6,63.3,28.94,NE,45,0.0,0.0,86,0.00,,FEW,0.00,VWS V14.01,2013-06-12 03:03:00,
2013-06-11 22:04:00,67.5,63.1,28.94,NE,45,0.0,0.0,86,0.00,,,0.00,VWS V14.01,2013-06-12 03:04:00,
2013-06-11 22:05:00,67.5,63.1,28.94,NE,45,0.0,0.0,86,0.00,,FEW,0.00,VWS V14.01,2013-06-12 03:05:00,
2013-06-11 22:06:00,67.5,63.1,28.94,NE,45,0.0,0.0,86,0.00,,FEW,0.00,VWS V14.01,2013-06-12 03:06:00,
2013-06-11 22:07:00,67.5,63.1,28.94,NE,45,0.0,0.0,86,0.00,,FEW,0.00,VWS V14.01,2013-06-12 03:07:00,
2013-06-11 22:08:00,67.5,63.1,28.94,NE,45,0.0,0.0,86,0.00,,FEW,0.00,VWS V14.01,2013-06-12 03:08:00,
2013-06-11 22:09:00,67.5,63.1,28.94,NE,45,0.0,0.0,86,0.00,,,0.00,VWS V14.01,2013-06-12 03:09:00,
2013-06-11 22:10:00,67.5,63.1,28.94,NE,45,0.0,0.0,86,0.00,,FEW,0.00,VWS V14.01,2013-06-12 03:10:00,
2013-06-11 22:11:00,67.5,63.1,28.94,NE,45,0.0,0.0,86,0.00,,FEW,0.00,VWS V14.01,2013-06-12 03:11:00,
2013-06-11 22:12:00,67.5,63.5,28.94,NE,45,0.0,0.0,87,0.00,,FEW,0.00,VWS V14.01,2013-06-12 03:12:00,
2013-06-11 22:13:00,67.5,63.5,28.94,NE,45,1.3,1.3,87,0.00,,FEW,0.00,VWS V14.01,2013-06-12 03:13:00,
2013-06-11 22:14:00,67.5,63.5,28.94,NE,45,0.0,0.0,87,0.00,,,0.00,VWS V14.01,2013-06-12 03:14:00,
2013-06-11 22:15:00,67.5,63.5,28.94,NE,45,0.0,1.1,87,0.00,,FEW,0.00,VWS V14.01,2013-06-12 03:15:00,
2013-06-11 22:16:00,67.3,63.6,28.94,NE,45,0.0,0.0,88,0.00,,FEW,0.00,VWS V14.01,2013-06-12 03:16:00,
2013-06-11 22:17:00,67.3,63.6,28.94,NE,45,0.0,0.0,88,0.00,,FEW,0.00,VWS V14.01,2013-06-12 03:17:00,
2013-06-11 22:18:00,67.3,63.6,28.94,NE,45,0.0,0.0,88,0.00,,FEW,0.00,VWS V14.01,2013-06-12 03:18:00,
2013-06-11 22:19:00,67.1,63.4,28.94,NE,45,0.0,0.0,88,0.00,,,0.00,VWS V14.01,2013-06-12 03:19:00,
2013-06-11 22:20:00,67.1,63.4,28.94,NE,45,0.0,0.0,88,0.00,,FEW,0.00,VWS V14.01,2013-06-12 03:20:00,
2013-06-11 22:21:00,67.1,63.4,28.94,NE,45,0.0,0.0,88,0.00,,FEW,0.00,VWS V14.01,2013-06-12 03:21:00,
2013-06-11 22:22:00,66.9,63.3,28.91,NE,45,0.0,0.0,88,0.00,,FEW,0.00,VWS V14.01,2013-06-12 03:22:00,
2013-06-11 22:23:00,66.9,63.3,28.91,NE,45,0.0,0.0,88,0.00,,FEW,0.00,VWS V14.01,2013-06-12 03:23:00,
2013-06-11 22:24:00,66.9,63.3,28.91,NE,45,0.0,0.0,88,0.00,,,0.00,VWS V14.01,2013-06-12 03:24:00,
2013-06-11 22:25:00,66.9,63.3,28.91,NE,45,0.0,0.0,88,0.00,,FEW,0.00,VWS V14.01,2013-06-12 03:25:00,
2013-06-11 22:26:00,66.9,63.3,28.91,NE,45,0.0,0.0,88,0.00,,FEW,0.00,VWS V14.01,2013-06-12 03:26:00,
2013-06-11 22:27:00,66.9,63.6,28.91,NE,45,0.0,0.9,89,0.00,,FEW,0.00,VWS V14.01,2013-06-12 03:27:00,
2013-06-11 22:28:00,66.9,63.6,28.91,NE,45,0.0,0.0,89,0.00,,FEW,0.00,VWS V14.01,2013-06-12 03:28:00,
2013-06-11 22:29:00,66.9,63.6,28.91,NE,45,0.0,0.0,89,0.00,,,0.00,VWS V14.01,2013-06-12 03:29:00,
2013-06-11 22:30:00,66.9,63.6,28.91,NE,45,0.0,0.0,89,0.00,,FEW,0.00,VWS V14.01,2013-06-12 03:30:00,
2013-06-11 22:31:00,66.9,63.6,28.91,NE,45,0.0,0.0,89,0.00,,FEW,0.00,VWS V14.01,2013-06-12 03:31:00,
2013-06-11 22:32:00,66.9,63.6,28.91,NE,45,0.0,0.0,89,0.00,,FEW,0.00,VWS V14.01,2013-06-12 03:32:00,
2013-06-11 22:33:00,66.9,63.6,28.91,NE,45,0.0,0.0,89,0.00,,FEW,0.00,VWS V14.01,2013-06-12 03:33:00,
2013-06-11 22:34:00,66.9,63.6,28.91,NE,45,0.0,0.0,89,0.00,,,0.00,VWS V14.01,2013-06-12 03:34:00,
2013-06-11 22:36:00,66.9,63.6,28.91,NE,45,0.0,0.0,89,0.00,,FEW,0.00,VWS V14.01,2013-06-12 03:36:00,
2013-06-11 22:37:00,66.9,63.6,28.91,NE,45,0.0,0.0,89,0.00,,FEW,0.00,VWS V14.01,2013-06-12 03:37:00,
2013-06-11 22:38:00,66.9,63.6,28.91,NE,45,0.0,0.0,89,0.00,,FEW,0.00,VWS V14.01,2013-06-12 03:38:00,
2013-06-11 22:39:00,67.1,64.1,28.91,NE,45,1.3,1.3,90,0.00,,,0.00,VWS V14.01,2013-06-12 03:39:00,
2013-06-11 22:40:00,67.1,64.1,28.91,NE,45,1.3,1.3,90,0.00,,FEW,0.00,VWS V14.01,2013-06-12 03:40:00,
2013-06-11 22:41:00,67.1,64.1,28.91,NE,45,0.0,1.3,90,0.00,,FEW,0.00,VWS V14.01,2013-06-12 03:41:00,
2013-06-11 22:42:00,67.1,64.1,28.91,NE,45,0.0,0.0,90,0.00,,FEW,0.00,VWS V14.01,2013-06-12 03:42:00,
2013-06-11 22:43:00,66.9,63.9,28.91,NE,45,0.0,0.0,90,0.00,,FEW,0.00,VWS V14.01,2013-06-12 03:43:00,
2013-06-11 22:44:00,66.7,63.7,28.91,NE,45,0.0,0.0,90,0.00,,,0.00,VWS V14.01,2013-06-12 03:44:00,
2013-06-11 22:45:00,66.7,63.7,28.91,NE,45,0.0,0.0,90,0.00,,FEW,0.00,VWS V14.01,2013-06-12 03:45:00,
2013-06-11 22:46:00,66.7,63.7,28.91,NE,45,0.0,0.0,90,0.00,,FEW,0.00,VWS V14.01,2013-06-12 03:46:00,
2013-06-11 22:47:00,66.7,63.7,28.91,NE,45,0.0,0.0,90,0.00,,FEW,0.00,VWS V14.01,2013-06-12 03:47:00,
2013-06-11 22:48:00,66.6,63.5,28.91,NE,45,0.0,0.0,90,0.00,,FEW,0.00,VWS V14.01,2013-06-12 03:48:00,
2013-06-11 22:49:00,66.6,63.5,28.91,NE,45,0.0,0.0,90,0.00,,,0.00,VWS V14.01,2013-06-12 03:49:00,
2013-06-11 22:50:00,66.6,63.5,28.91,NE,45,0.0,0.0,90,0.00,,FEW,0.00,VWS V14.01,2013-06-12 03:50:00,
2013-06-11 22:51:00,66.6,63.5,28.91,ENE,68,0.0,0.0,90,0.00,,FEW,0.00,VWS V14.01,2013-06-12 03:51:00,
2013-06-11 22:52:00,66.6,63.5,28.91,ENE,68,0.0,0.0,90,0.00,,FEW,0.00,VWS V14.01,2013-06-12 03:52:00,
2013-06-11 22:53:00,66.6,63.5,28.91,ENE,68,0.0,0.0,90,0.00,,FEW,0.00,VWS V14.01,2013-06-12 03:53:00,
2013-06-11 22:54:00,66.6,63.5,28.91,ENE,68,0.0,0.0,90,0.00,,,0.00,VWS V14.01,2013-06-12 03:54:00,
2013-06-11 22:55:00,66.4,63.4,28.91,ENE,68,0.0,0.0,90,0.00,,FEW,0.00,VWS V14.01,2013-06-12 03:55:00,
2013-06-11 22:56:00,66.4,63.4,28.91,ENE,68,0.0,0.0,90,0.00,,FEW,0.00,VWS V14.01,2013-06-12 03:56:00,
2013-06-11 22:57:00,66.4,63.4,28.91,ENE,68,0.0,0.0,90,0.00,,FEW,0.00,VWS V14.01,2013-06-12 03:57:00,
2013-06-11 22:58:00,66.2,63.2,28.91,NE,45,0.0,0.0,90,0.00,,FEW,0.00,VWS V14.01,2013-06-12 03:58:00,
2013-06-11 22:59:00,66.2,63.2,28.91,NE,45,0.0,0.0,90,0.00,,,0.00,VWS V14.01,2013-06-12 03:59:00,
2013-06-11 23:00:00,66.2,63.2,28.91,NE,45,0.0,0.0,90,0.00,,FEW,0.00,VWS V14.01,2013-06-12 04:00:00,
2013-06-11 23:01:00,66.2,63.5,28.91,NE,45,0.0,0.0,91,0.00,,,0.00,VWS V14.01,2013-06-12 04:01:00,
2013-06-11 23:02:00,66.2,63.5,28.91,NE,45,0.0,0.0,91,0.00,,FEW,0.00,VWS V14.01,2013-06-12 04:02:00,
2013-06-11 23:03:00,66.2,63.5,28.91,NE,45,0.0,0.0,91,0.00,,FEW,0.00,VWS V14.01,2013-06-12 04:03:00,
2013-06-11 23:04:00,66.2,63.5,28.91,NNE,22,1.1,1.1,91,0.00,,FEW,0.00,VWS V14.01,2013-06-12 04:04:00,
2013-06-11 23:05:00,66.2,63.5,28.91,NNE,22,0.0,1.1,91,0.00,,FEW,0.00,VWS V14.01,2013-06-12 04:05:00,
2013-06-11 23:06:00,66.4,63.7,28.94,NNE,22,0.0,1.1,91,0.00,,,0.00,VWS V14.01,2013-06-12 04:06:00,
2013-06-11 23:07:00,66.4,63.7,28.94,NNE,22,0.0,1.1,91,0.00,,FEW,0.00,VWS V14.01,2013-06-12 04:07:00,
2013-06-11 23:08:00,66.4,63.7,28.94,NE,45,1.1,1.1,91,0.00,,FEW,0.00,VWS V14.01,2013-06-12 04:08:00,
2013-06-11 23:09:00,66.4,63.7,28.94,NE,45,0.0,1.3,91,0.00,,FEW,0.00,VWS V14.01,2013-06-12 04:09:00,
2013-06-11 23:10:00,66.4,63.7,28.94,NE,45,0.0,0.0,91,0.00,,FEW,0.00,VWS V14.01,2013-06-12 04:10:00,
2013-06-11 23:11:00,66.4,64.0,28.94,NE,45,0.0,0.0,92,0.00,,,0.00,VWS V14.01,2013-06-12 04:11:00,
2013-06-11 23:12:00,66.4,64.0,28.94,NE,45,0.0,0.0,92,0.00,,FEW,0.00,VWS V14.01,2013-06-12 04:12:00,
2013-06-11 23:13:00,66.4,64.0,28.94,NE,45,0.0,0.0,92,0.00,,FEW,0.00,VWS V14.01,2013-06-12 04:13:00,
2013-06-11 23:14:00,66.2,63.8,28.94,NE,45,0.0,0.0,92,0.00,,FEW,0.00,VWS V14.01,2013-06-12 04:14:00,
2013-06-11 23:15:00,66.2,63.5,28.94,ENE,68,0.0,0.0,91,0.00,,FEW,0.00,VWS V14.01,2013-06-12 04:15:00,
2013-06-11 23:16:00,66.2,63.8,28.94,ENE,68,0.0,0.0,92,0.00,,,0.00,VWS V14.01,2013-06-12 04:16:00,
2013-06-11 23:17:00,66.2,63.8,28.94,ENE,68,0.0,0.0,92,0.00,,FEW,0.00,VWS V14.01,2013-06-12 04:17:00,
2013-06-11 23:18:00,66.2,63.8,28.94,ENE,68,0.0,0.0,92,0.00,,FEW,0.00,VWS V14.01,2013-06-12 04:18:00,
2013-06-11 23:19:00,66.2,63.8,28.94,ENE,68,0.0,0.0,92,0.00,,FEW,0.00,VWS V14.01,2013-06-12 04:19:00,
2013-06-11 23:20:00,66.0,63.6,28.94,ENE,68,0.0,0.0,92,0.00,,FEW,0.00,VWS V14.01,2013-06-12 04:20:00,
2013-06-11 23:21:00,66.0,63.6,28.94,ENE,68,0.0,0.0,92,0.00,,,0.00,VWS V14.01,2013-06-12 04:21:00,
2013-06-11 23:22:00,66.0,63.6,28.94,ENE,68,0.0,0.0,92,0.00,,FEW,0.00,VWS V14.01,2013-06-12 04:22:00,
2013-06-11 23:23:00,66.0,63.6,28.94,ENE,68,0.0,0.0,92,0.00,,FEW,0.00,VWS V14.01,2013-06-12 04:23:00,
2013-06-11 23:24:00,66.0,63.6,28.94,ENE,68,0.0,0.0,92,0.00,,FEW,0.00,VWS V14.01,2013-06-12 04:24:00,
2013-06-11 23:25:00,66.0,63.6,28.94,ENE,68,0.0,0.0,92,0.00,,FEW,0.00,VWS V14.01,2013-06-12 04:25:00,
2013-06-11 23:26:00,66.0,63.6,28.94,ENE,68,0.0,0.0,92,0.00,,,0.00,VWS V14.01,2013-06-12 04:26:00,
2013-06-11 23:27:00,66.0,63.6,28.94,ENE,68,0.0,0.0,92,0.00,,FEW,0.00,VWS V14.01,2013-06-12 04:27:00,
2013-06-11 23:28:00,66.0,63.6,28.94,ENE,68,0.0,0.0,92,0.00,,FEW,0.00,VWS V14.01,2013-06-12 04:28:00,
2013-06-11 23:29:00,66.0,63.6,28.94,ENE,68,0.0,0.0,92,0.00,,FEW,0.00,VWS V14.01,2013-06-12 04:29:00,
2013-06-11 23:31:00,66.0,63.6,28.94,ENE,68,0.0,0.0,92,0.00,,,0.00,VWS V14.01,2013-06-12 04:31:00,
2013-06-11 23:32:00,66.0,63.6,28.94,ENE,68,0.0,0.0,92,0.00,,FEW,0.00,VWS V14.01,2013-06-12 04:32:00,
2013-06-11 23:33:00,66.0,63.6,28.94,ENE,68,0.0,0.0,92,0.00,,FEW,0.00,VWS V14.01,2013-06-12 04:33:00,
2013-06-11 23:34:00,65.8,63.5,28.94,ENE,68,0.0,0.0,92,0.00,,FEW,0.00,VWS V14.01,2013-06-12 04:34:00,
2013-06-11 23:35:00,65.8,63.5,28.94,ENE,68,0.0,0.0,92,0.00,,FEW,0.00,VWS V14.01,2013-06-12 04:35:00,
2013-06-11 23:36:00,65.7,63.6,28.97,ENE,68,0.0,0.0,93,0.00,,,0.00,VWS V14.01,2013-06-12 04:36:00,
2013-06-11 23:37:00,65.7,63.6,28.97,ENE,68,0.0,0.0,93,0.00,,FEW,0.00,VWS V14.01,2013-06-12 04:37:00,
2013-06-11 23:38:00,65.7,63.6,28.97,ENE,68,0.0,0.0,93,0.00,,FEW,0.00,VWS V14.01,2013-06-12 04:38:00,
2013-06-11 23:39:00,65.7,63.6,28.97,SSW,202,2.0,2.0,93,0.00,,FEW,0.00,VWS V14.01,2013-06-12 04:39:00,
2013-06-11 23:40:00,65.8,64.1,28.97,SSW,202,1.6,2.2,94,0.00,,FEW,0.00,VWS V14.01,2013-06-12 04:40:00,
2013-06-11 23:41:00,65.8,64.1,28.97,South,180,0.0,0.9,94,0.00,,,0.00,VWS V14.01,2013-06-12 04:41:00,
2013-06-11 23:42:00,65.8,64.1,28.97,South,180,0.0,0.9,94,0.00,,FEW,0.00,VWS V14.01,2013-06-12 04:42:00,
2013-06-11 23:43:00,66.0,64.2,28.97,SSE,158,0.0,0.0,94,0.00,,FEW,0.00,VWS V14.01,2013-06-12 04:43:00,
2013-06-11 23:44:00,66.0,63.9,28.97,SSW,202,0.0,0.0,93,0.00,,FEW,0.00,VWS V14.01,2013-06-12 04:44:00,
2013-06-11 23:45:00,65.8,63.8,28.97,NE,45,0.0,0.0,93,0.00,,FEW,0.00,VWS V14.01,2013-06-12 04:45:00,
2013-06-11 23:46:00,66.0,64.2,28.97,North,0,0.9,2.0,94,0.00,,,0.00,VWS V14.01,2013-06-12 04:46:00,
2013-06-11 23:47:00,66.0,64.2,28.97,North,0,0.9,2.0,94,0.00,,FEW,0.00,VWS V14.01,2013-06-12 04:47:00,
2013-06-11 23:49:00,66.0,64.2,28.97,NNW,338,1.1,1.6,94,0.00,,FEW,0.00,VWS V14.01,2013-06-12 04:49:00,
2013-06-11 23:50:00,66.0,64.2,28.97,NNW,338,1.1,1.1,94,0.00,,FEW,0.00,VWS V14.01,2013-06-12 04:50:00,
2013-06-11 23:51:00,66.0,64.2,28.97,North,0,1.6,1.6,94,0.00,,,0.00,VWS V14.01,2013-06-12 04:51:00,
2013-06-11 23:52:00,66.0,64.2,28.97,North,0,1.6,1.6,94,0.00,,FEW,0.00,VWS V14.01,2013-06-12 04:52:00,
2013-06-11 23:53:00,66.0,64.2,28.97,North,0,1.6,1.6,94,0.00,,FEW,0.00,VWS V14.01,2013-06-12 04:53:00,
2013-06-11 23:54:00,66.0,64.2,28.97,North,0,1.6,1.6,94,0.00,,FEW,0.00,VWS V14.01,2013-06-12 04:54:00,
2013-06-11 23:55:00,66.0,64.2,28.97,North,0,1.6,1.6,94,0.00,,FEW,0.00,VWS V14.01,2013-06-12 04:55:00,
2013-06-11 23:56:00,66.0,64.2,28.97,North,0,1.6,1.6,94,0.00,,,0.00,VWS V14.01,2013-06-12 04:56:00,
2013-06-11 23:57:00,66.0,64.2,28.97,North,0,1.6,1.6,94,0.00,,FEW,0.00,VWS V14.01,2013-06-12 04:57:00,
2013-06-11 23:58:00,66.0,64.2,28.97,North,0,1.6,1.6,94,0.00,,FEW,0.00,VWS V14.01,2013-06-12 04:58:00,
2013-06-11 23:59:00,66.0,64.2,28.97,North,0,1.6,1.6,94,0.00,,FEW,0.00,VWS V14.01,2013-06-12 04:59:00,